<?xml version="1.0" encoding="UTF-8" standalone="no" ?>
<gpx xmlns="http://www.topografix.com/GPX/1/1" xmlns:xsi="http://www.w3.org/2001/XMLSchema-instance" xsi:schemaLocation="http://www.topografix.com/GPX/1/1 http://www.topografix.com/GPX/1/1/gpx.xsd" version="1.1" creator="VisuGPX - https://www.visugpx.com">
  <metadata>
    <name>Moret-sur-Loing - Plaine de Sorques (77)</name>
    <desc><![CDATA[Randonnée de 19km en boucle à partir de la gare de Gare de Moret-Veneux-Les Sablons (zone 5) ]]></desc>
  </metadata>
  <trk>
    <name><![CDATA[Plaine de Sorques_R]]></name>
    <trkseg>
      <trkpt lat="48.37845" lon="2.7996">
        <ele>59.42</ele>
        <time>2017-04-09T07:34:45Z</time>
      </trkpt>
      <trkpt lat="48.37845" lon="2.7996">
        <ele>59.42</ele>
        <time>2017-04-09T07:34:46Z</time>
      </trkpt>
      <trkpt lat="48.37843" lon="2.79956">
        <ele>60.03</ele>
        <time>2017-04-09T07:35:08Z</time>
      </trkpt>
      <trkpt lat="48.37846" lon="2.7996">
        <ele>59.49</ele>
        <time>2017-04-09T07:35:29Z</time>
      </trkpt>
      <trkpt lat="48.37846" lon="2.79962">
        <ele>59.79</ele>
        <time>2017-04-09T07:35:49Z</time>
      </trkpt>
      <trkpt lat="48.37847" lon="2.79962">
        <ele>59.67</ele>
        <time>2017-04-09T07:36:13Z</time>
      </trkpt>
      <trkpt lat="48.37848" lon="2.79962">
        <ele>59.91</ele>
        <time>2017-04-09T07:36:35Z</time>
      </trkpt>
      <trkpt lat="48.37845" lon="2.7996">
        <ele>60.05</ele>
        <time>2017-04-09T07:36:58Z</time>
      </trkpt>
      <trkpt lat="48.37845" lon="2.79957">
        <ele>59.5</ele>
        <time>2017-04-09T07:37:24Z</time>
      </trkpt>
      <trkpt lat="48.37848" lon="2.7996">
        <ele>59.88</ele>
        <time>2017-04-09T07:37:42Z</time>
      </trkpt>
      <trkpt lat="48.37847" lon="2.79953">
        <ele>60.46</ele>
        <time>2017-04-09T07:37:58Z</time>
      </trkpt>
      <trkpt lat="48.37849" lon="2.79947">
        <ele>60.39</ele>
        <time>2017-04-09T07:38:15Z</time>
      </trkpt>
      <trkpt lat="48.37856" lon="2.79938">
        <ele>60.37</ele>
        <time>2017-04-09T07:38:35Z</time>
      </trkpt>
      <trkpt lat="48.37861" lon="2.79934">
        <ele>60.04</ele>
        <time>2017-04-09T07:39:02Z</time>
      </trkpt>
      <trkpt lat="48.37859" lon="2.79933">
        <ele>60.23</ele>
        <time>2017-04-09T07:39:25Z</time>
      </trkpt>
      <trkpt lat="48.37866" lon="2.79936">
        <ele>60.62</ele>
        <time>2017-04-09T07:39:50Z</time>
      </trkpt>
      <trkpt lat="48.37866" lon="2.79938">
        <ele>60.62</ele>
        <time>2017-04-09T07:40:11Z</time>
      </trkpt>
      <trkpt lat="48.37865" lon="2.79929">
        <ele>58.82</ele>
        <time>2017-04-09T07:40:27Z</time>
      </trkpt>
      <trkpt lat="48.37866" lon="2.79926">
        <ele>55.54</ele>
        <time>2017-04-09T07:40:34Z</time>
      </trkpt>
      <trkpt lat="48.37868" lon="2.79922">
        <ele>55.75</ele>
        <time>2017-04-09T07:40:46Z</time>
      </trkpt>
      <trkpt lat="48.37868" lon="2.79917">
        <ele>57.69</ele>
        <time>2017-04-09T07:40:50Z</time>
      </trkpt>
      <trkpt lat="48.37867" lon="2.79919">
        <ele>58.31</ele>
        <time>2017-04-09T07:40:53Z</time>
      </trkpt>
      <trkpt lat="48.37867" lon="2.79925">
        <ele>59.37</ele>
        <time>2017-04-09T07:40:58Z</time>
      </trkpt>
      <trkpt lat="48.37865" lon="2.79928">
        <ele>59.73</ele>
        <time>2017-04-09T07:41:20Z</time>
      </trkpt>
      <trkpt lat="48.37867" lon="2.79929">
        <ele>59.8</ele>
        <time>2017-04-09T07:41:43Z</time>
      </trkpt>
      <trkpt lat="48.37866" lon="2.79928">
        <ele>60.02</ele>
        <time>2017-04-09T07:42:08Z</time>
      </trkpt>
      <trkpt lat="48.37867" lon="2.79931">
        <ele>59.83</ele>
        <time>2017-04-09T07:42:34Z</time>
      </trkpt>
      <trkpt lat="48.37867" lon="2.79927">
        <ele>59.83</ele>
        <time>2017-04-09T07:42:54Z</time>
      </trkpt>
      <trkpt lat="48.37868" lon="2.7993">
        <ele>59.61</ele>
        <time>2017-04-09T07:43:21Z</time>
      </trkpt>
      <trkpt lat="48.37869" lon="2.79927">
        <ele>59.64</ele>
        <time>2017-04-09T07:43:44Z</time>
      </trkpt>
      <trkpt lat="48.37869" lon="2.79925">
        <ele>59.54</ele>
        <time>2017-04-09T07:44:10Z</time>
      </trkpt>
      <trkpt lat="48.37867" lon="2.79925">
        <ele>59.29</ele>
        <time>2017-04-09T07:44:41Z</time>
      </trkpt>
      <trkpt lat="48.37864" lon="2.79928">
        <ele>59.87</ele>
        <time>2017-04-09T07:45:08Z</time>
      </trkpt>
      <trkpt lat="48.37863" lon="2.79927">
        <ele>59.41</ele>
        <time>2017-04-09T07:45:32Z</time>
      </trkpt>
      <trkpt lat="48.37865" lon="2.79927">
        <ele>59.31</ele>
        <time>2017-04-09T07:45:55Z</time>
      </trkpt>
      <trkpt lat="48.37871" lon="2.79923">
        <ele>58.96</ele>
        <time>2017-04-09T07:46:19Z</time>
      </trkpt>
      <trkpt lat="48.37871" lon="2.79914">
        <ele>59.68</ele>
        <time>2017-04-09T07:46:27Z</time>
      </trkpt>
      <trkpt lat="48.37878" lon="2.79903">
        <ele>57.23</ele>
        <time>2017-04-09T07:46:43Z</time>
      </trkpt>
      <trkpt lat="48.37888" lon="2.79913">
        <ele>54.74</ele>
        <time>2017-04-09T07:47:02Z</time>
      </trkpt>
      <trkpt lat="48.37891" lon="2.79915">
        <ele>55.28</ele>
        <time>2017-04-09T07:47:06Z</time>
      </trkpt>
      <trkpt lat="48.37902" lon="2.79924">
        <ele>51.8</ele>
        <time>2017-04-09T07:47:24Z</time>
      </trkpt>
      <trkpt lat="48.37912" lon="2.79936">
        <ele>49.66</ele>
        <time>2017-04-09T07:47:43Z</time>
      </trkpt>
      <trkpt lat="48.37919" lon="2.79954">
        <ele>46.44</ele>
        <time>2017-04-09T07:47:58Z</time>
      </trkpt>
      <trkpt lat="48.37921" lon="2.79958">
        <ele>45.59</ele>
        <time>2017-04-09T07:48:01Z</time>
      </trkpt>
      <trkpt lat="48.37923" lon="2.79961">
        <ele>45.33</ele>
        <time>2017-04-09T07:48:03Z</time>
      </trkpt>
      <trkpt lat="48.37938" lon="2.79983">
        <ele>42.16</ele>
        <time>2017-04-09T07:48:21Z</time>
      </trkpt>
      <trkpt lat="48.37944" lon="2.79995">
        <ele>41.31</ele>
        <time>2017-04-09T07:48:39Z</time>
      </trkpt>
      <trkpt lat="48.37946" lon="2.80003">
        <ele>41.19</ele>
        <time>2017-04-09T07:48:59Z</time>
      </trkpt>
      <trkpt lat="48.37947" lon="2.80006">
        <ele>41.29</ele>
        <time>2017-04-09T07:49:20Z</time>
      </trkpt>
      <trkpt lat="48.37947" lon="2.80008">
        <ele>41.23</ele>
        <time>2017-04-09T07:49:44Z</time>
      </trkpt>
      <trkpt lat="48.37939" lon="2.80011">
        <ele>41.12</ele>
        <time>2017-04-09T07:50:03Z</time>
      </trkpt>
      <trkpt lat="48.3793" lon="2.8002">
        <ele>41.72</ele>
        <time>2017-04-09T07:50:17Z</time>
      </trkpt>
      <trkpt lat="48.37921" lon="2.80028">
        <ele>41.54</ele>
        <time>2017-04-09T07:50:29Z</time>
      </trkpt>
      <trkpt lat="48.37914" lon="2.80044">
        <ele>42.3</ele>
        <time>2017-04-09T07:50:42Z</time>
      </trkpt>
      <trkpt lat="48.37909" lon="2.80052">
        <ele>42.32</ele>
        <time>2017-04-09T07:50:52Z</time>
      </trkpt>
      <trkpt lat="48.37896" lon="2.80067">
        <ele>42.45</ele>
        <time>2017-04-09T07:51:08Z</time>
      </trkpt>
      <trkpt lat="48.3789" lon="2.80077">
        <ele>42.75</ele>
        <time>2017-04-09T07:51:20Z</time>
      </trkpt>
      <trkpt lat="48.37885" lon="2.80084">
        <ele>42.84</ele>
        <time>2017-04-09T07:51:25Z</time>
      </trkpt>
      <trkpt lat="48.37883" lon="2.80088">
        <ele>42.48</ele>
        <time>2017-04-09T07:51:28Z</time>
      </trkpt>
      <trkpt lat="48.37879" lon="2.80092">
        <ele>42.98</ele>
        <time>2017-04-09T07:51:33Z</time>
      </trkpt>
      <trkpt lat="48.3787" lon="2.80099">
        <ele>43.03</ele>
        <time>2017-04-09T07:51:41Z</time>
      </trkpt>
      <trkpt lat="48.37865" lon="2.80115">
        <ele>43.44</ele>
        <time>2017-04-09T07:51:52Z</time>
      </trkpt>
      <trkpt lat="48.37864" lon="2.80118">
        <ele>42.52</ele>
        <time>2017-04-09T07:51:54Z</time>
      </trkpt>
      <trkpt lat="48.37863" lon="2.80124">
        <ele>42.92</ele>
        <time>2017-04-09T07:51:57Z</time>
      </trkpt>
      <trkpt lat="48.37859" lon="2.80133">
        <ele>42.2</ele>
        <time>2017-04-09T07:52:02Z</time>
      </trkpt>
      <trkpt lat="48.37856" lon="2.8015">
        <ele>41.42</ele>
        <time>2017-04-09T07:52:13Z</time>
      </trkpt>
      <trkpt lat="48.37856" lon="2.80151">
        <ele>41.66</ele>
        <time>2017-04-09T07:52:14Z</time>
      </trkpt>
      <trkpt lat="48.37856" lon="2.80156">
        <ele>41.09</ele>
        <time>2017-04-09T07:52:18Z</time>
      </trkpt>
      <trkpt lat="48.37855" lon="2.80179">
        <ele>40.45</ele>
        <time>2017-04-09T07:52:31Z</time>
      </trkpt>
      <trkpt lat="48.37856" lon="2.80196">
        <ele>39.62</ele>
        <time>2017-04-09T07:52:41Z</time>
      </trkpt>
      <trkpt lat="48.37857" lon="2.80223">
        <ele>38.74</ele>
        <time>2017-04-09T07:52:56Z</time>
      </trkpt>
      <trkpt lat="48.37857" lon="2.80225">
        <ele>38.79</ele>
        <time>2017-04-09T07:52:57Z</time>
      </trkpt>
      <trkpt lat="48.37856" lon="2.80233">
        <ele>38.42</ele>
        <time>2017-04-09T07:53:01Z</time>
      </trkpt>
      <trkpt lat="48.37856" lon="2.80262">
        <ele>38.53</ele>
        <time>2017-04-09T07:53:15Z</time>
      </trkpt>
      <trkpt lat="48.37858" lon="2.80276">
        <ele>38.2</ele>
        <time>2017-04-09T07:53:23Z</time>
      </trkpt>
      <trkpt lat="48.3786" lon="2.803">
        <ele>37.07</ele>
        <time>2017-04-09T07:53:37Z</time>
      </trkpt>
      <trkpt lat="48.37862" lon="2.80314">
        <ele>36.52</ele>
        <time>2017-04-09T07:53:45Z</time>
      </trkpt>
      <trkpt lat="48.37859" lon="2.80345">
        <ele>36.79</ele>
        <time>2017-04-09T07:54:01Z</time>
      </trkpt>
      <trkpt lat="48.37859" lon="2.80346">
        <ele>36.27</ele>
        <time>2017-04-09T07:54:02Z</time>
      </trkpt>
      <trkpt lat="48.37858" lon="2.80355">
        <ele>36.67</ele>
        <time>2017-04-09T07:54:07Z</time>
      </trkpt>
      <trkpt lat="48.37858" lon="2.80362">
        <ele>36.87</ele>
        <time>2017-04-09T07:54:11Z</time>
      </trkpt>
      <trkpt lat="48.37858" lon="2.80369">
        <ele>36.75</ele>
        <time>2017-04-09T07:54:15Z</time>
      </trkpt>
      <trkpt lat="48.3786" lon="2.80378">
        <ele>35.82</ele>
        <time>2017-04-09T07:54:21Z</time>
      </trkpt>
      <trkpt lat="48.3786" lon="2.80389">
        <ele>35.92</ele>
        <time>2017-04-09T07:54:27Z</time>
      </trkpt>
      <trkpt lat="48.3786" lon="2.80394">
        <ele>35.9</ele>
        <time>2017-04-09T07:54:30Z</time>
      </trkpt>
      <trkpt lat="48.37862" lon="2.80417">
        <ele>36.04</ele>
        <time>2017-04-09T07:54:41Z</time>
      </trkpt>
      <trkpt lat="48.37865" lon="2.80431">
        <ele>35.4</ele>
        <time>2017-04-09T07:54:50Z</time>
      </trkpt>
      <trkpt lat="48.37867" lon="2.80445">
        <ele>35.05</ele>
        <time>2017-04-09T07:54:57Z</time>
      </trkpt>
      <trkpt lat="48.37866" lon="2.80448">
        <ele>35.07</ele>
        <time>2017-04-09T07:54:59Z</time>
      </trkpt>
      <trkpt lat="48.37869" lon="2.80464">
        <ele>35.41</ele>
        <time>2017-04-09T07:55:07Z</time>
      </trkpt>
      <trkpt lat="48.37869" lon="2.80484">
        <ele>35.17</ele>
        <time>2017-04-09T07:55:20Z</time>
      </trkpt>
      <trkpt lat="48.3787" lon="2.80499">
        <ele>35.36</ele>
        <time>2017-04-09T07:55:28Z</time>
      </trkpt>
      <trkpt lat="48.37871" lon="2.80505">
        <ele>35.04</ele>
        <time>2017-04-09T07:55:32Z</time>
      </trkpt>
      <trkpt lat="48.37874" lon="2.80526">
        <ele>34.27</ele>
        <time>2017-04-09T07:55:43Z</time>
      </trkpt>
      <trkpt lat="48.37874" lon="2.80539">
        <ele>34.21</ele>
        <time>2017-04-09T07:55:51Z</time>
      </trkpt>
      <trkpt lat="48.37875" lon="2.80545">
        <ele>34.37</ele>
        <time>2017-04-09T07:55:54Z</time>
      </trkpt>
      <trkpt lat="48.37877" lon="2.80572">
        <ele>34.5</ele>
        <time>2017-04-09T07:56:09Z</time>
      </trkpt>
      <trkpt lat="48.37878" lon="2.80595">
        <ele>34.28</ele>
        <time>2017-04-09T07:56:22Z</time>
      </trkpt>
      <trkpt lat="48.37881" lon="2.80619">
        <ele>34.35</ele>
        <time>2017-04-09T07:56:35Z</time>
      </trkpt>
      <trkpt lat="48.37884" lon="2.80642">
        <ele>34.53</ele>
        <time>2017-04-09T07:56:49Z</time>
      </trkpt>
      <trkpt lat="48.37885" lon="2.80654">
        <ele>35.05</ele>
        <time>2017-04-09T07:56:56Z</time>
      </trkpt>
      <trkpt lat="48.37887" lon="2.80663">
        <ele>34.72</ele>
        <time>2017-04-09T07:57:01Z</time>
      </trkpt>
      <trkpt lat="48.3789" lon="2.80681">
        <ele>35.14</ele>
        <time>2017-04-09T07:57:11Z</time>
      </trkpt>
      <trkpt lat="48.37891" lon="2.80686">
        <ele>35.05</ele>
        <time>2017-04-09T07:57:14Z</time>
      </trkpt>
      <trkpt lat="48.37893" lon="2.80698">
        <ele>35.09</ele>
        <time>2017-04-09T07:57:20Z</time>
      </trkpt>
      <trkpt lat="48.37896" lon="2.80721">
        <ele>35.1</ele>
        <time>2017-04-09T07:57:33Z</time>
      </trkpt>
      <trkpt lat="48.37897" lon="2.8073">
        <ele>34.84</ele>
        <time>2017-04-09T07:57:39Z</time>
      </trkpt>
      <trkpt lat="48.37898" lon="2.80737">
        <ele>34.82</ele>
        <time>2017-04-09T07:57:43Z</time>
      </trkpt>
      <trkpt lat="48.37897" lon="2.80744">
        <ele>35.85</ele>
        <time>2017-04-09T07:57:47Z</time>
      </trkpt>
      <trkpt lat="48.37897" lon="2.80748">
        <ele>35.91</ele>
        <time>2017-04-09T07:57:49Z</time>
      </trkpt>
      <trkpt lat="48.37895" lon="2.80767">
        <ele>36.08</ele>
        <time>2017-04-09T07:58:01Z</time>
      </trkpt>
      <trkpt lat="48.379" lon="2.80783">
        <ele>36.35</ele>
        <time>2017-04-09T07:58:12Z</time>
      </trkpt>
      <trkpt lat="48.37908" lon="2.8079">
        <ele>35.79</ele>
        <time>2017-04-09T07:58:28Z</time>
      </trkpt>
      <trkpt lat="48.37911" lon="2.80796">
        <ele>35.96</ele>
        <time>2017-04-09T07:58:47Z</time>
      </trkpt>
      <trkpt lat="48.37913" lon="2.80817">
        <ele>36.17</ele>
        <time>2017-04-09T07:59:03Z</time>
      </trkpt>
      <trkpt lat="48.37913" lon="2.8082">
        <ele>35.86</ele>
        <time>2017-04-09T07:59:09Z</time>
      </trkpt>
      <trkpt lat="48.37907" lon="2.80847">
        <ele>35.75</ele>
        <time>2017-04-09T07:59:27Z</time>
      </trkpt>
      <trkpt lat="48.37908" lon="2.80853">
        <ele>36.47</ele>
        <time>2017-04-09T07:59:31Z</time>
      </trkpt>
      <trkpt lat="48.37912" lon="2.8088">
        <ele>36.08</ele>
        <time>2017-04-09T07:59:45Z</time>
      </trkpt>
      <trkpt lat="48.37917" lon="2.80901">
        <ele>35.77</ele>
        <time>2017-04-09T07:59:59Z</time>
      </trkpt>
      <trkpt lat="48.3792" lon="2.80908">
        <ele>35.75</ele>
        <time>2017-04-09T08:00:04Z</time>
      </trkpt>
      <trkpt lat="48.37922" lon="2.80916">
        <ele>35.62</ele>
        <time>2017-04-09T08:00:09Z</time>
      </trkpt>
      <trkpt lat="48.37926" lon="2.80928">
        <ele>35.49</ele>
        <time>2017-04-09T08:00:16Z</time>
      </trkpt>
      <trkpt lat="48.37927" lon="2.80931">
        <ele>35.42</ele>
        <time>2017-04-09T08:00:18Z</time>
      </trkpt>
      <trkpt lat="48.37927" lon="2.80935">
        <ele>35.61</ele>
        <time>2017-04-09T08:00:20Z</time>
      </trkpt>
      <trkpt lat="48.37928" lon="2.80954">
        <ele>34.7</ele>
        <time>2017-04-09T08:00:36Z</time>
      </trkpt>
      <trkpt lat="48.37928" lon="2.80954">
        <ele>34.7</ele>
        <time>2017-04-09T08:00:54Z</time>
      </trkpt>
      <trkpt lat="48.37935" lon="2.80961">
        <ele>34.36</ele>
        <time>2017-04-09T08:01:06Z</time>
      </trkpt>
      <trkpt lat="48.37942" lon="2.80985">
        <ele>34.32</ele>
        <time>2017-04-09T08:01:20Z</time>
      </trkpt>
      <trkpt lat="48.37943" lon="2.80986">
        <ele>34.13</ele>
        <time>2017-04-09T08:01:21Z</time>
      </trkpt>
      <trkpt lat="48.37947" lon="2.80998">
        <ele>33.93</ele>
        <time>2017-04-09T08:01:29Z</time>
      </trkpt>
      <trkpt lat="48.37952" lon="2.81015">
        <ele>33.59</ele>
        <time>2017-04-09T08:01:40Z</time>
      </trkpt>
      <trkpt lat="48.37954" lon="2.81026">
        <ele>33.4</ele>
        <time>2017-04-09T08:01:53Z</time>
      </trkpt>
      <trkpt lat="48.37955" lon="2.81029">
        <ele>33.92</ele>
        <time>2017-04-09T08:01:55Z</time>
      </trkpt>
      <trkpt lat="48.3796" lon="2.81044">
        <ele>33.78</ele>
        <time>2017-04-09T08:02:08Z</time>
      </trkpt>
      <trkpt lat="48.37966" lon="2.81058">
        <ele>33.66</ele>
        <time>2017-04-09T08:02:18Z</time>
      </trkpt>
      <trkpt lat="48.37971" lon="2.81071">
        <ele>33.06</ele>
        <time>2017-04-09T08:02:26Z</time>
      </trkpt>
      <trkpt lat="48.37982" lon="2.81092">
        <ele>33.15</ele>
        <time>2017-04-09T08:02:42Z</time>
      </trkpt>
      <trkpt lat="48.37989" lon="2.81109">
        <ele>33.41</ele>
        <time>2017-04-09T08:02:55Z</time>
      </trkpt>
      <trkpt lat="48.37994" lon="2.81119">
        <ele>33.48</ele>
        <time>2017-04-09T08:03:03Z</time>
      </trkpt>
      <trkpt lat="48.38004" lon="2.81136">
        <ele>33.33</ele>
        <time>2017-04-09T08:03:16Z</time>
      </trkpt>
      <trkpt lat="48.38014" lon="2.81154">
        <ele>33.35</ele>
        <time>2017-04-09T08:03:30Z</time>
      </trkpt>
      <trkpt lat="48.38022" lon="2.8117">
        <ele>33.32</ele>
        <time>2017-04-09T08:03:42Z</time>
      </trkpt>
      <trkpt lat="48.38034" lon="2.81184">
        <ele>32.64</ele>
        <time>2017-04-09T08:03:56Z</time>
      </trkpt>
      <trkpt lat="48.3804" lon="2.81196">
        <ele>33.03</ele>
        <time>2017-04-09T08:04:09Z</time>
      </trkpt>
      <trkpt lat="48.38041" lon="2.81201">
        <ele>32.84</ele>
        <time>2017-04-09T08:04:22Z</time>
      </trkpt>
      <trkpt lat="48.3804" lon="2.81208">
        <ele>32.78</ele>
        <time>2017-04-09T08:04:35Z</time>
      </trkpt>
      <trkpt lat="48.38035" lon="2.81208">
        <ele>33</ele>
        <time>2017-04-09T08:05:00Z</time>
      </trkpt>
      <trkpt lat="48.38032" lon="2.81215">
        <ele>33.11</ele>
        <time>2017-04-09T08:05:20Z</time>
      </trkpt>
      <trkpt lat="48.38027" lon="2.81228">
        <ele>32.42</ele>
        <time>2017-04-09T08:05:35Z</time>
      </trkpt>
      <trkpt lat="48.38021" lon="2.81245">
        <ele>32.54</ele>
        <time>2017-04-09T08:05:51Z</time>
      </trkpt>
      <trkpt lat="48.38014" lon="2.81264">
        <ele>33.32</ele>
        <time>2017-04-09T08:06:07Z</time>
      </trkpt>
      <trkpt lat="48.38008" lon="2.81275">
        <ele>33.75</ele>
        <time>2017-04-09T08:06:23Z</time>
      </trkpt>
      <trkpt lat="48.38005" lon="2.81285">
        <ele>33.22</ele>
        <time>2017-04-09T08:06:40Z</time>
      </trkpt>
      <trkpt lat="48.38004" lon="2.8129">
        <ele>33.74</ele>
        <time>2017-04-09T08:07:01Z</time>
      </trkpt>
      <trkpt lat="48.38003" lon="2.81292">
        <ele>33.2</ele>
        <time>2017-04-09T08:07:23Z</time>
      </trkpt>
      <trkpt lat="48.38001" lon="2.81295">
        <ele>33.01</ele>
        <time>2017-04-09T08:07:41Z</time>
      </trkpt>
      <trkpt lat="48.37997" lon="2.81299">
        <ele>33.47</ele>
        <time>2017-04-09T08:08:03Z</time>
      </trkpt>
      <trkpt lat="48.37998" lon="2.813">
        <ele>32.91</ele>
        <time>2017-04-09T08:08:25Z</time>
      </trkpt>
      <trkpt lat="48.37998" lon="2.81303">
        <ele>33.09</ele>
        <time>2017-04-09T08:08:43Z</time>
      </trkpt>
      <trkpt lat="48.37995" lon="2.81303">
        <ele>32.83</ele>
        <time>2017-04-09T08:09:08Z</time>
      </trkpt>
      <trkpt lat="48.37995" lon="2.81301">
        <ele>33.58</ele>
        <time>2017-04-09T08:09:33Z</time>
      </trkpt>
      <trkpt lat="48.37992" lon="2.81305">
        <ele>33.06</ele>
        <time>2017-04-09T08:10:00Z</time>
      </trkpt>
      <trkpt lat="48.37991" lon="2.81305">
        <ele>33.27</ele>
        <time>2017-04-09T08:10:26Z</time>
      </trkpt>
      <trkpt lat="48.37992" lon="2.81309">
        <ele>32.97</ele>
        <time>2017-04-09T08:10:44Z</time>
      </trkpt>
      <trkpt lat="48.37994" lon="2.81306">
        <ele>33.14</ele>
        <time>2017-04-09T08:11:06Z</time>
      </trkpt>
      <trkpt lat="48.37994" lon="2.81308">
        <ele>32.79</ele>
        <time>2017-04-09T08:11:31Z</time>
      </trkpt>
      <trkpt lat="48.3799" lon="2.8132">
        <ele>33</ele>
        <time>2017-04-09T08:11:51Z</time>
      </trkpt>
      <trkpt lat="48.37985" lon="2.81337">
        <ele>32.98</ele>
        <time>2017-04-09T08:12:15Z</time>
      </trkpt>
      <trkpt lat="48.3798" lon="2.81346">
        <ele>33.07</ele>
        <time>2017-04-09T08:12:37Z</time>
      </trkpt>
      <trkpt lat="48.37971" lon="2.81362">
        <ele>32.84</ele>
        <time>2017-04-09T08:12:56Z</time>
      </trkpt>
      <trkpt lat="48.37963" lon="2.81384">
        <ele>32.32</ele>
        <time>2017-04-09T08:13:16Z</time>
      </trkpt>
      <trkpt lat="48.3796" lon="2.81397">
        <ele>32.65</ele>
        <time>2017-04-09T08:13:25Z</time>
      </trkpt>
      <trkpt lat="48.37953" lon="2.81411">
        <ele>32.46</ele>
        <time>2017-04-09T08:13:40Z</time>
      </trkpt>
      <trkpt lat="48.37946" lon="2.81425">
        <ele>32.88</ele>
        <time>2017-04-09T08:13:52Z</time>
      </trkpt>
      <trkpt lat="48.37941" lon="2.81435">
        <ele>33.16</ele>
        <time>2017-04-09T08:14:01Z</time>
      </trkpt>
      <trkpt lat="48.37933" lon="2.81456">
        <ele>32.7</ele>
        <time>2017-04-09T08:14:14Z</time>
      </trkpt>
      <trkpt lat="48.37926" lon="2.81474">
        <ele>32.85</ele>
        <time>2017-04-09T08:14:28Z</time>
      </trkpt>
      <trkpt lat="48.37921" lon="2.81487">
        <ele>32.91</ele>
        <time>2017-04-09T08:14:37Z</time>
      </trkpt>
      <trkpt lat="48.37918" lon="2.81492">
        <ele>32.93</ele>
        <time>2017-04-09T08:14:41Z</time>
      </trkpt>
      <trkpt lat="48.37907" lon="2.81516">
        <ele>33.4</ele>
        <time>2017-04-09T08:15:01Z</time>
      </trkpt>
      <trkpt lat="48.37897" lon="2.81537">
        <ele>32.76</ele>
        <time>2017-04-09T08:15:20Z</time>
      </trkpt>
      <trkpt lat="48.37883" lon="2.8157">
        <ele>33.12</ele>
        <time>2017-04-09T08:15:41Z</time>
      </trkpt>
      <trkpt lat="48.37874" lon="2.81591">
        <ele>32.67</ele>
        <time>2017-04-09T08:15:59Z</time>
      </trkpt>
      <trkpt lat="48.37865" lon="2.81605">
        <ele>32.1</ele>
        <time>2017-04-09T08:16:16Z</time>
      </trkpt>
      <trkpt lat="48.37863" lon="2.81609">
        <ele>32.21</ele>
        <time>2017-04-09T08:16:19Z</time>
      </trkpt>
      <trkpt lat="48.37855" lon="2.81624">
        <ele>31.26</ele>
        <time>2017-04-09T08:16:32Z</time>
      </trkpt>
      <trkpt lat="48.37846" lon="2.81645">
        <ele>31.3</ele>
        <time>2017-04-09T08:16:47Z</time>
      </trkpt>
      <trkpt lat="48.37845" lon="2.81649">
        <ele>31.37</ele>
        <time>2017-04-09T08:16:49Z</time>
      </trkpt>
      <trkpt lat="48.37835" lon="2.81671">
        <ele>31.56</ele>
        <time>2017-04-09T08:17:03Z</time>
      </trkpt>
      <trkpt lat="48.37821" lon="2.81696">
        <ele>31</ele>
        <time>2017-04-09T08:17:22Z</time>
      </trkpt>
      <trkpt lat="48.37806" lon="2.8172">
        <ele>29.94</ele>
        <time>2017-04-09T08:17:41Z</time>
      </trkpt>
      <trkpt lat="48.37804" lon="2.81723">
        <ele>30.26</ele>
        <time>2017-04-09T08:17:43Z</time>
      </trkpt>
      <trkpt lat="48.37798" lon="2.81734">
        <ele>30.43</ele>
        <time>2017-04-09T08:17:50Z</time>
      </trkpt>
      <trkpt lat="48.37794" lon="2.81741">
        <ele>30.33</ele>
        <time>2017-04-09T08:17:55Z</time>
      </trkpt>
      <trkpt lat="48.37788" lon="2.81747">
        <ele>30</ele>
        <time>2017-04-09T08:18:02Z</time>
      </trkpt>
      <trkpt lat="48.37787" lon="2.8175">
        <ele>29.83</ele>
        <time>2017-04-09T08:18:05Z</time>
      </trkpt>
      <trkpt lat="48.37779" lon="2.81765">
        <ele>30.64</ele>
        <time>2017-04-09T08:18:17Z</time>
      </trkpt>
      <trkpt lat="48.37774" lon="2.81778">
        <ele>30.34</ele>
        <time>2017-04-09T08:18:31Z</time>
      </trkpt>
      <trkpt lat="48.37763" lon="2.81786">
        <ele>30.7</ele>
        <time>2017-04-09T08:18:50Z</time>
      </trkpt>
      <trkpt lat="48.3776" lon="2.81788">
        <ele>30.81</ele>
        <time>2017-04-09T08:19:11Z</time>
      </trkpt>
      <trkpt lat="48.37758" lon="2.81791">
        <ele>30.81</ele>
        <time>2017-04-09T08:19:27Z</time>
      </trkpt>
      <trkpt lat="48.37751" lon="2.81783">
        <ele>30.79</ele>
        <time>2017-04-09T08:19:49Z</time>
      </trkpt>
      <trkpt lat="48.37752" lon="2.81782">
        <ele>30.53</ele>
        <time>2017-04-09T08:20:05Z</time>
      </trkpt>
      <trkpt lat="48.37748" lon="2.81788">
        <ele>30.82</ele>
        <time>2017-04-09T08:20:12Z</time>
      </trkpt>
      <trkpt lat="48.37747" lon="2.81796">
        <ele>30.64</ele>
        <time>2017-04-09T08:20:26Z</time>
      </trkpt>
      <trkpt lat="48.37745" lon="2.81804">
        <ele>30.83</ele>
        <time>2017-04-09T08:20:43Z</time>
      </trkpt>
      <trkpt lat="48.37743" lon="2.81811">
        <ele>30.18</ele>
        <time>2017-04-09T08:20:48Z</time>
      </trkpt>
      <trkpt lat="48.37742" lon="2.81814">
        <ele>30.19</ele>
        <time>2017-04-09T08:20:50Z</time>
      </trkpt>
      <trkpt lat="48.37742" lon="2.81821">
        <ele>30.22</ele>
        <time>2017-04-09T08:21:07Z</time>
      </trkpt>
      <trkpt lat="48.3774" lon="2.81825">
        <ele>30.41</ele>
        <time>2017-04-09T08:21:22Z</time>
      </trkpt>
      <trkpt lat="48.3774" lon="2.81821">
        <ele>29.93</ele>
        <time>2017-04-09T08:21:28Z</time>
      </trkpt>
      <trkpt lat="48.37731" lon="2.81819">
        <ele>30.63</ele>
        <time>2017-04-09T08:21:44Z</time>
      </trkpt>
      <trkpt lat="48.37727" lon="2.8182">
        <ele>31.08</ele>
        <time>2017-04-09T08:21:48Z</time>
      </trkpt>
      <trkpt lat="48.3772" lon="2.81823">
        <ele>29.97</ele>
        <time>2017-04-09T08:22:05Z</time>
      </trkpt>
      <trkpt lat="48.37708" lon="2.81827">
        <ele>29.85</ele>
        <time>2017-04-09T08:22:22Z</time>
      </trkpt>
      <trkpt lat="48.37695" lon="2.81836">
        <ele>30.43</ele>
        <time>2017-04-09T08:22:40Z</time>
      </trkpt>
      <trkpt lat="48.3769" lon="2.8184">
        <ele>30.33</ele>
        <time>2017-04-09T08:22:51Z</time>
      </trkpt>
      <trkpt lat="48.37684" lon="2.8184">
        <ele>30.6</ele>
        <time>2017-04-09T08:23:14Z</time>
      </trkpt>
      <trkpt lat="48.37677" lon="2.81848">
        <ele>30.99</ele>
        <time>2017-04-09T08:23:39Z</time>
      </trkpt>
      <trkpt lat="48.3767" lon="2.8185">
        <ele>30.26</ele>
        <time>2017-04-09T08:23:57Z</time>
      </trkpt>
      <trkpt lat="48.37656" lon="2.81856">
        <ele>30.56</ele>
        <time>2017-04-09T08:24:14Z</time>
      </trkpt>
      <trkpt lat="48.37645" lon="2.81856">
        <ele>30.9</ele>
        <time>2017-04-09T08:24:22Z</time>
      </trkpt>
      <trkpt lat="48.37634" lon="2.81856">
        <ele>31.3</ele>
        <time>2017-04-09T08:24:31Z</time>
      </trkpt>
      <trkpt lat="48.37618" lon="2.81857">
        <ele>30.78</ele>
        <time>2017-04-09T08:24:47Z</time>
      </trkpt>
      <trkpt lat="48.37615" lon="2.81857">
        <ele>30.35</ele>
        <time>2017-04-09T08:24:49Z</time>
      </trkpt>
      <trkpt lat="48.37593" lon="2.81856">
        <ele>30.77</ele>
        <time>2017-04-09T08:25:09Z</time>
      </trkpt>
      <trkpt lat="48.37575" lon="2.81855">
        <ele>30.68</ele>
        <time>2017-04-09T08:25:28Z</time>
      </trkpt>
      <trkpt lat="48.37551" lon="2.8186">
        <ele>30.54</ele>
        <time>2017-04-09T08:25:48Z</time>
      </trkpt>
      <trkpt lat="48.3753" lon="2.81856">
        <ele>30.59</ele>
        <time>2017-04-09T08:26:08Z</time>
      </trkpt>
      <trkpt lat="48.37502" lon="2.81856">
        <ele>30.11</ele>
        <time>2017-04-09T08:26:29Z</time>
      </trkpt>
      <trkpt lat="48.37489" lon="2.81859">
        <ele>30.21</ele>
        <time>2017-04-09T08:26:41Z</time>
      </trkpt>
      <trkpt lat="48.37484" lon="2.81861">
        <ele>30.76</ele>
        <time>2017-04-09T08:26:45Z</time>
      </trkpt>
      <trkpt lat="48.37474" lon="2.81861">
        <ele>30.15</ele>
        <time>2017-04-09T08:26:54Z</time>
      </trkpt>
      <trkpt lat="48.37461" lon="2.81863">
        <ele>30.79</ele>
        <time>2017-04-09T08:27:07Z</time>
      </trkpt>
      <trkpt lat="48.37459" lon="2.81863">
        <ele>30.62</ele>
        <time>2017-04-09T08:27:10Z</time>
      </trkpt>
      <trkpt lat="48.37448" lon="2.81872">
        <ele>30.18</ele>
        <time>2017-04-09T08:27:22Z</time>
      </trkpt>
      <trkpt lat="48.37441" lon="2.81874">
        <ele>30.03</ele>
        <time>2017-04-09T08:27:27Z</time>
      </trkpt>
      <trkpt lat="48.37426" lon="2.81872">
        <ele>29.89</ele>
        <time>2017-04-09T08:27:41Z</time>
      </trkpt>
      <trkpt lat="48.37423" lon="2.81871">
        <ele>30.23</ele>
        <time>2017-04-09T08:27:44Z</time>
      </trkpt>
      <trkpt lat="48.37414" lon="2.81875">
        <ele>29.97</ele>
        <time>2017-04-09T08:27:52Z</time>
      </trkpt>
      <trkpt lat="48.37403" lon="2.81883">
        <ele>30.27</ele>
        <time>2017-04-09T08:28:00Z</time>
      </trkpt>
      <trkpt lat="48.37389" lon="2.81887">
        <ele>30.3</ele>
        <time>2017-04-09T08:28:13Z</time>
      </trkpt>
      <trkpt lat="48.37388" lon="2.81887">
        <ele>29.93</ele>
        <time>2017-04-09T08:28:14Z</time>
      </trkpt>
      <trkpt lat="48.37383" lon="2.81889">
        <ele>30.24</ele>
        <time>2017-04-09T08:28:20Z</time>
      </trkpt>
      <trkpt lat="48.37378" lon="2.8189">
        <ele>30</ele>
        <time>2017-04-09T08:28:24Z</time>
      </trkpt>
      <trkpt lat="48.37361" lon="2.81899">
        <ele>30.55</ele>
        <time>2017-04-09T08:28:39Z</time>
      </trkpt>
      <trkpt lat="48.37347" lon="2.81903">
        <ele>30.46</ele>
        <time>2017-04-09T08:28:57Z</time>
      </trkpt>
      <trkpt lat="48.37346" lon="2.81903">
        <ele>29.98</ele>
        <time>2017-04-09T08:28:58Z</time>
      </trkpt>
      <trkpt lat="48.37343" lon="2.81902">
        <ele>30.47</ele>
        <time>2017-04-09T08:29:00Z</time>
      </trkpt>
      <trkpt lat="48.37333" lon="2.81904">
        <ele>30.77</ele>
        <time>2017-04-09T08:29:10Z</time>
      </trkpt>
      <trkpt lat="48.37317" lon="2.81907">
        <ele>30.84</ele>
        <time>2017-04-09T08:29:24Z</time>
      </trkpt>
      <trkpt lat="48.37304" lon="2.81903">
        <ele>30.43</ele>
        <time>2017-04-09T08:29:39Z</time>
      </trkpt>
      <trkpt lat="48.37292" lon="2.81894">
        <ele>29.65</ele>
        <time>2017-04-09T08:29:59Z</time>
      </trkpt>
      <trkpt lat="48.37287" lon="2.81885">
        <ele>29.53</ele>
        <time>2017-04-09T08:30:21Z</time>
      </trkpt>
      <trkpt lat="48.37284" lon="2.8188">
        <ele>29.55</ele>
        <time>2017-04-09T08:30:47Z</time>
      </trkpt>
      <trkpt lat="48.37283" lon="2.81878">
        <ele>29.59</ele>
        <time>2017-04-09T08:30:49Z</time>
      </trkpt>
      <trkpt lat="48.37277" lon="2.81863">
        <ele>29.75</ele>
        <time>2017-04-09T08:31:00Z</time>
      </trkpt>
      <trkpt lat="48.37267" lon="2.8188">
        <ele>30.03</ele>
        <time>2017-04-09T08:31:13Z</time>
      </trkpt>
      <trkpt lat="48.37266" lon="2.8188">
        <ele>29.82</ele>
        <time>2017-04-09T08:31:16Z</time>
      </trkpt>
      <trkpt lat="48.3726" lon="2.81875">
        <ele>30.37</ele>
        <time>2017-04-09T08:31:36Z</time>
      </trkpt>
      <trkpt lat="48.37254" lon="2.81876">
        <ele>30.03</ele>
        <time>2017-04-09T08:32:02Z</time>
      </trkpt>
      <trkpt lat="48.37247" lon="2.81878">
        <ele>30.25</ele>
        <time>2017-04-09T08:32:08Z</time>
      </trkpt>
      <trkpt lat="48.37228" lon="2.81887">
        <ele>29.72</ele>
        <time>2017-04-09T08:32:25Z</time>
      </trkpt>
      <trkpt lat="48.37221" lon="2.81894">
        <ele>30.18</ele>
        <time>2017-04-09T08:32:35Z</time>
      </trkpt>
      <trkpt lat="48.3721" lon="2.81906">
        <ele>30.12</ele>
        <time>2017-04-09T08:32:58Z</time>
      </trkpt>
      <trkpt lat="48.37203" lon="2.8191">
        <ele>30.34</ele>
        <time>2017-04-09T08:33:18Z</time>
      </trkpt>
      <trkpt lat="48.37205" lon="2.81913">
        <ele>29.88</ele>
        <time>2017-04-09T08:33:38Z</time>
      </trkpt>
      <trkpt lat="48.3721" lon="2.81906">
        <ele>30.84</ele>
        <time>2017-04-09T08:33:58Z</time>
      </trkpt>
      <trkpt lat="48.37216" lon="2.81901">
        <ele>30.67</ele>
        <time>2017-04-09T08:34:17Z</time>
      </trkpt>
      <trkpt lat="48.37212" lon="2.81902">
        <ele>30.3</ele>
        <time>2017-04-09T08:34:39Z</time>
      </trkpt>
      <trkpt lat="48.37213" lon="2.81903">
        <ele>30.37</ele>
        <time>2017-04-09T08:35:04Z</time>
      </trkpt>
      <trkpt lat="48.37215" lon="2.81907">
        <ele>30.43</ele>
        <time>2017-04-09T08:35:25Z</time>
      </trkpt>
      <trkpt lat="48.37218" lon="2.81902">
        <ele>30.17</ele>
        <time>2017-04-09T08:35:31Z</time>
      </trkpt>
      <trkpt lat="48.37223" lon="2.819">
        <ele>30.6</ele>
        <time>2017-04-09T08:35:48Z</time>
      </trkpt>
      <trkpt lat="48.37224" lon="2.81902">
        <ele>30.46</ele>
        <time>2017-04-09T08:36:11Z</time>
      </trkpt>
      <trkpt lat="48.37224" lon="2.819">
        <ele>30.13</ele>
        <time>2017-04-09T08:36:32Z</time>
      </trkpt>
      <trkpt lat="48.37231" lon="2.81894">
        <ele>30.08</ele>
        <time>2017-04-09T08:36:46Z</time>
      </trkpt>
      <trkpt lat="48.37244" lon="2.81884">
        <ele>30.24</ele>
        <time>2017-04-09T08:37:04Z</time>
      </trkpt>
      <trkpt lat="48.37252" lon="2.81875">
        <ele>31.58</ele>
        <time>2017-04-09T08:37:22Z</time>
      </trkpt>
      <trkpt lat="48.37252" lon="2.8187">
        <ele>31.17</ele>
        <time>2017-04-09T08:37:50Z</time>
      </trkpt>
      <trkpt lat="48.37252" lon="2.8186">
        <ele>34.17</ele>
        <time>2017-04-09T08:38:05Z</time>
      </trkpt>
      <trkpt lat="48.37251" lon="2.81854">
        <ele>33.75</ele>
        <time>2017-04-09T08:38:09Z</time>
      </trkpt>
      <trkpt lat="48.37249" lon="2.81857">
        <ele>33.51</ele>
        <time>2017-04-09T08:38:25Z</time>
      </trkpt>
      <trkpt lat="48.37249" lon="2.8185">
        <ele>33.51</ele>
        <time>2017-04-09T08:38:53Z</time>
      </trkpt>
      <trkpt lat="48.37249" lon="2.81854">
        <ele>33.44</ele>
        <time>2017-04-09T08:39:10Z</time>
      </trkpt>
      <trkpt lat="48.37231" lon="2.81852">
        <ele>34.53</ele>
        <time>2017-04-09T08:39:29Z</time>
      </trkpt>
      <trkpt lat="48.37218" lon="2.81848">
        <ele>34.95</ele>
        <time>2017-04-09T08:39:44Z</time>
      </trkpt>
      <trkpt lat="48.37213" lon="2.81846">
        <ele>35.2</ele>
        <time>2017-04-09T08:39:58Z</time>
      </trkpt>
      <trkpt lat="48.37212" lon="2.81847">
        <ele>35.33</ele>
        <time>2017-04-09T08:39:59Z</time>
      </trkpt>
      <trkpt lat="48.37205" lon="2.81837">
        <ele>35.61</ele>
        <time>2017-04-09T08:40:29Z</time>
      </trkpt>
      <trkpt lat="48.37197" lon="2.81839">
        <ele>36.3</ele>
        <time>2017-04-09T08:40:44Z</time>
      </trkpt>
      <trkpt lat="48.37192" lon="2.81827">
        <ele>37.2</ele>
        <time>2017-04-09T08:40:59Z</time>
      </trkpt>
      <trkpt lat="48.37192" lon="2.81829">
        <ele>37.59</ele>
        <time>2017-04-09T08:41:09Z</time>
      </trkpt>
      <trkpt lat="48.37179" lon="2.81833">
        <ele>37.62</ele>
        <time>2017-04-09T08:41:20Z</time>
      </trkpt>
      <trkpt lat="48.37169" lon="2.81832">
        <ele>38.16</ele>
        <time>2017-04-09T08:41:43Z</time>
      </trkpt>
      <trkpt lat="48.37171" lon="2.81827">
        <ele>38.55</ele>
        <time>2017-04-09T08:42:03Z</time>
      </trkpt>
      <trkpt lat="48.3717" lon="2.81833">
        <ele>38.61</ele>
        <time>2017-04-09T08:42:24Z</time>
      </trkpt>
      <trkpt lat="48.3716" lon="2.81848">
        <ele>38.84</ele>
        <time>2017-04-09T08:42:42Z</time>
      </trkpt>
      <trkpt lat="48.37144" lon="2.81865">
        <ele>39.27</ele>
        <time>2017-04-09T08:42:59Z</time>
      </trkpt>
      <trkpt lat="48.37127" lon="2.8187">
        <ele>40.21</ele>
        <time>2017-04-09T08:43:13Z</time>
      </trkpt>
      <trkpt lat="48.37113" lon="2.8187">
        <ele>40.9</ele>
        <time>2017-04-09T08:43:26Z</time>
      </trkpt>
      <trkpt lat="48.37102" lon="2.81869">
        <ele>41.11</ele>
        <time>2017-04-09T08:43:37Z</time>
      </trkpt>
      <trkpt lat="48.37087" lon="2.81866">
        <ele>41.53</ele>
        <time>2017-04-09T08:43:55Z</time>
      </trkpt>
      <trkpt lat="48.37071" lon="2.81881">
        <ele>41.37</ele>
        <time>2017-04-09T08:44:14Z</time>
      </trkpt>
      <trkpt lat="48.37066" lon="2.81883">
        <ele>41.9</ele>
        <time>2017-04-09T08:44:33Z</time>
      </trkpt>
      <trkpt lat="48.37066" lon="2.81888">
        <ele>41.16</ele>
        <time>2017-04-09T08:44:53Z</time>
      </trkpt>
      <trkpt lat="48.37071" lon="2.81886">
        <ele>41.4</ele>
        <time>2017-04-09T08:45:17Z</time>
      </trkpt>
      <trkpt lat="48.37071" lon="2.81891">
        <ele>41.04</ele>
        <time>2017-04-09T08:45:47Z</time>
      </trkpt>
      <trkpt lat="48.37069" lon="2.81889">
        <ele>41.52</ele>
        <time>2017-04-09T08:46:14Z</time>
      </trkpt>
      <trkpt lat="48.37063" lon="2.81884">
        <ele>41.39</ele>
        <time>2017-04-09T08:46:26Z</time>
      </trkpt>
      <trkpt lat="48.37048" lon="2.81885">
        <ele>40.59</ele>
        <time>2017-04-09T08:46:51Z</time>
      </trkpt>
      <trkpt lat="48.37032" lon="2.8189">
        <ele>39.63</ele>
        <time>2017-04-09T08:47:10Z</time>
      </trkpt>
      <trkpt lat="48.37023" lon="2.81897">
        <ele>39.66</ele>
        <time>2017-04-09T08:47:20Z</time>
      </trkpt>
      <trkpt lat="48.37014" lon="2.81906">
        <ele>38.59</ele>
        <time>2017-04-09T08:47:27Z</time>
      </trkpt>
      <trkpt lat="48.36999" lon="2.8191">
        <ele>38.57</ele>
        <time>2017-04-09T08:47:43Z</time>
      </trkpt>
      <trkpt lat="48.36996" lon="2.81892">
        <ele>39.33</ele>
        <time>2017-04-09T08:48:01Z</time>
      </trkpt>
      <trkpt lat="48.36994" lon="2.81861">
        <ele>39.76</ele>
        <time>2017-04-09T08:48:24Z</time>
      </trkpt>
      <trkpt lat="48.36994" lon="2.81854">
        <ele>40.75</ele>
        <time>2017-04-09T08:48:28Z</time>
      </trkpt>
      <trkpt lat="48.36991" lon="2.81816">
        <ele>41.26</ele>
        <time>2017-04-09T08:48:49Z</time>
      </trkpt>
      <trkpt lat="48.36986" lon="2.8179">
        <ele>42.92</ele>
        <time>2017-04-09T08:49:12Z</time>
      </trkpt>
      <trkpt lat="48.36978" lon="2.81802">
        <ele>42.52</ele>
        <time>2017-04-09T08:49:29Z</time>
      </trkpt>
      <trkpt lat="48.36966" lon="2.81815">
        <ele>42.25</ele>
        <time>2017-04-09T08:49:43Z</time>
      </trkpt>
      <trkpt lat="48.36956" lon="2.81822">
        <ele>42.03</ele>
        <time>2017-04-09T08:49:53Z</time>
      </trkpt>
      <trkpt lat="48.36949" lon="2.81836">
        <ele>42.48</ele>
        <time>2017-04-09T08:50:04Z</time>
      </trkpt>
      <trkpt lat="48.3694" lon="2.81848">
        <ele>42.26</ele>
        <time>2017-04-09T08:50:17Z</time>
      </trkpt>
      <trkpt lat="48.36938" lon="2.81857">
        <ele>41.95</ele>
        <time>2017-04-09T08:50:38Z</time>
      </trkpt>
      <trkpt lat="48.36931" lon="2.8187">
        <ele>42.42</ele>
        <time>2017-04-09T08:50:56Z</time>
      </trkpt>
      <trkpt lat="48.36911" lon="2.81885">
        <ele>42.72</ele>
        <time>2017-04-09T08:51:15Z</time>
      </trkpt>
      <trkpt lat="48.36901" lon="2.81892">
        <ele>42.27</ele>
        <time>2017-04-09T08:51:23Z</time>
      </trkpt>
      <trkpt lat="48.36895" lon="2.81896">
        <ele>42.11</ele>
        <time>2017-04-09T08:51:28Z</time>
      </trkpt>
      <trkpt lat="48.36883" lon="2.81911">
        <ele>42.98</ele>
        <time>2017-04-09T08:51:43Z</time>
      </trkpt>
      <trkpt lat="48.36867" lon="2.81922">
        <ele>42.05</ele>
        <time>2017-04-09T08:51:58Z</time>
      </trkpt>
      <trkpt lat="48.36858" lon="2.81926">
        <ele>42.45</ele>
        <time>2017-04-09T08:52:07Z</time>
      </trkpt>
      <trkpt lat="48.36845" lon="2.81935">
        <ele>42.03</ele>
        <time>2017-04-09T08:52:18Z</time>
      </trkpt>
      <trkpt lat="48.36827" lon="2.81943">
        <ele>42.31</ele>
        <time>2017-04-09T08:52:32Z</time>
      </trkpt>
      <trkpt lat="48.3682" lon="2.81944">
        <ele>42.1</ele>
        <time>2017-04-09T08:52:36Z</time>
      </trkpt>
      <trkpt lat="48.36808" lon="2.81951">
        <ele>41.29</ele>
        <time>2017-04-09T08:52:48Z</time>
      </trkpt>
      <trkpt lat="48.36793" lon="2.81957">
        <ele>40.79</ele>
        <time>2017-04-09T08:53:04Z</time>
      </trkpt>
      <trkpt lat="48.36791" lon="2.81955">
        <ele>40.79</ele>
        <time>2017-04-09T08:53:12Z</time>
      </trkpt>
      <trkpt lat="48.36777" lon="2.8195">
        <ele>39.85</ele>
        <time>2017-04-09T08:53:32Z</time>
      </trkpt>
      <trkpt lat="48.36759" lon="2.8196">
        <ele>38.95</ele>
        <time>2017-04-09T08:53:51Z</time>
      </trkpt>
      <trkpt lat="48.36741" lon="2.81967">
        <ele>38.58</ele>
        <time>2017-04-09T08:54:06Z</time>
      </trkpt>
      <trkpt lat="48.36738" lon="2.81969">
        <ele>38.13</ele>
        <time>2017-04-09T08:54:08Z</time>
      </trkpt>
      <trkpt lat="48.3673" lon="2.81971">
        <ele>37.76</ele>
        <time>2017-04-09T08:54:16Z</time>
      </trkpt>
      <trkpt lat="48.36726" lon="2.8197">
        <ele>37.7</ele>
        <time>2017-04-09T08:54:20Z</time>
      </trkpt>
      <trkpt lat="48.36724" lon="2.81969">
        <ele>37.48</ele>
        <time>2017-04-09T08:54:22Z</time>
      </trkpt>
      <trkpt lat="48.36711" lon="2.81971">
        <ele>36.82</ele>
        <time>2017-04-09T08:54:38Z</time>
      </trkpt>
      <trkpt lat="48.36707" lon="2.81976">
        <ele>36.31</ele>
        <time>2017-04-09T08:54:57Z</time>
      </trkpt>
      <trkpt lat="48.36696" lon="2.81983">
        <ele>36.01</ele>
        <time>2017-04-09T08:55:12Z</time>
      </trkpt>
      <trkpt lat="48.36681" lon="2.81986">
        <ele>34.9</ele>
        <time>2017-04-09T08:55:29Z</time>
      </trkpt>
      <trkpt lat="48.36665" lon="2.81983">
        <ele>34.32</ele>
        <time>2017-04-09T08:55:46Z</time>
      </trkpt>
      <trkpt lat="48.36645" lon="2.81992">
        <ele>33.68</ele>
        <time>2017-04-09T08:56:04Z</time>
      </trkpt>
      <trkpt lat="48.36634" lon="2.81994">
        <ele>32.59</ele>
        <time>2017-04-09T08:56:15Z</time>
      </trkpt>
      <trkpt lat="48.36617" lon="2.81992">
        <ele>31.7</ele>
        <time>2017-04-09T08:56:32Z</time>
      </trkpt>
      <trkpt lat="48.36616" lon="2.81993">
        <ele>32</ele>
        <time>2017-04-09T08:56:33Z</time>
      </trkpt>
      <trkpt lat="48.36601" lon="2.81989">
        <ele>31.81</ele>
        <time>2017-04-09T08:56:47Z</time>
      </trkpt>
      <trkpt lat="48.36593" lon="2.81989">
        <ele>31.5</ele>
        <time>2017-04-09T08:56:53Z</time>
      </trkpt>
      <trkpt lat="48.36589" lon="2.81989">
        <ele>31.33</ele>
        <time>2017-04-09T08:56:57Z</time>
      </trkpt>
      <trkpt lat="48.3657" lon="2.82005">
        <ele>29.63</ele>
        <time>2017-04-09T08:57:15Z</time>
      </trkpt>
      <trkpt lat="48.36567" lon="2.82025">
        <ele>28.49</ele>
        <time>2017-04-09T08:57:36Z</time>
      </trkpt>
      <trkpt lat="48.3657" lon="2.82048">
        <ele>28.31</ele>
        <time>2017-04-09T08:57:54Z</time>
      </trkpt>
      <trkpt lat="48.36569" lon="2.82052">
        <ele>27.98</ele>
        <time>2017-04-09T08:57:57Z</time>
      </trkpt>
      <trkpt lat="48.36564" lon="2.82083">
        <ele>27.62</ele>
        <time>2017-04-09T08:58:17Z</time>
      </trkpt>
      <trkpt lat="48.36554" lon="2.82105">
        <ele>27.62</ele>
        <time>2017-04-09T08:58:27Z</time>
      </trkpt>
      <trkpt lat="48.36547" lon="2.82115">
        <ele>27.15</ele>
        <time>2017-04-09T08:58:42Z</time>
      </trkpt>
      <trkpt lat="48.36537" lon="2.82118">
        <ele>26.98</ele>
        <time>2017-04-09T08:58:58Z</time>
      </trkpt>
      <trkpt lat="48.36518" lon="2.82129">
        <ele>27.43</ele>
        <time>2017-04-09T08:59:17Z</time>
      </trkpt>
      <trkpt lat="48.36501" lon="2.82141">
        <ele>26.93</ele>
        <time>2017-04-09T08:59:33Z</time>
      </trkpt>
      <trkpt lat="48.36482" lon="2.82163">
        <ele>26.57</ele>
        <time>2017-04-09T08:59:52Z</time>
      </trkpt>
      <trkpt lat="48.36465" lon="2.82179">
        <ele>26.26</ele>
        <time>2017-04-09T09:00:10Z</time>
      </trkpt>
      <trkpt lat="48.36453" lon="2.82189">
        <ele>26.34</ele>
        <time>2017-04-09T09:00:20Z</time>
      </trkpt>
      <trkpt lat="48.36436" lon="2.82199">
        <ele>25.59</ele>
        <time>2017-04-09T09:00:33Z</time>
      </trkpt>
      <trkpt lat="48.3642" lon="2.82199">
        <ele>25.34</ele>
        <time>2017-04-09T09:00:48Z</time>
      </trkpt>
      <trkpt lat="48.36403" lon="2.82188">
        <ele>25.62</ele>
        <time>2017-04-09T09:01:04Z</time>
      </trkpt>
      <trkpt lat="48.36389" lon="2.82176">
        <ele>25.88</ele>
        <time>2017-04-09T09:01:17Z</time>
      </trkpt>
      <trkpt lat="48.36385" lon="2.82182">
        <ele>26.3</ele>
        <time>2017-04-09T09:01:41Z</time>
      </trkpt>
      <trkpt lat="48.36388" lon="2.82185">
        <ele>25.61</ele>
        <time>2017-04-09T09:02:14Z</time>
      </trkpt>
      <trkpt lat="48.36387" lon="2.82179">
        <ele>25.66</ele>
        <time>2017-04-09T09:02:44Z</time>
      </trkpt>
      <trkpt lat="48.36385" lon="2.8218">
        <ele>25.83</ele>
        <time>2017-04-09T09:03:07Z</time>
      </trkpt>
      <trkpt lat="48.36376" lon="2.82174">
        <ele>26.8</ele>
        <time>2017-04-09T09:03:25Z</time>
      </trkpt>
      <trkpt lat="48.36363" lon="2.82171">
        <ele>26.22</ele>
        <time>2017-04-09T09:03:44Z</time>
      </trkpt>
      <trkpt lat="48.36348" lon="2.82167">
        <ele>26.31</ele>
        <time>2017-04-09T09:04:02Z</time>
      </trkpt>
      <trkpt lat="48.36326" lon="2.8216">
        <ele>26.01</ele>
        <time>2017-04-09T09:04:22Z</time>
      </trkpt>
      <trkpt lat="48.3631" lon="2.82155">
        <ele>26.03</ele>
        <time>2017-04-09T09:04:39Z</time>
      </trkpt>
      <trkpt lat="48.36291" lon="2.82151">
        <ele>26.2</ele>
        <time>2017-04-09T09:04:57Z</time>
      </trkpt>
      <trkpt lat="48.36265" lon="2.82142">
        <ele>26.43</ele>
        <time>2017-04-09T09:05:18Z</time>
      </trkpt>
      <trkpt lat="48.36247" lon="2.82138">
        <ele>25.88</ele>
        <time>2017-04-09T09:05:38Z</time>
      </trkpt>
      <trkpt lat="48.36231" lon="2.82133">
        <ele>26.23</ele>
        <time>2017-04-09T09:05:58Z</time>
      </trkpt>
      <trkpt lat="48.36207" lon="2.82121">
        <ele>25.96</ele>
        <time>2017-04-09T09:06:19Z</time>
      </trkpt>
      <trkpt lat="48.36184" lon="2.82113">
        <ele>26.31</ele>
        <time>2017-04-09T09:06:39Z</time>
      </trkpt>
      <trkpt lat="48.3617" lon="2.82104">
        <ele>26.23</ele>
        <time>2017-04-09T09:06:53Z</time>
      </trkpt>
      <trkpt lat="48.3615" lon="2.82091">
        <ele>26</ele>
        <time>2017-04-09T09:07:11Z</time>
      </trkpt>
      <trkpt lat="48.3614" lon="2.82082">
        <ele>26.11</ele>
        <time>2017-04-09T09:07:21Z</time>
      </trkpt>
      <trkpt lat="48.36134" lon="2.82074">
        <ele>25.66</ele>
        <time>2017-04-09T09:07:27Z</time>
      </trkpt>
      <trkpt lat="48.36119" lon="2.82063">
        <ele>26.13</ele>
        <time>2017-04-09T09:07:40Z</time>
      </trkpt>
      <trkpt lat="48.36105" lon="2.82053">
        <ele>25.78</ele>
        <time>2017-04-09T09:07:54Z</time>
      </trkpt>
      <trkpt lat="48.36095" lon="2.82046">
        <ele>26.13</ele>
        <time>2017-04-09T09:08:06Z</time>
      </trkpt>
      <trkpt lat="48.36093" lon="2.82044">
        <ele>25.93</ele>
        <time>2017-04-09T09:08:09Z</time>
      </trkpt>
      <trkpt lat="48.36089" lon="2.82042">
        <ele>25.75</ele>
        <time>2017-04-09T09:08:13Z</time>
      </trkpt>
      <trkpt lat="48.36077" lon="2.82035">
        <ele>26.6</ele>
        <time>2017-04-09T09:08:27Z</time>
      </trkpt>
      <trkpt lat="48.36069" lon="2.82029">
        <ele>26.21</ele>
        <time>2017-04-09T09:08:45Z</time>
      </trkpt>
      <trkpt lat="48.3606" lon="2.82025">
        <ele>26.19</ele>
        <time>2017-04-09T09:08:56Z</time>
      </trkpt>
      <trkpt lat="48.36049" lon="2.8202">
        <ele>26.5</ele>
        <time>2017-04-09T09:09:08Z</time>
      </trkpt>
      <trkpt lat="48.36045" lon="2.82017">
        <ele>26.66</ele>
        <time>2017-04-09T09:09:12Z</time>
      </trkpt>
      <trkpt lat="48.36033" lon="2.82011">
        <ele>26.34</ele>
        <time>2017-04-09T09:09:25Z</time>
      </trkpt>
      <trkpt lat="48.3603" lon="2.82011">
        <ele>26.55</ele>
        <time>2017-04-09T09:09:29Z</time>
      </trkpt>
      <trkpt lat="48.36026" lon="2.82007">
        <ele>26.7</ele>
        <time>2017-04-09T09:09:33Z</time>
      </trkpt>
      <trkpt lat="48.36012" lon="2.82001">
        <ele>26.91</ele>
        <time>2017-04-09T09:09:49Z</time>
      </trkpt>
      <trkpt lat="48.35999" lon="2.81994">
        <ele>26.81</ele>
        <time>2017-04-09T09:10:02Z</time>
      </trkpt>
      <trkpt lat="48.35997" lon="2.81993">
        <ele>27.13</ele>
        <time>2017-04-09T09:10:05Z</time>
      </trkpt>
      <trkpt lat="48.35984" lon="2.81985">
        <ele>26.33</ele>
        <time>2017-04-09T09:10:18Z</time>
      </trkpt>
      <trkpt lat="48.35971" lon="2.81976">
        <ele>26.87</ele>
        <time>2017-04-09T09:10:31Z</time>
      </trkpt>
      <trkpt lat="48.35967" lon="2.81973">
        <ele>26.14</ele>
        <time>2017-04-09T09:10:34Z</time>
      </trkpt>
      <trkpt lat="48.35963" lon="2.8197">
        <ele>26.55</ele>
        <time>2017-04-09T09:10:38Z</time>
      </trkpt>
      <trkpt lat="48.35951" lon="2.8196">
        <ele>26.51</ele>
        <time>2017-04-09T09:10:51Z</time>
      </trkpt>
      <trkpt lat="48.35941" lon="2.81943">
        <ele>26.98</ele>
        <time>2017-04-09T09:11:04Z</time>
      </trkpt>
      <trkpt lat="48.35936" lon="2.81938">
        <ele>26.89</ele>
        <time>2017-04-09T09:11:09Z</time>
      </trkpt>
      <trkpt lat="48.35931" lon="2.81929">
        <ele>26.86</ele>
        <time>2017-04-09T09:11:17Z</time>
      </trkpt>
      <trkpt lat="48.35917" lon="2.81911">
        <ele>26.92</ele>
        <time>2017-04-09T09:11:32Z</time>
      </trkpt>
      <trkpt lat="48.35909" lon="2.81895">
        <ele>27.01</ele>
        <time>2017-04-09T09:11:47Z</time>
      </trkpt>
      <trkpt lat="48.35896" lon="2.81873">
        <ele>27.25</ele>
        <time>2017-04-09T09:12:03Z</time>
      </trkpt>
      <trkpt lat="48.35886" lon="2.81854">
        <ele>27.05</ele>
        <time>2017-04-09T09:12:18Z</time>
      </trkpt>
      <trkpt lat="48.35876" lon="2.81839">
        <ele>26.89</ele>
        <time>2017-04-09T09:12:30Z</time>
      </trkpt>
      <trkpt lat="48.35864" lon="2.8182">
        <ele>27.1</ele>
        <time>2017-04-09T09:12:44Z</time>
      </trkpt>
      <trkpt lat="48.35853" lon="2.81803">
        <ele>27.24</ele>
        <time>2017-04-09T09:12:58Z</time>
      </trkpt>
      <trkpt lat="48.35846" lon="2.81791">
        <ele>27.15</ele>
        <time>2017-04-09T09:13:08Z</time>
      </trkpt>
      <trkpt lat="48.35835" lon="2.81775">
        <ele>27.41</ele>
        <time>2017-04-09T09:13:21Z</time>
      </trkpt>
      <trkpt lat="48.35824" lon="2.81755">
        <ele>27.59</ele>
        <time>2017-04-09T09:13:36Z</time>
      </trkpt>
      <trkpt lat="48.35813" lon="2.81742">
        <ele>27.29</ele>
        <time>2017-04-09T09:13:49Z</time>
      </trkpt>
      <trkpt lat="48.35812" lon="2.81741">
        <ele>27.16</ele>
        <time>2017-04-09T09:13:50Z</time>
      </trkpt>
      <trkpt lat="48.35807" lon="2.81735">
        <ele>27.5</ele>
        <time>2017-04-09T09:13:57Z</time>
      </trkpt>
      <trkpt lat="48.35802" lon="2.8173">
        <ele>26.98</ele>
        <time>2017-04-09T09:14:02Z</time>
      </trkpt>
      <trkpt lat="48.35791" lon="2.8172">
        <ele>27.47</ele>
        <time>2017-04-09T09:14:15Z</time>
      </trkpt>
      <trkpt lat="48.35781" lon="2.81712">
        <ele>27.07</ele>
        <time>2017-04-09T09:14:23Z</time>
      </trkpt>
      <trkpt lat="48.35776" lon="2.8171">
        <ele>27.16</ele>
        <time>2017-04-09T09:14:27Z</time>
      </trkpt>
      <trkpt lat="48.35763" lon="2.81696">
        <ele>26.88</ele>
        <time>2017-04-09T09:14:42Z</time>
      </trkpt>
      <trkpt lat="48.35753" lon="2.81684">
        <ele>26.98</ele>
        <time>2017-04-09T09:14:53Z</time>
      </trkpt>
      <trkpt lat="48.3574" lon="2.81671">
        <ele>26.58</ele>
        <time>2017-04-09T09:15:07Z</time>
      </trkpt>
      <trkpt lat="48.35731" lon="2.81661">
        <ele>26.92</ele>
        <time>2017-04-09T09:15:18Z</time>
      </trkpt>
      <trkpt lat="48.3572" lon="2.81649">
        <ele>27.14</ele>
        <time>2017-04-09T09:15:32Z</time>
      </trkpt>
      <trkpt lat="48.35712" lon="2.81643">
        <ele>26.9</ele>
        <time>2017-04-09T09:15:43Z</time>
      </trkpt>
      <trkpt lat="48.35698" lon="2.8163">
        <ele>26.96</ele>
        <time>2017-04-09T09:16:00Z</time>
      </trkpt>
      <trkpt lat="48.35686" lon="2.8162">
        <ele>26.95</ele>
        <time>2017-04-09T09:16:18Z</time>
      </trkpt>
      <trkpt lat="48.3567" lon="2.81597">
        <ele>27.07</ele>
        <time>2017-04-09T09:16:39Z</time>
      </trkpt>
      <trkpt lat="48.35657" lon="2.81577">
        <ele>26.94</ele>
        <time>2017-04-09T09:16:56Z</time>
      </trkpt>
      <trkpt lat="48.35642" lon="2.81555">
        <ele>27.38</ele>
        <time>2017-04-09T09:17:13Z</time>
      </trkpt>
      <trkpt lat="48.35631" lon="2.81545">
        <ele>27.26</ele>
        <time>2017-04-09T09:17:25Z</time>
      </trkpt>
      <trkpt lat="48.35618" lon="2.8153">
        <ele>27.46</ele>
        <time>2017-04-09T09:17:39Z</time>
      </trkpt>
      <trkpt lat="48.35606" lon="2.81513">
        <ele>26.98</ele>
        <time>2017-04-09T09:17:53Z</time>
      </trkpt>
      <trkpt lat="48.35592" lon="2.81497">
        <ele>27.24</ele>
        <time>2017-04-09T09:18:12Z</time>
      </trkpt>
      <trkpt lat="48.35575" lon="2.81482">
        <ele>27.07</ele>
        <time>2017-04-09T09:18:31Z</time>
      </trkpt>
      <trkpt lat="48.35573" lon="2.81481">
        <ele>27.26</ele>
        <time>2017-04-09T09:18:33Z</time>
      </trkpt>
      <trkpt lat="48.35559" lon="2.81467">
        <ele>26.49</ele>
        <time>2017-04-09T09:18:49Z</time>
      </trkpt>
      <trkpt lat="48.35548" lon="2.81455">
        <ele>26.8</ele>
        <time>2017-04-09T09:19:05Z</time>
      </trkpt>
      <trkpt lat="48.35544" lon="2.81451">
        <ele>27.43</ele>
        <time>2017-04-09T09:19:10Z</time>
      </trkpt>
      <trkpt lat="48.35541" lon="2.81448">
        <ele>26.96</ele>
        <time>2017-04-09T09:19:13Z</time>
      </trkpt>
      <trkpt lat="48.35531" lon="2.81443">
        <ele>27.08</ele>
        <time>2017-04-09T09:19:26Z</time>
      </trkpt>
      <trkpt lat="48.35521" lon="2.81435">
        <ele>26.52</ele>
        <time>2017-04-09T09:19:43Z</time>
      </trkpt>
      <trkpt lat="48.35516" lon="2.81432">
        <ele>26.58</ele>
        <time>2017-04-09T09:20:02Z</time>
      </trkpt>
      <trkpt lat="48.35513" lon="2.81429">
        <ele>27.41</ele>
        <time>2017-04-09T09:20:06Z</time>
      </trkpt>
      <trkpt lat="48.35503" lon="2.81418">
        <ele>27.33</ele>
        <time>2017-04-09T09:20:17Z</time>
      </trkpt>
      <trkpt lat="48.35498" lon="2.81413">
        <ele>27.39</ele>
        <time>2017-04-09T09:20:22Z</time>
      </trkpt>
      <trkpt lat="48.35488" lon="2.81404">
        <ele>27.12</ele>
        <time>2017-04-09T09:20:32Z</time>
      </trkpt>
      <trkpt lat="48.35475" lon="2.8139">
        <ele>27.53</ele>
        <time>2017-04-09T09:20:45Z</time>
      </trkpt>
      <trkpt lat="48.35474" lon="2.81389">
        <ele>26.9</ele>
        <time>2017-04-09T09:20:46Z</time>
      </trkpt>
      <trkpt lat="48.35465" lon="2.81376">
        <ele>27.36</ele>
        <time>2017-04-09T09:20:57Z</time>
      </trkpt>
      <trkpt lat="48.35462" lon="2.81373">
        <ele>26.77</ele>
        <time>2017-04-09T09:21:01Z</time>
      </trkpt>
      <trkpt lat="48.35456" lon="2.81365">
        <ele>27.28</ele>
        <time>2017-04-09T09:21:08Z</time>
      </trkpt>
      <trkpt lat="48.35451" lon="2.81359">
        <ele>26.86</ele>
        <time>2017-04-09T09:21:13Z</time>
      </trkpt>
      <trkpt lat="48.35441" lon="2.81344">
        <ele>27.32</ele>
        <time>2017-04-09T09:21:27Z</time>
      </trkpt>
      <trkpt lat="48.35441" lon="2.81343">
        <ele>27.2</ele>
        <time>2017-04-09T09:21:28Z</time>
      </trkpt>
      <trkpt lat="48.35439" lon="2.81339">
        <ele>27.68</ele>
        <time>2017-04-09T09:21:31Z</time>
      </trkpt>
      <trkpt lat="48.35429" lon="2.81325">
        <ele>27.18</ele>
        <time>2017-04-09T09:21:43Z</time>
      </trkpt>
      <trkpt lat="48.35419" lon="2.81307">
        <ele>27.8</ele>
        <time>2017-04-09T09:21:56Z</time>
      </trkpt>
      <trkpt lat="48.35411" lon="2.81284">
        <ele>27.99</ele>
        <time>2017-04-09T09:22:11Z</time>
      </trkpt>
      <trkpt lat="48.35404" lon="2.8126">
        <ele>28.01</ele>
        <time>2017-04-09T09:22:28Z</time>
      </trkpt>
      <trkpt lat="48.35401" lon="2.81248">
        <ele>28.23</ele>
        <time>2017-04-09T09:22:36Z</time>
      </trkpt>
      <trkpt lat="48.35397" lon="2.81231">
        <ele>27.95</ele>
        <time>2017-04-09T09:22:51Z</time>
      </trkpt>
      <trkpt lat="48.35398" lon="2.81229">
        <ele>27.91</ele>
        <time>2017-04-09T09:22:53Z</time>
      </trkpt>
      <trkpt lat="48.35399" lon="2.81214">
        <ele>28.63</ele>
        <time>2017-04-09T09:23:05Z</time>
      </trkpt>
      <trkpt lat="48.35396" lon="2.81205">
        <ele>27.93</ele>
        <time>2017-04-09T09:23:27Z</time>
      </trkpt>
      <trkpt lat="48.35395" lon="2.81206">
        <ele>27.99</ele>
        <time>2017-04-09T09:24:00Z</time>
      </trkpt>
      <trkpt lat="48.35395" lon="2.81201">
        <ele>28.96</ele>
        <time>2017-04-09T09:24:35Z</time>
      </trkpt>
      <trkpt lat="48.35392" lon="2.81201">
        <ele>29.14</ele>
        <time>2017-04-09T09:24:59Z</time>
      </trkpt>
      <trkpt lat="48.35391" lon="2.81201">
        <ele>28.82</ele>
        <time>2017-04-09T09:25:27Z</time>
      </trkpt>
      <trkpt lat="48.35393" lon="2.81199">
        <ele>29.57</ele>
        <time>2017-04-09T09:25:51Z</time>
      </trkpt>
      <trkpt lat="48.35392" lon="2.81196">
        <ele>29.7</ele>
        <time>2017-04-09T09:26:21Z</time>
      </trkpt>
      <trkpt lat="48.35391" lon="2.81197">
        <ele>29.84</ele>
        <time>2017-04-09T09:26:41Z</time>
      </trkpt>
      <trkpt lat="48.35394" lon="2.812">
        <ele>29.88</ele>
        <time>2017-04-09T09:27:00Z</time>
      </trkpt>
      <trkpt lat="48.35393" lon="2.812">
        <ele>30.04</ele>
        <time>2017-04-09T09:27:25Z</time>
      </trkpt>
      <trkpt lat="48.35393" lon="2.812">
        <ele>29.9</ele>
        <time>2017-04-09T09:27:55Z</time>
      </trkpt>
      <trkpt lat="48.35393" lon="2.812">
        <ele>30.04</ele>
        <time>2017-04-09T09:28:24Z</time>
      </trkpt>
      <trkpt lat="48.35391" lon="2.812">
        <ele>30.23</ele>
        <time>2017-04-09T09:28:53Z</time>
      </trkpt>
      <trkpt lat="48.35391" lon="2.81199">
        <ele>30.14</ele>
        <time>2017-04-09T09:29:18Z</time>
      </trkpt>
      <trkpt lat="48.35392" lon="2.812">
        <ele>29.9</ele>
        <time>2017-04-09T09:29:42Z</time>
      </trkpt>
      <trkpt lat="48.35388" lon="2.81192">
        <ele>29.83</ele>
        <time>2017-04-09T09:29:59Z</time>
      </trkpt>
      <trkpt lat="48.35385" lon="2.81171">
        <ele>31.06</ele>
        <time>2017-04-09T09:30:21Z</time>
      </trkpt>
      <trkpt lat="48.35381" lon="2.81147">
        <ele>30.8</ele>
        <time>2017-04-09T09:30:40Z</time>
      </trkpt>
      <trkpt lat="48.35374" lon="2.81123">
        <ele>31.04</ele>
        <time>2017-04-09T09:30:55Z</time>
      </trkpt>
      <trkpt lat="48.35368" lon="2.81109">
        <ele>30.76</ele>
        <time>2017-04-09T09:31:07Z</time>
      </trkpt>
      <trkpt lat="48.35363" lon="2.81084">
        <ele>30.18</ele>
        <time>2017-04-09T09:31:29Z</time>
      </trkpt>
      <trkpt lat="48.35358" lon="2.81062">
        <ele>30.71</ele>
        <time>2017-04-09T09:31:48Z</time>
      </trkpt>
      <trkpt lat="48.3535" lon="2.81028">
        <ele>30.74</ele>
        <time>2017-04-09T09:32:09Z</time>
      </trkpt>
      <trkpt lat="48.35342" lon="2.81">
        <ele>31.22</ele>
        <time>2017-04-09T09:32:27Z</time>
      </trkpt>
      <trkpt lat="48.35333" lon="2.8097">
        <ele>30.91</ele>
        <time>2017-04-09T09:32:47Z</time>
      </trkpt>
      <trkpt lat="48.35324" lon="2.80938">
        <ele>30.82</ele>
        <time>2017-04-09T09:33:06Z</time>
      </trkpt>
      <trkpt lat="48.35319" lon="2.80914">
        <ele>31.69</ele>
        <time>2017-04-09T09:33:25Z</time>
      </trkpt>
      <trkpt lat="48.35316" lon="2.80887">
        <ele>30.85</ele>
        <time>2017-04-09T09:33:44Z</time>
      </trkpt>
      <trkpt lat="48.3531" lon="2.80861">
        <ele>30.67</ele>
        <time>2017-04-09T09:34:01Z</time>
      </trkpt>
      <trkpt lat="48.35307" lon="2.80832">
        <ele>30.41</ele>
        <time>2017-04-09T09:34:19Z</time>
      </trkpt>
      <trkpt lat="48.353" lon="2.80803">
        <ele>30.31</ele>
        <time>2017-04-09T09:34:36Z</time>
      </trkpt>
      <trkpt lat="48.35294" lon="2.80761">
        <ele>30.08</ele>
        <time>2017-04-09T09:34:57Z</time>
      </trkpt>
      <trkpt lat="48.35288" lon="2.80731">
        <ele>29.94</ele>
        <time>2017-04-09T09:35:17Z</time>
      </trkpt>
      <trkpt lat="48.3528" lon="2.80701">
        <ele>29.92</ele>
        <time>2017-04-09T09:35:37Z</time>
      </trkpt>
      <trkpt lat="48.35277" lon="2.80671">
        <ele>30.01</ele>
        <time>2017-04-09T09:35:56Z</time>
      </trkpt>
      <trkpt lat="48.35271" lon="2.80646">
        <ele>29.96</ele>
        <time>2017-04-09T09:36:14Z</time>
      </trkpt>
      <trkpt lat="48.3526" lon="2.80609">
        <ele>29.84</ele>
        <time>2017-04-09T09:36:36Z</time>
      </trkpt>
      <trkpt lat="48.35255" lon="2.80584">
        <ele>29.71</ele>
        <time>2017-04-09T09:36:54Z</time>
      </trkpt>
      <trkpt lat="48.35253" lon="2.80569">
        <ele>29.53</ele>
        <time>2017-04-09T09:37:02Z</time>
      </trkpt>
      <trkpt lat="48.35255" lon="2.80556">
        <ele>29.38</ele>
        <time>2017-04-09T09:37:09Z</time>
      </trkpt>
      <trkpt lat="48.35258" lon="2.80549">
        <ele>29.81</ele>
        <time>2017-04-09T09:37:13Z</time>
      </trkpt>
      <trkpt lat="48.35271" lon="2.80534">
        <ele>29.4</ele>
        <time>2017-04-09T09:37:27Z</time>
      </trkpt>
      <trkpt lat="48.35274" lon="2.80531">
        <ele>29.26</ele>
        <time>2017-04-09T09:37:30Z</time>
      </trkpt>
      <trkpt lat="48.35288" lon="2.8052">
        <ele>29.08</ele>
        <time>2017-04-09T09:37:44Z</time>
      </trkpt>
      <trkpt lat="48.3529" lon="2.80517">
        <ele>29.47</ele>
        <time>2017-04-09T09:37:47Z</time>
      </trkpt>
      <trkpt lat="48.35305" lon="2.80508">
        <ele>28.75</ele>
        <time>2017-04-09T09:38:01Z</time>
      </trkpt>
      <trkpt lat="48.3531" lon="2.80505">
        <ele>28.85</ele>
        <time>2017-04-09T09:38:07Z</time>
      </trkpt>
      <trkpt lat="48.35314" lon="2.80499">
        <ele>28.38</ele>
        <time>2017-04-09T09:38:12Z</time>
      </trkpt>
      <trkpt lat="48.35326" lon="2.80491">
        <ele>28.68</ele>
        <time>2017-04-09T09:38:22Z</time>
      </trkpt>
      <trkpt lat="48.35336" lon="2.80484">
        <ele>28.89</ele>
        <time>2017-04-09T09:38:31Z</time>
      </trkpt>
      <trkpt lat="48.3534" lon="2.80482">
        <ele>28.75</ele>
        <time>2017-04-09T09:38:35Z</time>
      </trkpt>
      <trkpt lat="48.35349" lon="2.80476">
        <ele>28.44</ele>
        <time>2017-04-09T09:38:43Z</time>
      </trkpt>
      <trkpt lat="48.35364" lon="2.80468">
        <ele>28.21</ele>
        <time>2017-04-09T09:38:56Z</time>
      </trkpt>
      <trkpt lat="48.35377" lon="2.80457">
        <ele>27.73</ele>
        <time>2017-04-09T09:39:10Z</time>
      </trkpt>
      <trkpt lat="48.35394" lon="2.80447">
        <ele>28.16</ele>
        <time>2017-04-09T09:39:25Z</time>
      </trkpt>
      <trkpt lat="48.35409" lon="2.80441">
        <ele>27.34</ele>
        <time>2017-04-09T09:39:41Z</time>
      </trkpt>
      <trkpt lat="48.35426" lon="2.80427">
        <ele>27.99</ele>
        <time>2017-04-09T09:40:00Z</time>
      </trkpt>
      <trkpt lat="48.35443" lon="2.80417">
        <ele>27.61</ele>
        <time>2017-04-09T09:40:17Z</time>
      </trkpt>
      <trkpt lat="48.35458" lon="2.80403">
        <ele>27.29</ele>
        <time>2017-04-09T09:40:34Z</time>
      </trkpt>
      <trkpt lat="48.35473" lon="2.80397">
        <ele>27.64</ele>
        <time>2017-04-09T09:40:47Z</time>
      </trkpt>
      <trkpt lat="48.35483" lon="2.80389">
        <ele>27.51</ele>
        <time>2017-04-09T09:41:08Z</time>
      </trkpt>
      <trkpt lat="48.35485" lon="2.8039">
        <ele>27.39</ele>
        <time>2017-04-09T09:41:35Z</time>
      </trkpt>
      <trkpt lat="48.35483" lon="2.80384">
        <ele>27.86</ele>
        <time>2017-04-09T09:42:00Z</time>
      </trkpt>
      <trkpt lat="48.3548" lon="2.80373">
        <ele>27.54</ele>
        <time>2017-04-09T09:42:24Z</time>
      </trkpt>
      <trkpt lat="48.3547" lon="2.80357">
        <ele>28.04</ele>
        <time>2017-04-09T09:42:40Z</time>
      </trkpt>
      <trkpt lat="48.35464" lon="2.80343">
        <ele>27.6</ele>
        <time>2017-04-09T09:42:55Z</time>
      </trkpt>
      <trkpt lat="48.35453" lon="2.80316">
        <ele>27.76</ele>
        <time>2017-04-09T09:43:12Z</time>
      </trkpt>
      <trkpt lat="48.35443" lon="2.80289">
        <ele>27.98</ele>
        <time>2017-04-09T09:43:30Z</time>
      </trkpt>
      <trkpt lat="48.35436" lon="2.80263">
        <ele>28.08</ele>
        <time>2017-04-09T09:43:47Z</time>
      </trkpt>
      <trkpt lat="48.35421" lon="2.80237">
        <ele>28.64</ele>
        <time>2017-04-09T09:44:05Z</time>
      </trkpt>
      <trkpt lat="48.35409" lon="2.8022">
        <ele>28.56</ele>
        <time>2017-04-09T09:44:22Z</time>
      </trkpt>
      <trkpt lat="48.35391" lon="2.80197">
        <ele>28.63</ele>
        <time>2017-04-09T09:44:42Z</time>
      </trkpt>
      <trkpt lat="48.3538" lon="2.80174">
        <ele>28.56</ele>
        <time>2017-04-09T09:45:00Z</time>
      </trkpt>
      <trkpt lat="48.35365" lon="2.80147">
        <ele>28.45</ele>
        <time>2017-04-09T09:45:20Z</time>
      </trkpt>
      <trkpt lat="48.35354" lon="2.8012">
        <ele>28.54</ele>
        <time>2017-04-09T09:45:40Z</time>
      </trkpt>
      <trkpt lat="48.35339" lon="2.80095">
        <ele>28.58</ele>
        <time>2017-04-09T09:46:00Z</time>
      </trkpt>
      <trkpt lat="48.35334" lon="2.80087">
        <ele>28.88</ele>
        <time>2017-04-09T09:46:05Z</time>
      </trkpt>
      <trkpt lat="48.35323" lon="2.8007">
        <ele>28.86</ele>
        <time>2017-04-09T09:46:20Z</time>
      </trkpt>
      <trkpt lat="48.3531" lon="2.80049">
        <ele>28.45</ele>
        <time>2017-04-09T09:46:40Z</time>
      </trkpt>
      <trkpt lat="48.35294" lon="2.80027">
        <ele>28.49</ele>
        <time>2017-04-09T09:47:00Z</time>
      </trkpt>
      <trkpt lat="48.35276" lon="2.80014">
        <ele>28.78</ele>
        <time>2017-04-09T09:47:17Z</time>
      </trkpt>
      <trkpt lat="48.35259" lon="2.8">
        <ele>28.24</ele>
        <time>2017-04-09T09:47:36Z</time>
      </trkpt>
      <trkpt lat="48.3525" lon="2.79984">
        <ele>27.32</ele>
        <time>2017-04-09T09:47:52Z</time>
      </trkpt>
      <trkpt lat="48.35244" lon="2.79977">
        <ele>26.97</ele>
        <time>2017-04-09T09:48:01Z</time>
      </trkpt>
      <trkpt lat="48.35242" lon="2.79972">
        <ele>27.7</ele>
        <time>2017-04-09T09:48:07Z</time>
      </trkpt>
      <trkpt lat="48.35226" lon="2.79957">
        <ele>26.44</ele>
        <time>2017-04-09T09:48:28Z</time>
      </trkpt>
      <trkpt lat="48.3521" lon="2.79951">
        <ele>26.51</ele>
        <time>2017-04-09T09:48:46Z</time>
      </trkpt>
      <trkpt lat="48.35196" lon="2.79942">
        <ele>26</ele>
        <time>2017-04-09T09:49:04Z</time>
      </trkpt>
      <trkpt lat="48.35179" lon="2.79922">
        <ele>25.17</ele>
        <time>2017-04-09T09:49:23Z</time>
      </trkpt>
      <trkpt lat="48.35164" lon="2.79906">
        <ele>25.26</ele>
        <time>2017-04-09T09:49:42Z</time>
      </trkpt>
      <trkpt lat="48.35145" lon="2.79889">
        <ele>24.15</ele>
        <time>2017-04-09T09:50:03Z</time>
      </trkpt>
      <trkpt lat="48.3514" lon="2.79882">
        <ele>24.92</ele>
        <time>2017-04-09T09:50:08Z</time>
      </trkpt>
      <trkpt lat="48.35125" lon="2.79854">
        <ele>24.36</ele>
        <time>2017-04-09T09:50:28Z</time>
      </trkpt>
      <trkpt lat="48.35105" lon="2.79833">
        <ele>24.35</ele>
        <time>2017-04-09T09:50:48Z</time>
      </trkpt>
      <trkpt lat="48.35088" lon="2.79809">
        <ele>23.7</ele>
        <time>2017-04-09T09:51:08Z</time>
      </trkpt>
      <trkpt lat="48.35072" lon="2.79789">
        <ele>23.45</ele>
        <time>2017-04-09T09:51:27Z</time>
      </trkpt>
      <trkpt lat="48.35055" lon="2.79767">
        <ele>23.13</ele>
        <time>2017-04-09T09:51:46Z</time>
      </trkpt>
      <trkpt lat="48.35049" lon="2.79751">
        <ele>23.11</ele>
        <time>2017-04-09T09:52:09Z</time>
      </trkpt>
      <trkpt lat="48.35034" lon="2.79751">
        <ele>22.62</ele>
        <time>2017-04-09T09:52:34Z</time>
      </trkpt>
      <trkpt lat="48.35031" lon="2.79747">
        <ele>22.87</ele>
        <time>2017-04-09T09:53:00Z</time>
      </trkpt>
      <trkpt lat="48.35032" lon="2.79744">
        <ele>22.82</ele>
        <time>2017-04-09T09:53:29Z</time>
      </trkpt>
      <trkpt lat="48.3503" lon="2.79741">
        <ele>23.77</ele>
        <time>2017-04-09T09:53:56Z</time>
      </trkpt>
      <trkpt lat="48.3503" lon="2.79738">
        <ele>23.73</ele>
        <time>2017-04-09T09:54:18Z</time>
      </trkpt>
      <trkpt lat="48.35031" lon="2.79741">
        <ele>23.94</ele>
        <time>2017-04-09T09:54:44Z</time>
      </trkpt>
      <trkpt lat="48.35028" lon="2.79734">
        <ele>24.52</ele>
        <time>2017-04-09T09:55:10Z</time>
      </trkpt>
      <trkpt lat="48.35018" lon="2.7973">
        <ele>24.73</ele>
        <time>2017-04-09T09:55:29Z</time>
      </trkpt>
      <trkpt lat="48.35004" lon="2.79715">
        <ele>25.1</ele>
        <time>2017-04-09T09:55:49Z</time>
      </trkpt>
      <trkpt lat="48.34989" lon="2.79696">
        <ele>25.33</ele>
        <time>2017-04-09T09:56:09Z</time>
      </trkpt>
      <trkpt lat="48.34971" lon="2.79675">
        <ele>25.35</ele>
        <time>2017-04-09T09:56:29Z</time>
      </trkpt>
      <trkpt lat="48.34951" lon="2.79647">
        <ele>25.62</ele>
        <time>2017-04-09T09:56:52Z</time>
      </trkpt>
      <trkpt lat="48.34948" lon="2.79645">
        <ele>26.15</ele>
        <time>2017-04-09T09:56:56Z</time>
      </trkpt>
      <trkpt lat="48.34932" lon="2.79629">
        <ele>25.76</ele>
        <time>2017-04-09T09:57:13Z</time>
      </trkpt>
      <trkpt lat="48.34931" lon="2.79628">
        <ele>26.02</ele>
        <time>2017-04-09T09:57:14Z</time>
      </trkpt>
      <trkpt lat="48.34914" lon="2.79606">
        <ele>26.64</ele>
        <time>2017-04-09T09:57:34Z</time>
      </trkpt>
      <trkpt lat="48.34913" lon="2.79605">
        <ele>26.48</ele>
        <time>2017-04-09T09:57:35Z</time>
      </trkpt>
      <trkpt lat="48.34897" lon="2.79578">
        <ele>26.31</ele>
        <time>2017-04-09T09:57:57Z</time>
      </trkpt>
      <trkpt lat="48.34881" lon="2.79556">
        <ele>26.33</ele>
        <time>2017-04-09T09:58:18Z</time>
      </trkpt>
      <trkpt lat="48.34863" lon="2.79542">
        <ele>26.75</ele>
        <time>2017-04-09T09:58:35Z</time>
      </trkpt>
      <trkpt lat="48.34859" lon="2.79533">
        <ele>26.45</ele>
        <time>2017-04-09T09:58:39Z</time>
      </trkpt>
      <trkpt lat="48.34843" lon="2.7952">
        <ele>26.24</ele>
        <time>2017-04-09T09:58:54Z</time>
      </trkpt>
      <trkpt lat="48.34832" lon="2.79508">
        <ele>26.15</ele>
        <time>2017-04-09T09:59:07Z</time>
      </trkpt>
      <trkpt lat="48.34815" lon="2.79485">
        <ele>26.58</ele>
        <time>2017-04-09T09:59:23Z</time>
      </trkpt>
      <trkpt lat="48.348" lon="2.79464">
        <ele>26.49</ele>
        <time>2017-04-09T09:59:41Z</time>
      </trkpt>
      <trkpt lat="48.34793" lon="2.79456">
        <ele>26.52</ele>
        <time>2017-04-09T09:59:51Z</time>
      </trkpt>
      <trkpt lat="48.34776" lon="2.79437">
        <ele>26.49</ele>
        <time>2017-04-09T10:00:11Z</time>
      </trkpt>
      <trkpt lat="48.34758" lon="2.79416">
        <ele>26.11</ele>
        <time>2017-04-09T10:00:31Z</time>
      </trkpt>
      <trkpt lat="48.3475" lon="2.79412">
        <ele>26.46</ele>
        <time>2017-04-09T10:00:45Z</time>
      </trkpt>
      <trkpt lat="48.34748" lon="2.79416">
        <ele>25.89</ele>
        <time>2017-04-09T10:00:49Z</time>
      </trkpt>
      <trkpt lat="48.3474" lon="2.79427">
        <ele>25.41</ele>
        <time>2017-04-09T10:01:06Z</time>
      </trkpt>
      <trkpt lat="48.34736" lon="2.79438">
        <ele>25.54</ele>
        <time>2017-04-09T10:01:18Z</time>
      </trkpt>
      <trkpt lat="48.34724" lon="2.79461">
        <ele>25.86</ele>
        <time>2017-04-09T10:01:37Z</time>
      </trkpt>
      <trkpt lat="48.34716" lon="2.79466">
        <ele>25.69</ele>
        <time>2017-04-09T10:01:44Z</time>
      </trkpt>
      <trkpt lat="48.34701" lon="2.79491">
        <ele>25.96</ele>
        <time>2017-04-09T10:02:01Z</time>
      </trkpt>
      <trkpt lat="48.34698" lon="2.79497">
        <ele>26.58</ele>
        <time>2017-04-09T10:02:05Z</time>
      </trkpt>
      <trkpt lat="48.34687" lon="2.79522">
        <ele>25.3</ele>
        <time>2017-04-09T10:02:21Z</time>
      </trkpt>
      <trkpt lat="48.34673" lon="2.79552">
        <ele>25.87</ele>
        <time>2017-04-09T10:02:38Z</time>
      </trkpt>
      <trkpt lat="48.34662" lon="2.79572">
        <ele>25.62</ele>
        <time>2017-04-09T10:02:54Z</time>
      </trkpt>
      <trkpt lat="48.34651" lon="2.79593">
        <ele>26.51</ele>
        <time>2017-04-09T10:03:12Z</time>
      </trkpt>
      <trkpt lat="48.34648" lon="2.79598">
        <ele>25.66</ele>
        <time>2017-04-09T10:03:24Z</time>
      </trkpt>
      <trkpt lat="48.34634" lon="2.79618">
        <ele>26.69</ele>
        <time>2017-04-09T10:03:42Z</time>
      </trkpt>
      <trkpt lat="48.34629" lon="2.79621">
        <ele>26.24</ele>
        <time>2017-04-09T10:03:47Z</time>
      </trkpt>
      <trkpt lat="48.3462" lon="2.79621">
        <ele>26.52</ele>
        <time>2017-04-09T10:03:55Z</time>
      </trkpt>
      <trkpt lat="48.34607" lon="2.79613">
        <ele>26.7</ele>
        <time>2017-04-09T10:04:09Z</time>
      </trkpt>
      <trkpt lat="48.34601" lon="2.79614">
        <ele>26.6</ele>
        <time>2017-04-09T10:04:23Z</time>
      </trkpt>
      <trkpt lat="48.34603" lon="2.79614">
        <ele>27.26</ele>
        <time>2017-04-09T10:04:39Z</time>
      </trkpt>
      <trkpt lat="48.34607" lon="2.79609">
        <ele>28.01</ele>
        <time>2017-04-09T10:04:55Z</time>
      </trkpt>
      <trkpt lat="48.34606" lon="2.79609">
        <ele>27.87</ele>
        <time>2017-04-09T10:04:59Z</time>
      </trkpt>
      <trkpt lat="48.34605" lon="2.79607">
        <ele>27.88</ele>
        <time>2017-04-09T10:05:01Z</time>
      </trkpt>
      <trkpt lat="48.34591" lon="2.79593">
        <ele>27.93</ele>
        <time>2017-04-09T10:05:17Z</time>
      </trkpt>
      <trkpt lat="48.34572" lon="2.79575">
        <ele>28.29</ele>
        <time>2017-04-09T10:05:37Z</time>
      </trkpt>
      <trkpt lat="48.34572" lon="2.79574">
        <ele>28.21</ele>
        <time>2017-04-09T10:05:38Z</time>
      </trkpt>
      <trkpt lat="48.34561" lon="2.79564">
        <ele>28.36</ele>
        <time>2017-04-09T10:05:49Z</time>
      </trkpt>
      <trkpt lat="48.34546" lon="2.79549">
        <ele>28.33</ele>
        <time>2017-04-09T10:06:05Z</time>
      </trkpt>
      <trkpt lat="48.34539" lon="2.79542">
        <ele>28.33</ele>
        <time>2017-04-09T10:06:13Z</time>
      </trkpt>
      <trkpt lat="48.34527" lon="2.79533">
        <ele>28.63</ele>
        <time>2017-04-09T10:06:24Z</time>
      </trkpt>
      <trkpt lat="48.34522" lon="2.7953">
        <ele>28.8</ele>
        <time>2017-04-09T10:06:29Z</time>
      </trkpt>
      <trkpt lat="48.34506" lon="2.79511">
        <ele>28.45</ele>
        <time>2017-04-09T10:06:46Z</time>
      </trkpt>
      <trkpt lat="48.34492" lon="2.79497">
        <ele>28.77</ele>
        <time>2017-04-09T10:07:01Z</time>
      </trkpt>
      <trkpt lat="48.34479" lon="2.79485">
        <ele>28.34</ele>
        <time>2017-04-09T10:07:14Z</time>
      </trkpt>
      <trkpt lat="48.34464" lon="2.79469">
        <ele>28.92</ele>
        <time>2017-04-09T10:07:29Z</time>
      </trkpt>
      <trkpt lat="48.34449" lon="2.79452">
        <ele>29.19</ele>
        <time>2017-04-09T10:07:44Z</time>
      </trkpt>
      <trkpt lat="48.34433" lon="2.79436">
        <ele>29.16</ele>
        <time>2017-04-09T10:08:00Z</time>
      </trkpt>
      <trkpt lat="48.34419" lon="2.79422">
        <ele>29.15</ele>
        <time>2017-04-09T10:08:15Z</time>
      </trkpt>
      <trkpt lat="48.34405" lon="2.79407">
        <ele>29.06</ele>
        <time>2017-04-09T10:08:29Z</time>
      </trkpt>
      <trkpt lat="48.34391" lon="2.79393">
        <ele>29.86</ele>
        <time>2017-04-09T10:08:44Z</time>
      </trkpt>
      <trkpt lat="48.34376" lon="2.79376">
        <ele>29.92</ele>
        <time>2017-04-09T10:09:00Z</time>
      </trkpt>
      <trkpt lat="48.34375" lon="2.79376">
        <ele>29.7</ele>
        <time>2017-04-09T10:09:01Z</time>
      </trkpt>
      <trkpt lat="48.3437" lon="2.79371">
        <ele>29.62</ele>
        <time>2017-04-09T10:09:06Z</time>
      </trkpt>
      <trkpt lat="48.34357" lon="2.79359">
        <ele>29.71</ele>
        <time>2017-04-09T10:09:21Z</time>
      </trkpt>
      <trkpt lat="48.34341" lon="2.79345">
        <ele>29.78</ele>
        <time>2017-04-09T10:09:38Z</time>
      </trkpt>
      <trkpt lat="48.34329" lon="2.79326">
        <ele>30.26</ele>
        <time>2017-04-09T10:09:53Z</time>
      </trkpt>
      <trkpt lat="48.34319" lon="2.79312">
        <ele>30.29</ele>
        <time>2017-04-09T10:10:06Z</time>
      </trkpt>
      <trkpt lat="48.3431" lon="2.79296">
        <ele>29.99</ele>
        <time>2017-04-09T10:10:18Z</time>
      </trkpt>
      <trkpt lat="48.34306" lon="2.79291">
        <ele>29.85</ele>
        <time>2017-04-09T10:10:22Z</time>
      </trkpt>
      <trkpt lat="48.34304" lon="2.79288">
        <ele>30.26</ele>
        <time>2017-04-09T10:10:25Z</time>
      </trkpt>
      <trkpt lat="48.34292" lon="2.79271">
        <ele>30.27</ele>
        <time>2017-04-09T10:10:40Z</time>
      </trkpt>
      <trkpt lat="48.34283" lon="2.79255">
        <ele>30.4</ele>
        <time>2017-04-09T10:10:54Z</time>
      </trkpt>
      <trkpt lat="48.34281" lon="2.79251">
        <ele>30.53</ele>
        <time>2017-04-09T10:10:57Z</time>
      </trkpt>
      <trkpt lat="48.34271" lon="2.79234">
        <ele>30.58</ele>
        <time>2017-04-09T10:11:11Z</time>
      </trkpt>
      <trkpt lat="48.34257" lon="2.79215">
        <ele>30.65</ele>
        <time>2017-04-09T10:11:26Z</time>
      </trkpt>
      <trkpt lat="48.34243" lon="2.79196">
        <ele>30.51</ele>
        <time>2017-04-09T10:11:43Z</time>
      </trkpt>
      <trkpt lat="48.34233" lon="2.79186">
        <ele>30.57</ele>
        <time>2017-04-09T10:11:56Z</time>
      </trkpt>
      <trkpt lat="48.34231" lon="2.79184">
        <ele>30.43</ele>
        <time>2017-04-09T10:12:18Z</time>
      </trkpt>
      <trkpt lat="48.3423" lon="2.79182">
        <ele>31.61</ele>
        <time>2017-04-09T10:12:37Z</time>
      </trkpt>
      <trkpt lat="48.34219" lon="2.79174">
        <ele>31.28</ele>
        <time>2017-04-09T10:12:59Z</time>
      </trkpt>
      <trkpt lat="48.34218" lon="2.79174">
        <ele>30.86</ele>
        <time>2017-04-09T10:13:00Z</time>
      </trkpt>
      <trkpt lat="48.34215" lon="2.79171">
        <ele>31.01</ele>
        <time>2017-04-09T10:13:03Z</time>
      </trkpt>
      <trkpt lat="48.34203" lon="2.79157">
        <ele>31.2</ele>
        <time>2017-04-09T10:13:17Z</time>
      </trkpt>
      <trkpt lat="48.34187" lon="2.79146">
        <ele>31.59</ele>
        <time>2017-04-09T10:13:33Z</time>
      </trkpt>
      <trkpt lat="48.34173" lon="2.79134">
        <ele>30.95</ele>
        <time>2017-04-09T10:13:51Z</time>
      </trkpt>
      <trkpt lat="48.3417" lon="2.79131">
        <ele>31.01</ele>
        <time>2017-04-09T10:13:55Z</time>
      </trkpt>
      <trkpt lat="48.34155" lon="2.79117">
        <ele>31.45</ele>
        <time>2017-04-09T10:14:16Z</time>
      </trkpt>
      <trkpt lat="48.34152" lon="2.79114">
        <ele>31.44</ele>
        <time>2017-04-09T10:14:19Z</time>
      </trkpt>
      <trkpt lat="48.3414" lon="2.79101">
        <ele>31.45</ele>
        <time>2017-04-09T10:14:34Z</time>
      </trkpt>
      <trkpt lat="48.34125" lon="2.79088">
        <ele>31.33</ele>
        <time>2017-04-09T10:14:52Z</time>
      </trkpt>
      <trkpt lat="48.34109" lon="2.79078">
        <ele>30.3</ele>
        <time>2017-04-09T10:15:11Z</time>
      </trkpt>
      <trkpt lat="48.34093" lon="2.79057">
        <ele>31.36</ele>
        <time>2017-04-09T10:15:30Z</time>
      </trkpt>
      <trkpt lat="48.34091" lon="2.79049">
        <ele>31.25</ele>
        <time>2017-04-09T10:15:40Z</time>
      </trkpt>
      <trkpt lat="48.34082" lon="2.79038">
        <ele>31.32</ele>
        <time>2017-04-09T10:16:02Z</time>
      </trkpt>
      <trkpt lat="48.34067" lon="2.79025">
        <ele>31.18</ele>
        <time>2017-04-09T10:16:18Z</time>
      </trkpt>
      <trkpt lat="48.34056" lon="2.79019">
        <ele>31.01</ele>
        <time>2017-04-09T10:16:38Z</time>
      </trkpt>
      <trkpt lat="48.34032" lon="2.79014">
        <ele>30.07</ele>
        <time>2017-04-09T10:17:00Z</time>
      </trkpt>
      <trkpt lat="48.34027" lon="2.78996">
        <ele>31.7</ele>
        <time>2017-04-09T10:17:17Z</time>
      </trkpt>
      <trkpt lat="48.34033" lon="2.78988">
        <ele>30.79</ele>
        <time>2017-04-09T10:17:39Z</time>
      </trkpt>
      <trkpt lat="48.34045" lon="2.78972">
        <ele>31.29</ele>
        <time>2017-04-09T10:17:59Z</time>
      </trkpt>
      <trkpt lat="48.34055" lon="2.78943">
        <ele>31.39</ele>
        <time>2017-04-09T10:18:19Z</time>
      </trkpt>
      <trkpt lat="48.34052" lon="2.78929">
        <ele>31.9</ele>
        <time>2017-04-09T10:18:40Z</time>
      </trkpt>
      <trkpt lat="48.34049" lon="2.78924">
        <ele>31.87</ele>
        <time>2017-04-09T10:19:08Z</time>
      </trkpt>
      <trkpt lat="48.3405" lon="2.78922">
        <ele>31.93</ele>
        <time>2017-04-09T10:19:40Z</time>
      </trkpt>
      <trkpt lat="48.3405" lon="2.78919">
        <ele>31.79</ele>
        <time>2017-04-09T10:20:05Z</time>
      </trkpt>
      <trkpt lat="48.34051" lon="2.78919">
        <ele>31.86</ele>
        <time>2017-04-09T10:20:08Z</time>
      </trkpt>
      <trkpt lat="48.34052" lon="2.78931">
        <ele>31.65</ele>
        <time>2017-04-09T10:20:32Z</time>
      </trkpt>
      <trkpt lat="48.34054" lon="2.78951">
        <ele>31.48</ele>
        <time>2017-04-09T10:20:54Z</time>
      </trkpt>
      <trkpt lat="48.34045" lon="2.78971">
        <ele>31.87</ele>
        <time>2017-04-09T10:21:12Z</time>
      </trkpt>
      <trkpt lat="48.34032" lon="2.78986">
        <ele>32.39</ele>
        <time>2017-04-09T10:21:32Z</time>
      </trkpt>
      <trkpt lat="48.34025" lon="2.78996">
        <ele>31.72</ele>
        <time>2017-04-09T10:21:51Z</time>
      </trkpt>
      <trkpt lat="48.34023" lon="2.79005">
        <ele>31.97</ele>
        <time>2017-04-09T10:22:18Z</time>
      </trkpt>
      <trkpt lat="48.34025" lon="2.79003">
        <ele>32.6</ele>
        <time>2017-04-09T10:22:47Z</time>
      </trkpt>
      <trkpt lat="48.34022" lon="2.79001">
        <ele>32.8</ele>
        <time>2017-04-09T10:23:21Z</time>
      </trkpt>
      <trkpt lat="48.34021" lon="2.79005">
        <ele>33.03</ele>
        <time>2017-04-09T10:23:56Z</time>
      </trkpt>
      <trkpt lat="48.34024" lon="2.79003">
        <ele>32.59</ele>
        <time>2017-04-09T10:24:15Z</time>
      </trkpt>
      <trkpt lat="48.34019" lon="2.78998">
        <ele>33.56</ele>
        <time>2017-04-09T10:24:39Z</time>
      </trkpt>
      <trkpt lat="48.34007" lon="2.7899">
        <ele>34.31</ele>
        <time>2017-04-09T10:24:58Z</time>
      </trkpt>
      <trkpt lat="48.34005" lon="2.78989">
        <ele>34.32</ele>
        <time>2017-04-09T10:25:00Z</time>
      </trkpt>
      <trkpt lat="48.33992" lon="2.78982">
        <ele>33.43</ele>
        <time>2017-04-09T10:25:16Z</time>
      </trkpt>
      <trkpt lat="48.33981" lon="2.7897">
        <ele>34.11</ele>
        <time>2017-04-09T10:25:36Z</time>
      </trkpt>
      <trkpt lat="48.33976" lon="2.78966">
        <ele>33.72</ele>
        <time>2017-04-09T10:25:40Z</time>
      </trkpt>
      <trkpt lat="48.33961" lon="2.78954">
        <ele>33.87</ele>
        <time>2017-04-09T10:25:57Z</time>
      </trkpt>
      <trkpt lat="48.33947" lon="2.78936">
        <ele>33.88</ele>
        <time>2017-04-09T10:26:13Z</time>
      </trkpt>
      <trkpt lat="48.3394" lon="2.78933">
        <ele>34.29</ele>
        <time>2017-04-09T10:26:23Z</time>
      </trkpt>
      <trkpt lat="48.33921" lon="2.78933">
        <ele>33.5</ele>
        <time>2017-04-09T10:26:45Z</time>
      </trkpt>
      <trkpt lat="48.33917" lon="2.78931">
        <ele>33.64</ele>
        <time>2017-04-09T10:26:49Z</time>
      </trkpt>
      <trkpt lat="48.3391" lon="2.78929">
        <ele>34.06</ele>
        <time>2017-04-09T10:26:55Z</time>
      </trkpt>
      <trkpt lat="48.33903" lon="2.78924">
        <ele>33.64</ele>
        <time>2017-04-09T10:27:01Z</time>
      </trkpt>
      <trkpt lat="48.33882" lon="2.78918">
        <ele>33.6</ele>
        <time>2017-04-09T10:27:20Z</time>
      </trkpt>
      <trkpt lat="48.3385" lon="2.78893">
        <ele>33.43</ele>
        <time>2017-04-09T10:27:53Z</time>
      </trkpt>
      <trkpt lat="48.33831" lon="2.78877">
        <ele>33.45</ele>
        <time>2017-04-09T10:32:40Z</time>
      </trkpt>
      <trkpt lat="48.33827" lon="2.7887">
        <ele>49.09</ele>
        <time>2017-04-09T11:04:41Z</time>
      </trkpt>
      <trkpt lat="48.33821" lon="2.78855">
        <ele>49.57</ele>
        <time>2017-04-09T11:09:07Z</time>
      </trkpt>
      <trkpt lat="48.33812" lon="2.7885">
        <ele>49.04</ele>
        <time>2017-04-09T11:10:00Z</time>
      </trkpt>
      <trkpt lat="48.33805" lon="2.7885">
        <ele>49.86</ele>
        <time>2017-04-09T11:21:47Z</time>
      </trkpt>
      <trkpt lat="48.33797" lon="2.78848">
        <ele>49.48</ele>
        <time>2017-04-09T11:22:10Z</time>
      </trkpt>
      <trkpt lat="48.33785" lon="2.78842">
        <ele>49.48</ele>
        <time>2017-04-09T11:22:29Z</time>
      </trkpt>
      <trkpt lat="48.33779" lon="2.78833">
        <ele>49.31</ele>
        <time>2017-04-09T11:22:45Z</time>
      </trkpt>
      <trkpt lat="48.3377" lon="2.78817">
        <ele>49.09</ele>
        <time>2017-04-09T11:23:05Z</time>
      </trkpt>
      <trkpt lat="48.33757" lon="2.78799">
        <ele>48.79</ele>
        <time>2017-04-09T11:23:27Z</time>
      </trkpt>
      <trkpt lat="48.33746" lon="2.78779">
        <ele>48.42</ele>
        <time>2017-04-09T11:23:47Z</time>
      </trkpt>
      <trkpt lat="48.33735" lon="2.78765">
        <ele>48.7</ele>
        <time>2017-04-09T11:24:03Z</time>
      </trkpt>
      <trkpt lat="48.33726" lon="2.78748">
        <ele>48.73</ele>
        <time>2017-04-09T11:24:21Z</time>
      </trkpt>
      <trkpt lat="48.33724" lon="2.78745">
        <ele>48.38</ele>
        <time>2017-04-09T11:24:24Z</time>
      </trkpt>
      <trkpt lat="48.33711" lon="2.78715">
        <ele>47.8</ele>
        <time>2017-04-09T11:24:45Z</time>
      </trkpt>
      <trkpt lat="48.337" lon="2.78696">
        <ele>47.27</ele>
        <time>2017-04-09T11:25:03Z</time>
      </trkpt>
      <trkpt lat="48.33688" lon="2.78678">
        <ele>46.94</ele>
        <time>2017-04-09T11:25:20Z</time>
      </trkpt>
      <trkpt lat="48.33678" lon="2.78652">
        <ele>46.92</ele>
        <time>2017-04-09T11:25:40Z</time>
      </trkpt>
      <trkpt lat="48.33666" lon="2.7863">
        <ele>46.83</ele>
        <time>2017-04-09T11:25:58Z</time>
      </trkpt>
      <trkpt lat="48.33656" lon="2.7861">
        <ele>46.27</ele>
        <time>2017-04-09T11:26:18Z</time>
      </trkpt>
      <trkpt lat="48.33644" lon="2.78589">
        <ele>45.93</ele>
        <time>2017-04-09T11:26:36Z</time>
      </trkpt>
      <trkpt lat="48.33637" lon="2.7856">
        <ele>45.91</ele>
        <time>2017-04-09T11:26:55Z</time>
      </trkpt>
      <trkpt lat="48.33634" lon="2.78551">
        <ele>45.72</ele>
        <time>2017-04-09T11:27:02Z</time>
      </trkpt>
      <trkpt lat="48.33622" lon="2.78531">
        <ele>46.22</ele>
        <time>2017-04-09T11:27:22Z</time>
      </trkpt>
      <trkpt lat="48.3361" lon="2.78509">
        <ele>45.76</ele>
        <time>2017-04-09T11:27:42Z</time>
      </trkpt>
      <trkpt lat="48.33594" lon="2.78478">
        <ele>44.3</ele>
        <time>2017-04-09T11:28:02Z</time>
      </trkpt>
      <trkpt lat="48.33591" lon="2.7847">
        <ele>43.47</ele>
        <time>2017-04-09T11:28:08Z</time>
      </trkpt>
      <trkpt lat="48.33588" lon="2.78444">
        <ele>43.53</ele>
        <time>2017-04-09T11:28:25Z</time>
      </trkpt>
      <trkpt lat="48.33588" lon="2.7842">
        <ele>43.95</ele>
        <time>2017-04-09T11:28:44Z</time>
      </trkpt>
      <trkpt lat="48.33599" lon="2.78397">
        <ele>44.56</ele>
        <time>2017-04-09T11:29:04Z</time>
      </trkpt>
      <trkpt lat="48.33612" lon="2.78369">
        <ele>43.61</ele>
        <time>2017-04-09T11:29:24Z</time>
      </trkpt>
      <trkpt lat="48.33612" lon="2.78367">
        <ele>43.37</ele>
        <time>2017-04-09T11:29:25Z</time>
      </trkpt>
      <trkpt lat="48.33614" lon="2.78329">
        <ele>43.65</ele>
        <time>2017-04-09T11:29:43Z</time>
      </trkpt>
      <trkpt lat="48.33615" lon="2.783">
        <ele>43.03</ele>
        <time>2017-04-09T11:30:02Z</time>
      </trkpt>
      <trkpt lat="48.33617" lon="2.78296">
        <ele>43</ele>
        <time>2017-04-09T11:30:05Z</time>
      </trkpt>
      <trkpt lat="48.3362" lon="2.78283">
        <ele>42.98</ele>
        <time>2017-04-09T11:30:13Z</time>
      </trkpt>
      <trkpt lat="48.33624" lon="2.78268">
        <ele>42.73</ele>
        <time>2017-04-09T11:30:22Z</time>
      </trkpt>
      <trkpt lat="48.33634" lon="2.78246">
        <ele>42.3</ele>
        <time>2017-04-09T11:30:38Z</time>
      </trkpt>
      <trkpt lat="48.33636" lon="2.78242">
        <ele>42.07</ele>
        <time>2017-04-09T11:30:42Z</time>
      </trkpt>
      <trkpt lat="48.33645" lon="2.78231">
        <ele>42.99</ele>
        <time>2017-04-09T11:30:55Z</time>
      </trkpt>
      <trkpt lat="48.33645" lon="2.7823">
        <ele>42.71</ele>
        <time>2017-04-09T11:30:56Z</time>
      </trkpt>
      <trkpt lat="48.33644" lon="2.78224">
        <ele>42.75</ele>
        <time>2017-04-09T11:31:16Z</time>
      </trkpt>
      <trkpt lat="48.33641" lon="2.78227">
        <ele>42.47</ele>
        <time>2017-04-09T11:31:19Z</time>
      </trkpt>
      <trkpt lat="48.3363" lon="2.78242">
        <ele>42.28</ele>
        <time>2017-04-09T11:31:33Z</time>
      </trkpt>
      <trkpt lat="48.33622" lon="2.78253">
        <ele>42.7</ele>
        <time>2017-04-09T11:31:49Z</time>
      </trkpt>
      <trkpt lat="48.33623" lon="2.78247">
        <ele>42.47</ele>
        <time>2017-04-09T11:32:05Z</time>
      </trkpt>
      <trkpt lat="48.33627" lon="2.78242">
        <ele>42.26</ele>
        <time>2017-04-09T11:32:10Z</time>
      </trkpt>
      <trkpt lat="48.33642" lon="2.78226">
        <ele>42.7</ele>
        <time>2017-04-09T11:32:27Z</time>
      </trkpt>
      <trkpt lat="48.33655" lon="2.78211">
        <ele>43.15</ele>
        <time>2017-04-09T11:32:47Z</time>
      </trkpt>
      <trkpt lat="48.33658" lon="2.78208">
        <ele>43.03</ele>
        <time>2017-04-09T11:33:07Z</time>
      </trkpt>
      <trkpt lat="48.33658" lon="2.78207">
        <ele>43.05</ele>
        <time>2017-04-09T11:33:29Z</time>
      </trkpt>
      <trkpt lat="48.33658" lon="2.78207">
        <ele>43.32</ele>
        <time>2017-04-09T11:33:50Z</time>
      </trkpt>
      <trkpt lat="48.33657" lon="2.78208">
        <ele>43.24</ele>
        <time>2017-04-09T11:34:14Z</time>
      </trkpt>
      <trkpt lat="48.33659" lon="2.78209">
        <ele>43.52</ele>
        <time>2017-04-09T11:34:42Z</time>
      </trkpt>
      <trkpt lat="48.33659" lon="2.78209">
        <ele>43.33</ele>
        <time>2017-04-09T11:35:07Z</time>
      </trkpt>
      <trkpt lat="48.33659" lon="2.78209">
        <ele>43.48</ele>
        <time>2017-04-09T11:35:37Z</time>
      </trkpt>
      <trkpt lat="48.33658" lon="2.78211">
        <ele>43.58</ele>
        <time>2017-04-09T11:36:10Z</time>
      </trkpt>
      <trkpt lat="48.33659" lon="2.7821">
        <ele>42.92</ele>
        <time>2017-04-09T11:36:32Z</time>
      </trkpt>
      <trkpt lat="48.33663" lon="2.78211">
        <ele>43.1</ele>
        <time>2017-04-09T11:37:02Z</time>
      </trkpt>
      <trkpt lat="48.33659" lon="2.7821">
        <ele>43.83</ele>
        <time>2017-04-09T11:37:34Z</time>
      </trkpt>
      <trkpt lat="48.33659" lon="2.78211">
        <ele>43.57</ele>
        <time>2017-04-09T11:37:57Z</time>
      </trkpt>
      <trkpt lat="48.33653" lon="2.78213">
        <ele>43.48</ele>
        <time>2017-04-09T11:38:20Z</time>
      </trkpt>
      <trkpt lat="48.33648" lon="2.78216">
        <ele>43.8</ele>
        <time>2017-04-09T11:38:38Z</time>
      </trkpt>
      <trkpt lat="48.33654" lon="2.78212">
        <ele>43.45</ele>
        <time>2017-04-09T11:38:58Z</time>
      </trkpt>
      <trkpt lat="48.33661" lon="2.78215">
        <ele>44.25</ele>
        <time>2017-04-09T11:39:20Z</time>
      </trkpt>
      <trkpt lat="48.33662" lon="2.78217">
        <ele>44.03</ele>
        <time>2017-04-09T11:39:43Z</time>
      </trkpt>
      <trkpt lat="48.33666" lon="2.78213">
        <ele>43.65</ele>
        <time>2017-04-09T11:40:04Z</time>
      </trkpt>
      <trkpt lat="48.33663" lon="2.78208">
        <ele>43.81</ele>
        <time>2017-04-09T11:40:25Z</time>
      </trkpt>
      <trkpt lat="48.33658" lon="2.78209">
        <ele>43.58</ele>
        <time>2017-04-09T11:40:52Z</time>
      </trkpt>
      <trkpt lat="48.33655" lon="2.78213">
        <ele>43.86</ele>
        <time>2017-04-09T11:41:20Z</time>
      </trkpt>
      <trkpt lat="48.33655" lon="2.78216">
        <ele>43.68</ele>
        <time>2017-04-09T11:41:53Z</time>
      </trkpt>
      <trkpt lat="48.33656" lon="2.78218">
        <ele>44.11</ele>
        <time>2017-04-09T11:42:21Z</time>
      </trkpt>
      <trkpt lat="48.33655" lon="2.7822">
        <ele>43.8</ele>
        <time>2017-04-09T11:42:50Z</time>
      </trkpt>
      <trkpt lat="48.33655" lon="2.78221">
        <ele>43.88</ele>
        <time>2017-04-09T11:43:22Z</time>
      </trkpt>
      <trkpt lat="48.33656" lon="2.78218">
        <ele>43.68</ele>
        <time>2017-04-09T11:43:51Z</time>
      </trkpt>
      <trkpt lat="48.33655" lon="2.7822">
        <ele>43.93</ele>
        <time>2017-04-09T11:44:20Z</time>
      </trkpt>
      <trkpt lat="48.33656" lon="2.78218">
        <ele>43.56</ele>
        <time>2017-04-09T11:44:40Z</time>
      </trkpt>
      <trkpt lat="48.33657" lon="2.78213">
        <ele>43.87</ele>
        <time>2017-04-09T11:45:05Z</time>
      </trkpt>
      <trkpt lat="48.3367" lon="2.78202">
        <ele>43.78</ele>
        <time>2017-04-09T11:45:27Z</time>
      </trkpt>
      <trkpt lat="48.33672" lon="2.782">
        <ele>43.59</ele>
        <time>2017-04-09T11:45:29Z</time>
      </trkpt>
      <trkpt lat="48.33683" lon="2.78188">
        <ele>44.14</ele>
        <time>2017-04-09T11:45:45Z</time>
      </trkpt>
      <trkpt lat="48.33696" lon="2.78179">
        <ele>43.26</ele>
        <time>2017-04-09T11:46:04Z</time>
      </trkpt>
      <trkpt lat="48.33714" lon="2.78167">
        <ele>43.28</ele>
        <time>2017-04-09T11:46:22Z</time>
      </trkpt>
      <trkpt lat="48.33726" lon="2.78156">
        <ele>43.32</ele>
        <time>2017-04-09T11:46:38Z</time>
      </trkpt>
      <trkpt lat="48.33738" lon="2.78143">
        <ele>43.21</ele>
        <time>2017-04-09T11:46:54Z</time>
      </trkpt>
      <trkpt lat="48.33755" lon="2.78138">
        <ele>43.36</ele>
        <time>2017-04-09T11:47:13Z</time>
      </trkpt>
      <trkpt lat="48.33769" lon="2.78131">
        <ele>43.15</ele>
        <time>2017-04-09T11:47:28Z</time>
      </trkpt>
      <trkpt lat="48.33787" lon="2.78121">
        <ele>43.09</ele>
        <time>2017-04-09T11:47:46Z</time>
      </trkpt>
      <trkpt lat="48.33809" lon="2.78107">
        <ele>42.97</ele>
        <time>2017-04-09T11:48:06Z</time>
      </trkpt>
      <trkpt lat="48.33831" lon="2.78098">
        <ele>42.47</ele>
        <time>2017-04-09T11:48:27Z</time>
      </trkpt>
      <trkpt lat="48.33852" lon="2.78087">
        <ele>42.63</ele>
        <time>2017-04-09T11:48:48Z</time>
      </trkpt>
      <trkpt lat="48.33865" lon="2.78061">
        <ele>40.7</ele>
        <time>2017-04-09T11:49:07Z</time>
      </trkpt>
      <trkpt lat="48.33871" lon="2.78048">
        <ele>40.18</ele>
        <time>2017-04-09T11:49:27Z</time>
      </trkpt>
      <trkpt lat="48.33875" lon="2.78038">
        <ele>40.19</ele>
        <time>2017-04-09T11:49:36Z</time>
      </trkpt>
      <trkpt lat="48.33881" lon="2.78022">
        <ele>40.29</ele>
        <time>2017-04-09T11:49:54Z</time>
      </trkpt>
      <trkpt lat="48.33885" lon="2.78019">
        <ele>40.06</ele>
        <time>2017-04-09T11:49:58Z</time>
      </trkpt>
      <trkpt lat="48.33899" lon="2.78008">
        <ele>39.69</ele>
        <time>2017-04-09T11:50:12Z</time>
      </trkpt>
      <trkpt lat="48.33914" lon="2.78003">
        <ele>39.2</ele>
        <time>2017-04-09T11:50:29Z</time>
      </trkpt>
      <trkpt lat="48.33921" lon="2.77987">
        <ele>38.93</ele>
        <time>2017-04-09T11:50:52Z</time>
      </trkpt>
      <trkpt lat="48.33931" lon="2.77976">
        <ele>38.73</ele>
        <time>2017-04-09T11:51:08Z</time>
      </trkpt>
      <trkpt lat="48.33931" lon="2.77975">
        <ele>38.82</ele>
        <time>2017-04-09T11:51:09Z</time>
      </trkpt>
      <trkpt lat="48.33947" lon="2.77966">
        <ele>39.26</ele>
        <time>2017-04-09T11:51:29Z</time>
      </trkpt>
      <trkpt lat="48.33964" lon="2.77957">
        <ele>39.51</ele>
        <time>2017-04-09T11:51:47Z</time>
      </trkpt>
      <trkpt lat="48.33979" lon="2.77958">
        <ele>40.19</ele>
        <time>2017-04-09T11:52:07Z</time>
      </trkpt>
      <trkpt lat="48.33984" lon="2.77954">
        <ele>39.94</ele>
        <time>2017-04-09T11:52:30Z</time>
      </trkpt>
      <trkpt lat="48.3399" lon="2.77942">
        <ele>39.6</ele>
        <time>2017-04-09T11:52:45Z</time>
      </trkpt>
      <trkpt lat="48.34006" lon="2.77924">
        <ele>39.17</ele>
        <time>2017-04-09T11:53:06Z</time>
      </trkpt>
      <trkpt lat="48.34018" lon="2.77909">
        <ele>39.47</ele>
        <time>2017-04-09T11:53:25Z</time>
      </trkpt>
      <trkpt lat="48.3403" lon="2.77889">
        <ele>39.23</ele>
        <time>2017-04-09T11:53:41Z</time>
      </trkpt>
      <trkpt lat="48.34036" lon="2.7788">
        <ele>39.41</ele>
        <time>2017-04-09T11:53:47Z</time>
      </trkpt>
      <trkpt lat="48.34043" lon="2.7785">
        <ele>40.18</ele>
        <time>2017-04-09T11:54:04Z</time>
      </trkpt>
      <trkpt lat="48.34053" lon="2.77826">
        <ele>37.84</ele>
        <time>2017-04-09T11:54:21Z</time>
      </trkpt>
      <trkpt lat="48.34053" lon="2.77821">
        <ele>37.5</ele>
        <time>2017-04-09T11:54:29Z</time>
      </trkpt>
      <trkpt lat="48.34056" lon="2.77804">
        <ele>37.93</ele>
        <time>2017-04-09T11:54:48Z</time>
      </trkpt>
      <trkpt lat="48.34065" lon="2.77782">
        <ele>39.47</ele>
        <time>2017-04-09T11:55:03Z</time>
      </trkpt>
      <trkpt lat="48.34072" lon="2.77764">
        <ele>39.88</ele>
        <time>2017-04-09T11:55:19Z</time>
      </trkpt>
      <trkpt lat="48.34072" lon="2.77759">
        <ele>39.02</ele>
        <time>2017-04-09T11:55:21Z</time>
      </trkpt>
      <trkpt lat="48.34081" lon="2.77741">
        <ele>39.31</ele>
        <time>2017-04-09T11:55:33Z</time>
      </trkpt>
      <trkpt lat="48.3409" lon="2.77725">
        <ele>39.26</ele>
        <time>2017-04-09T11:55:46Z</time>
      </trkpt>
      <trkpt lat="48.34092" lon="2.77722">
        <ele>39.34</ele>
        <time>2017-04-09T11:55:48Z</time>
      </trkpt>
      <trkpt lat="48.34098" lon="2.77715">
        <ele>39.34</ele>
        <time>2017-04-09T11:55:54Z</time>
      </trkpt>
      <trkpt lat="48.34102" lon="2.77706">
        <ele>39.27</ele>
        <time>2017-04-09T11:55:59Z</time>
      </trkpt>
      <trkpt lat="48.34114" lon="2.77683">
        <ele>39.09</ele>
        <time>2017-04-09T11:56:15Z</time>
      </trkpt>
      <trkpt lat="48.34123" lon="2.77654">
        <ele>39.15</ele>
        <time>2017-04-09T11:56:34Z</time>
      </trkpt>
      <trkpt lat="48.34128" lon="2.77629">
        <ele>38.99</ele>
        <time>2017-04-09T11:56:48Z</time>
      </trkpt>
      <trkpt lat="48.3413" lon="2.77603">
        <ele>39.6</ele>
        <time>2017-04-09T11:57:04Z</time>
      </trkpt>
      <trkpt lat="48.34139" lon="2.7758">
        <ele>38.69</ele>
        <time>2017-04-09T11:57:19Z</time>
      </trkpt>
      <trkpt lat="48.34158" lon="2.77564">
        <ele>38.54</ele>
        <time>2017-04-09T11:57:38Z</time>
      </trkpt>
      <trkpt lat="48.34179" lon="2.77555">
        <ele>37.55</ele>
        <time>2017-04-09T11:57:54Z</time>
      </trkpt>
      <trkpt lat="48.342" lon="2.77549">
        <ele>37.72</ele>
        <time>2017-04-09T11:58:14Z</time>
      </trkpt>
      <trkpt lat="48.3422" lon="2.77534">
        <ele>37.31</ele>
        <time>2017-04-09T11:58:33Z</time>
      </trkpt>
      <trkpt lat="48.34246" lon="2.77531">
        <ele>36.56</ele>
        <time>2017-04-09T11:58:52Z</time>
      </trkpt>
      <trkpt lat="48.34266" lon="2.77526">
        <ele>36.22</ele>
        <time>2017-04-09T11:59:07Z</time>
      </trkpt>
      <trkpt lat="48.34285" lon="2.77521">
        <ele>35.67</ele>
        <time>2017-04-09T11:59:25Z</time>
      </trkpt>
      <trkpt lat="48.34305" lon="2.77523">
        <ele>35.9</ele>
        <time>2017-04-09T11:59:40Z</time>
      </trkpt>
      <trkpt lat="48.34322" lon="2.77524">
        <ele>36.17</ele>
        <time>2017-04-09T11:59:53Z</time>
      </trkpt>
      <trkpt lat="48.34339" lon="2.77526">
        <ele>35.97</ele>
        <time>2017-04-09T12:00:11Z</time>
      </trkpt>
      <trkpt lat="48.34351" lon="2.77526">
        <ele>35.86</ele>
        <time>2017-04-09T12:00:27Z</time>
      </trkpt>
      <trkpt lat="48.34369" lon="2.77536">
        <ele>35.5</ele>
        <time>2017-04-09T12:00:47Z</time>
      </trkpt>
      <trkpt lat="48.34383" lon="2.77555">
        <ele>35.84</ele>
        <time>2017-04-09T12:01:06Z</time>
      </trkpt>
      <trkpt lat="48.34391" lon="2.77561">
        <ele>35.4</ele>
        <time>2017-04-09T12:01:26Z</time>
      </trkpt>
      <trkpt lat="48.34398" lon="2.77561">
        <ele>35.67</ele>
        <time>2017-04-09T12:01:44Z</time>
      </trkpt>
      <trkpt lat="48.34402" lon="2.77555">
        <ele>35.78</ele>
        <time>2017-04-09T12:02:06Z</time>
      </trkpt>
      <trkpt lat="48.34406" lon="2.77543">
        <ele>36.2</ele>
        <time>2017-04-09T12:02:23Z</time>
      </trkpt>
      <trkpt lat="48.3441" lon="2.77549">
        <ele>36.03</ele>
        <time>2017-04-09T12:02:46Z</time>
      </trkpt>
      <trkpt lat="48.34418" lon="2.77543">
        <ele>36.65</ele>
        <time>2017-04-09T12:03:07Z</time>
      </trkpt>
      <trkpt lat="48.34422" lon="2.77537">
        <ele>36.49</ele>
        <time>2017-04-09T12:03:26Z</time>
      </trkpt>
      <trkpt lat="48.34424" lon="2.77521">
        <ele>37.11</ele>
        <time>2017-04-09T12:03:42Z</time>
      </trkpt>
      <trkpt lat="48.34423" lon="2.77518">
        <ele>37.08</ele>
        <time>2017-04-09T12:03:44Z</time>
      </trkpt>
      <trkpt lat="48.34418" lon="2.77499">
        <ele>36.73</ele>
        <time>2017-04-09T12:04:00Z</time>
      </trkpt>
      <trkpt lat="48.34415" lon="2.77494">
        <ele>37.19</ele>
        <time>2017-04-09T12:04:03Z</time>
      </trkpt>
      <trkpt lat="48.34407" lon="2.77475">
        <ele>37.12</ele>
        <time>2017-04-09T12:04:17Z</time>
      </trkpt>
      <trkpt lat="48.34397" lon="2.77458">
        <ele>37.28</ele>
        <time>2017-04-09T12:04:32Z</time>
      </trkpt>
      <trkpt lat="48.34386" lon="2.77444">
        <ele>37.6</ele>
        <time>2017-04-09T12:04:46Z</time>
      </trkpt>
      <trkpt lat="48.34378" lon="2.77425">
        <ele>38.09</ele>
        <time>2017-04-09T12:05:00Z</time>
      </trkpt>
      <trkpt lat="48.34371" lon="2.77416">
        <ele>38.27</ele>
        <time>2017-04-09T12:05:10Z</time>
      </trkpt>
      <trkpt lat="48.3436" lon="2.77402">
        <ele>37.73</ele>
        <time>2017-04-09T12:05:25Z</time>
      </trkpt>
      <trkpt lat="48.34346" lon="2.77385">
        <ele>38.71</ele>
        <time>2017-04-09T12:05:44Z</time>
      </trkpt>
      <trkpt lat="48.34338" lon="2.77376">
        <ele>39.14</ele>
        <time>2017-04-09T12:06:00Z</time>
      </trkpt>
      <trkpt lat="48.34337" lon="2.77361">
        <ele>38.84</ele>
        <time>2017-04-09T12:06:28Z</time>
      </trkpt>
      <trkpt lat="48.34341" lon="2.77343">
        <ele>38.97</ele>
        <time>2017-04-09T12:06:42Z</time>
      </trkpt>
      <trkpt lat="48.34342" lon="2.77334">
        <ele>39.93</ele>
        <time>2017-04-09T12:07:01Z</time>
      </trkpt>
      <trkpt lat="48.34342" lon="2.77331">
        <ele>39.46</ele>
        <time>2017-04-09T12:07:36Z</time>
      </trkpt>
      <trkpt lat="48.34341" lon="2.77322">
        <ele>39.48</ele>
        <time>2017-04-09T12:08:00Z</time>
      </trkpt>
      <trkpt lat="48.34342" lon="2.77316">
        <ele>39.29</ele>
        <time>2017-04-09T12:08:04Z</time>
      </trkpt>
      <trkpt lat="48.34345" lon="2.7731">
        <ele>39.79</ele>
        <time>2017-04-09T12:08:10Z</time>
      </trkpt>
      <trkpt lat="48.34349" lon="2.77307">
        <ele>40.12</ele>
        <time>2017-04-09T12:08:13Z</time>
      </trkpt>
      <trkpt lat="48.34361" lon="2.77299">
        <ele>40.61</ele>
        <time>2017-04-09T12:08:27Z</time>
      </trkpt>
      <trkpt lat="48.34363" lon="2.77297">
        <ele>40.72</ele>
        <time>2017-04-09T12:08:30Z</time>
      </trkpt>
      <trkpt lat="48.34377" lon="2.77285">
        <ele>41.85</ele>
        <time>2017-04-09T12:08:45Z</time>
      </trkpt>
      <trkpt lat="48.34392" lon="2.7727">
        <ele>42.7</ele>
        <time>2017-04-09T12:09:01Z</time>
      </trkpt>
      <trkpt lat="48.34406" lon="2.77259">
        <ele>43.43</ele>
        <time>2017-04-09T12:09:15Z</time>
      </trkpt>
      <trkpt lat="48.34416" lon="2.77247">
        <ele>44.26</ele>
        <time>2017-04-09T12:09:27Z</time>
      </trkpt>
      <trkpt lat="48.34429" lon="2.77236">
        <ele>44.63</ele>
        <time>2017-04-09T12:09:41Z</time>
      </trkpt>
      <trkpt lat="48.34435" lon="2.7723">
        <ele>44.85</ele>
        <time>2017-04-09T12:09:48Z</time>
      </trkpt>
      <trkpt lat="48.34446" lon="2.77221">
        <ele>45.35</ele>
        <time>2017-04-09T12:10:00Z</time>
      </trkpt>
      <trkpt lat="48.34456" lon="2.7721">
        <ele>46.21</ele>
        <time>2017-04-09T12:10:12Z</time>
      </trkpt>
      <trkpt lat="48.3447" lon="2.77199">
        <ele>46.72</ele>
        <time>2017-04-09T12:10:25Z</time>
      </trkpt>
      <trkpt lat="48.34481" lon="2.77188">
        <ele>47.72</ele>
        <time>2017-04-09T12:10:37Z</time>
      </trkpt>
      <trkpt lat="48.34482" lon="2.77184">
        <ele>47.8</ele>
        <time>2017-04-09T12:10:40Z</time>
      </trkpt>
      <trkpt lat="48.34486" lon="2.77178">
        <ele>48.39</ele>
        <time>2017-04-09T12:10:45Z</time>
      </trkpt>
      <trkpt lat="48.34489" lon="2.77177">
        <ele>48.56</ele>
        <time>2017-04-09T12:10:47Z</time>
      </trkpt>
      <trkpt lat="48.34499" lon="2.7717">
        <ele>49.57</ele>
        <time>2017-04-09T12:10:58Z</time>
      </trkpt>
      <trkpt lat="48.34502" lon="2.77167">
        <ele>49.79</ele>
        <time>2017-04-09T12:11:02Z</time>
      </trkpt>
      <trkpt lat="48.34505" lon="2.77165">
        <ele>49.55</ele>
        <time>2017-04-09T12:11:04Z</time>
      </trkpt>
      <trkpt lat="48.34516" lon="2.77151">
        <ele>51.57</ele>
        <time>2017-04-09T12:11:19Z</time>
      </trkpt>
      <trkpt lat="48.34531" lon="2.77137">
        <ele>52.72</ele>
        <time>2017-04-09T12:11:37Z</time>
      </trkpt>
      <trkpt lat="48.34539" lon="2.77127">
        <ele>53.57</ele>
        <time>2017-04-09T12:11:48Z</time>
      </trkpt>
      <trkpt lat="48.34553" lon="2.77112">
        <ele>54.81</ele>
        <time>2017-04-09T12:12:03Z</time>
      </trkpt>
      <trkpt lat="48.34557" lon="2.77111">
        <ele>54.79</ele>
        <time>2017-04-09T12:12:05Z</time>
      </trkpt>
      <trkpt lat="48.34562" lon="2.77104">
        <ele>55.19</ele>
        <time>2017-04-09T12:12:30Z</time>
      </trkpt>
      <trkpt lat="48.3456" lon="2.77104">
        <ele>55.24</ele>
        <time>2017-04-09T12:12:56Z</time>
      </trkpt>
      <trkpt lat="48.34561" lon="2.77101">
        <ele>55.56</ele>
        <time>2017-04-09T12:13:27Z</time>
      </trkpt>
      <trkpt lat="48.34559" lon="2.77102">
        <ele>55.56</ele>
        <time>2017-04-09T12:13:52Z</time>
      </trkpt>
      <trkpt lat="48.34558" lon="2.77099">
        <ele>55.57</ele>
        <time>2017-04-09T12:14:22Z</time>
      </trkpt>
      <trkpt lat="48.34555" lon="2.77093">
        <ele>55.54</ele>
        <time>2017-04-09T12:14:28Z</time>
      </trkpt>
      <trkpt lat="48.34552" lon="2.77089">
        <ele>55.13</ele>
        <time>2017-04-09T12:14:32Z</time>
      </trkpt>
      <trkpt lat="48.3454" lon="2.77073">
        <ele>56.21</ele>
        <time>2017-04-09T12:14:46Z</time>
      </trkpt>
      <trkpt lat="48.34528" lon="2.77055">
        <ele>56</ele>
        <time>2017-04-09T12:15:01Z</time>
      </trkpt>
      <trkpt lat="48.34524" lon="2.77048">
        <ele>55.56</ele>
        <time>2017-04-09T12:15:07Z</time>
      </trkpt>
      <trkpt lat="48.34515" lon="2.77031">
        <ele>55.82</ele>
        <time>2017-04-09T12:15:20Z</time>
      </trkpt>
      <trkpt lat="48.34504" lon="2.77014">
        <ele>56.13</ele>
        <time>2017-04-09T12:15:35Z</time>
      </trkpt>
      <trkpt lat="48.34497" lon="2.77001">
        <ele>56.24</ele>
        <time>2017-04-09T12:15:44Z</time>
      </trkpt>
      <trkpt lat="48.34482" lon="2.76981">
        <ele>55.94</ele>
        <time>2017-04-09T12:15:59Z</time>
      </trkpt>
      <trkpt lat="48.34469" lon="2.76959">
        <ele>56.1</ele>
        <time>2017-04-09T12:16:13Z</time>
      </trkpt>
      <trkpt lat="48.3446" lon="2.76942">
        <ele>56.22</ele>
        <time>2017-04-09T12:16:25Z</time>
      </trkpt>
      <trkpt lat="48.3445" lon="2.76924">
        <ele>56.12</ele>
        <time>2017-04-09T12:16:37Z</time>
      </trkpt>
      <trkpt lat="48.34437" lon="2.76901">
        <ele>55.76</ele>
        <time>2017-04-09T12:16:52Z</time>
      </trkpt>
      <trkpt lat="48.34422" lon="2.76879">
        <ele>56.23</ele>
        <time>2017-04-09T12:17:08Z</time>
      </trkpt>
      <trkpt lat="48.34406" lon="2.76857">
        <ele>55.68</ele>
        <time>2017-04-09T12:17:25Z</time>
      </trkpt>
      <trkpt lat="48.34392" lon="2.76835">
        <ele>56.07</ele>
        <time>2017-04-09T12:17:40Z</time>
      </trkpt>
      <trkpt lat="48.34381" lon="2.76819">
        <ele>56.13</ele>
        <time>2017-04-09T12:17:52Z</time>
      </trkpt>
      <trkpt lat="48.3437" lon="2.76804">
        <ele>55.94</ele>
        <time>2017-04-09T12:18:03Z</time>
      </trkpt>
      <trkpt lat="48.34365" lon="2.76797">
        <ele>56.65</ele>
        <time>2017-04-09T12:18:09Z</time>
      </trkpt>
      <trkpt lat="48.34362" lon="2.76792">
        <ele>56.34</ele>
        <time>2017-04-09T12:18:13Z</time>
      </trkpt>
      <trkpt lat="48.34358" lon="2.76787">
        <ele>56.37</ele>
        <time>2017-04-09T12:18:17Z</time>
      </trkpt>
      <trkpt lat="48.34341" lon="2.76767">
        <ele>56.77</ele>
        <time>2017-04-09T12:18:32Z</time>
      </trkpt>
      <trkpt lat="48.34326" lon="2.76746">
        <ele>56.68</ele>
        <time>2017-04-09T12:18:48Z</time>
      </trkpt>
      <trkpt lat="48.34311" lon="2.76724">
        <ele>57.82</ele>
        <time>2017-04-09T12:19:04Z</time>
      </trkpt>
      <trkpt lat="48.34295" lon="2.76704">
        <ele>57.41</ele>
        <time>2017-04-09T12:19:20Z</time>
      </trkpt>
      <trkpt lat="48.34293" lon="2.767">
        <ele>58.77</ele>
        <time>2017-04-09T12:19:23Z</time>
      </trkpt>
      <trkpt lat="48.34289" lon="2.76695">
        <ele>58.14</ele>
        <time>2017-04-09T12:19:27Z</time>
      </trkpt>
      <trkpt lat="48.34274" lon="2.76678">
        <ele>59.14</ele>
        <time>2017-04-09T12:19:42Z</time>
      </trkpt>
      <trkpt lat="48.34268" lon="2.76669">
        <ele>59.24</ele>
        <time>2017-04-09T12:19:49Z</time>
      </trkpt>
      <trkpt lat="48.34264" lon="2.76664">
        <ele>58.56</ele>
        <time>2017-04-09T12:19:54Z</time>
      </trkpt>
      <trkpt lat="48.34261" lon="2.76663">
        <ele>58.61</ele>
        <time>2017-04-09T12:19:56Z</time>
      </trkpt>
      <trkpt lat="48.34245" lon="2.76641">
        <ele>59.12</ele>
        <time>2017-04-09T12:20:11Z</time>
      </trkpt>
      <trkpt lat="48.34232" lon="2.76625">
        <ele>58.66</ele>
        <time>2017-04-09T12:20:27Z</time>
      </trkpt>
      <trkpt lat="48.34219" lon="2.76608">
        <ele>58.62</ele>
        <time>2017-04-09T12:20:41Z</time>
      </trkpt>
      <trkpt lat="48.34203" lon="2.7659">
        <ele>59.22</ele>
        <time>2017-04-09T12:20:56Z</time>
      </trkpt>
      <trkpt lat="48.34199" lon="2.76585">
        <ele>59.03</ele>
        <time>2017-04-09T12:21:00Z</time>
      </trkpt>
      <trkpt lat="48.34185" lon="2.76567">
        <ele>58.24</ele>
        <time>2017-04-09T12:21:14Z</time>
      </trkpt>
      <trkpt lat="48.34174" lon="2.76551">
        <ele>58.17</ele>
        <time>2017-04-09T12:21:26Z</time>
      </trkpt>
      <trkpt lat="48.34172" lon="2.76549">
        <ele>58.19</ele>
        <time>2017-04-09T12:21:28Z</time>
      </trkpt>
      <trkpt lat="48.34159" lon="2.76533">
        <ele>57.88</ele>
        <time>2017-04-09T12:21:45Z</time>
      </trkpt>
      <trkpt lat="48.34145" lon="2.76518">
        <ele>57.5</ele>
        <time>2017-04-09T12:21:59Z</time>
      </trkpt>
      <trkpt lat="48.34133" lon="2.765">
        <ele>57.27</ele>
        <time>2017-04-09T12:22:13Z</time>
      </trkpt>
      <trkpt lat="48.34115" lon="2.76475">
        <ele>57.32</ele>
        <time>2017-04-09T12:22:34Z</time>
      </trkpt>
      <trkpt lat="48.34111" lon="2.76469">
        <ele>55.3</ele>
        <time>2017-04-09T12:22:40Z</time>
      </trkpt>
      <trkpt lat="48.34103" lon="2.76457">
        <ele>53.93</ele>
        <time>2017-04-09T12:22:54Z</time>
      </trkpt>
      <trkpt lat="48.34103" lon="2.76445">
        <ele>54.12</ele>
        <time>2017-04-09T12:23:13Z</time>
      </trkpt>
      <trkpt lat="48.34104" lon="2.76445">
        <ele>54.26</ele>
        <time>2017-04-09T12:23:46Z</time>
      </trkpt>
      <trkpt lat="48.34101" lon="2.76449">
        <ele>54.18</ele>
        <time>2017-04-09T12:24:12Z</time>
      </trkpt>
      <trkpt lat="48.34107" lon="2.76443">
        <ele>54.47</ele>
        <time>2017-04-09T12:24:23Z</time>
      </trkpt>
      <trkpt lat="48.34115" lon="2.76432">
        <ele>56.18</ele>
        <time>2017-04-09T12:24:39Z</time>
      </trkpt>
      <trkpt lat="48.3412" lon="2.76427">
        <ele>56.93</ele>
        <time>2017-04-09T12:24:45Z</time>
      </trkpt>
      <trkpt lat="48.34124" lon="2.76424">
        <ele>57.11</ele>
        <time>2017-04-09T12:24:50Z</time>
      </trkpt>
      <trkpt lat="48.34132" lon="2.76412">
        <ele>58.42</ele>
        <time>2017-04-09T12:25:04Z</time>
      </trkpt>
      <trkpt lat="48.34141" lon="2.76398">
        <ele>59.87</ele>
        <time>2017-04-09T12:25:18Z</time>
      </trkpt>
      <trkpt lat="48.34146" lon="2.7639">
        <ele>61.31</ele>
        <time>2017-04-09T12:25:27Z</time>
      </trkpt>
      <trkpt lat="48.34158" lon="2.76375">
        <ele>63.17</ele>
        <time>2017-04-09T12:25:42Z</time>
      </trkpt>
      <trkpt lat="48.34166" lon="2.76364">
        <ele>63.85</ele>
        <time>2017-04-09T12:25:55Z</time>
      </trkpt>
      <trkpt lat="48.34179" lon="2.76347">
        <ele>65.5</ele>
        <time>2017-04-09T12:26:12Z</time>
      </trkpt>
      <trkpt lat="48.34193" lon="2.7633">
        <ele>67.04</ele>
        <time>2017-04-09T12:26:30Z</time>
      </trkpt>
      <trkpt lat="48.34204" lon="2.76317">
        <ele>68.15</ele>
        <time>2017-04-09T12:26:43Z</time>
      </trkpt>
      <trkpt lat="48.34216" lon="2.76301">
        <ele>69.24</ele>
        <time>2017-04-09T12:27:01Z</time>
      </trkpt>
      <trkpt lat="48.34221" lon="2.76297">
        <ele>70.61</ele>
        <time>2017-04-09T12:27:05Z</time>
      </trkpt>
      <trkpt lat="48.34228" lon="2.76281">
        <ele>71.12</ele>
        <time>2017-04-09T12:27:22Z</time>
      </trkpt>
      <trkpt lat="48.3424" lon="2.76271">
        <ele>72.8</ele>
        <time>2017-04-09T12:27:39Z</time>
      </trkpt>
      <trkpt lat="48.34249" lon="2.76259">
        <ele>74.04</ele>
        <time>2017-04-09T12:27:54Z</time>
      </trkpt>
      <trkpt lat="48.34262" lon="2.76244">
        <ele>74.96</ele>
        <time>2017-04-09T12:28:10Z</time>
      </trkpt>
      <trkpt lat="48.34275" lon="2.76224">
        <ele>75.91</ele>
        <time>2017-04-09T12:28:29Z</time>
      </trkpt>
      <trkpt lat="48.34289" lon="2.76204">
        <ele>76.73</ele>
        <time>2017-04-09T12:28:46Z</time>
      </trkpt>
      <trkpt lat="48.34303" lon="2.76184">
        <ele>77</ele>
        <time>2017-04-09T12:29:04Z</time>
      </trkpt>
      <trkpt lat="48.34319" lon="2.76163">
        <ele>77.74</ele>
        <time>2017-04-09T12:29:19Z</time>
      </trkpt>
      <trkpt lat="48.34331" lon="2.7614">
        <ele>78.54</ele>
        <time>2017-04-09T12:29:35Z</time>
      </trkpt>
      <trkpt lat="48.34345" lon="2.76114">
        <ele>78.53</ele>
        <time>2017-04-09T12:29:52Z</time>
      </trkpt>
      <trkpt lat="48.34355" lon="2.76098">
        <ele>78.95</ele>
        <time>2017-04-09T12:30:06Z</time>
      </trkpt>
      <trkpt lat="48.3437" lon="2.76085">
        <ele>79.79</ele>
        <time>2017-04-09T12:30:21Z</time>
      </trkpt>
      <trkpt lat="48.34373" lon="2.76082">
        <ele>79.8</ele>
        <time>2017-04-09T12:30:24Z</time>
      </trkpt>
      <trkpt lat="48.34384" lon="2.76063">
        <ele>80.29</ele>
        <time>2017-04-09T12:30:45Z</time>
      </trkpt>
      <trkpt lat="48.34384" lon="2.76061">
        <ele>79.74</ele>
        <time>2017-04-09T12:30:46Z</time>
      </trkpt>
      <trkpt lat="48.34391" lon="2.76048">
        <ele>80.26</ele>
        <time>2017-04-09T12:31:05Z</time>
      </trkpt>
      <trkpt lat="48.34398" lon="2.76037">
        <ele>80.42</ele>
        <time>2017-04-09T12:31:19Z</time>
      </trkpt>
      <trkpt lat="48.34408" lon="2.76021">
        <ele>81.85</ele>
        <time>2017-04-09T12:31:36Z</time>
      </trkpt>
      <trkpt lat="48.34411" lon="2.76015">
        <ele>82.22</ele>
        <time>2017-04-09T12:31:41Z</time>
      </trkpt>
      <trkpt lat="48.34426" lon="2.75996">
        <ele>83.04</ele>
        <time>2017-04-09T12:31:56Z</time>
      </trkpt>
      <trkpt lat="48.34435" lon="2.75978">
        <ele>84.06</ele>
        <time>2017-04-09T12:32:15Z</time>
      </trkpt>
      <trkpt lat="48.34447" lon="2.7596">
        <ele>84.9</ele>
        <time>2017-04-09T12:32:31Z</time>
      </trkpt>
      <trkpt lat="48.34458" lon="2.75945">
        <ele>85.16</ele>
        <time>2017-04-09T12:32:48Z</time>
      </trkpt>
      <trkpt lat="48.34469" lon="2.75929">
        <ele>85.93</ele>
        <time>2017-04-09T12:33:03Z</time>
      </trkpt>
      <trkpt lat="48.3447" lon="2.75928">
        <ele>85.93</ele>
        <time>2017-04-09T12:33:04Z</time>
      </trkpt>
      <trkpt lat="48.34485" lon="2.75907">
        <ele>86.97</ele>
        <time>2017-04-09T12:33:23Z</time>
      </trkpt>
      <trkpt lat="48.34489" lon="2.75902">
        <ele>87.11</ele>
        <time>2017-04-09T12:33:33Z</time>
      </trkpt>
      <trkpt lat="48.34498" lon="2.75885">
        <ele>87.61</ele>
        <time>2017-04-09T12:33:49Z</time>
      </trkpt>
      <trkpt lat="48.34508" lon="2.75865">
        <ele>89.07</ele>
        <time>2017-04-09T12:34:05Z</time>
      </trkpt>
      <trkpt lat="48.34511" lon="2.75862">
        <ele>87.99</ele>
        <time>2017-04-09T12:34:07Z</time>
      </trkpt>
      <trkpt lat="48.34525" lon="2.7584">
        <ele>90.15</ele>
        <time>2017-04-09T12:34:27Z</time>
      </trkpt>
      <trkpt lat="48.34528" lon="2.75836">
        <ele>90.87</ele>
        <time>2017-04-09T12:34:31Z</time>
      </trkpt>
      <trkpt lat="48.3454" lon="2.75821">
        <ele>91.88</ele>
        <time>2017-04-09T12:34:45Z</time>
      </trkpt>
      <trkpt lat="48.34546" lon="2.75808">
        <ele>92.32</ele>
        <time>2017-04-09T12:35:01Z</time>
      </trkpt>
      <trkpt lat="48.34557" lon="2.75795">
        <ele>93.59</ele>
        <time>2017-04-09T12:35:17Z</time>
      </trkpt>
      <trkpt lat="48.3456" lon="2.75791">
        <ele>94.04</ele>
        <time>2017-04-09T12:35:21Z</time>
      </trkpt>
      <trkpt lat="48.3457" lon="2.75773">
        <ele>95.88</ele>
        <time>2017-04-09T12:35:38Z</time>
      </trkpt>
      <trkpt lat="48.34578" lon="2.7576">
        <ele>97.71</ele>
        <time>2017-04-09T12:35:51Z</time>
      </trkpt>
      <trkpt lat="48.34587" lon="2.75745">
        <ele>99.9</ele>
        <time>2017-04-09T12:36:08Z</time>
      </trkpt>
      <trkpt lat="48.34597" lon="2.75725">
        <ele>103.22</ele>
        <time>2017-04-09T12:36:28Z</time>
      </trkpt>
      <trkpt lat="48.34603" lon="2.75719">
        <ele>104.51</ele>
        <time>2017-04-09T12:36:36Z</time>
      </trkpt>
      <trkpt lat="48.34613" lon="2.75706">
        <ele>106.84</ele>
        <time>2017-04-09T12:36:56Z</time>
      </trkpt>
      <trkpt lat="48.34625" lon="2.75692">
        <ele>109.9</ele>
        <time>2017-04-09T12:37:16Z</time>
      </trkpt>
      <trkpt lat="48.34638" lon="2.75671">
        <ele>112.27</ele>
        <time>2017-04-09T12:37:38Z</time>
      </trkpt>
      <trkpt lat="48.34643" lon="2.75663">
        <ele>112.91</ele>
        <time>2017-04-09T12:37:45Z</time>
      </trkpt>
      <trkpt lat="48.34652" lon="2.75648">
        <ele>113.02</ele>
        <time>2017-04-09T12:38:05Z</time>
      </trkpt>
      <trkpt lat="48.34657" lon="2.75639">
        <ele>112.99</ele>
        <time>2017-04-09T12:38:25Z</time>
      </trkpt>
      <trkpt lat="48.34656" lon="2.75638">
        <ele>113.21</ele>
        <time>2017-04-09T12:38:52Z</time>
      </trkpt>
      <trkpt lat="48.3466" lon="2.75636">
        <ele>112.87</ele>
        <time>2017-04-09T12:39:22Z</time>
      </trkpt>
      <trkpt lat="48.34662" lon="2.75634">
        <ele>112.93</ele>
        <time>2017-04-09T12:39:26Z</time>
      </trkpt>
      <trkpt lat="48.34665" lon="2.75634">
        <ele>113.43</ele>
        <time>2017-04-09T12:39:43Z</time>
      </trkpt>
      <trkpt lat="48.34671" lon="2.75641">
        <ele>112.9</ele>
        <time>2017-04-09T12:39:57Z</time>
      </trkpt>
      <trkpt lat="48.34681" lon="2.75662">
        <ele>112.75</ele>
        <time>2017-04-09T12:40:13Z</time>
      </trkpt>
      <trkpt lat="48.34681" lon="2.75663">
        <ele>112.28</ele>
        <time>2017-04-09T12:40:14Z</time>
      </trkpt>
      <trkpt lat="48.34682" lon="2.7569">
        <ele>112.1</ele>
        <time>2017-04-09T12:40:31Z</time>
      </trkpt>
      <trkpt lat="48.34682" lon="2.75713">
        <ele>112.45</ele>
        <time>2017-04-09T12:40:48Z</time>
      </trkpt>
      <trkpt lat="48.34682" lon="2.75715">
        <ele>112.33</ele>
        <time>2017-04-09T12:40:49Z</time>
      </trkpt>
      <trkpt lat="48.34679" lon="2.75736">
        <ele>112.23</ele>
        <time>2017-04-09T12:41:06Z</time>
      </trkpt>
      <trkpt lat="48.34684" lon="2.75763">
        <ele>112.19</ele>
        <time>2017-04-09T12:41:23Z</time>
      </trkpt>
      <trkpt lat="48.34682" lon="2.75779">
        <ele>111.61</ele>
        <time>2017-04-09T12:41:39Z</time>
      </trkpt>
      <trkpt lat="48.34681" lon="2.75797">
        <ele>110.59</ele>
        <time>2017-04-09T12:41:58Z</time>
      </trkpt>
      <trkpt lat="48.34682" lon="2.75806">
        <ele>110.62</ele>
        <time>2017-04-09T12:42:03Z</time>
      </trkpt>
      <trkpt lat="48.34686" lon="2.75828">
        <ele>110.06</ele>
        <time>2017-04-09T12:42:13Z</time>
      </trkpt>
      <trkpt lat="48.34688" lon="2.75846">
        <ele>109.35</ele>
        <time>2017-04-09T12:42:27Z</time>
      </trkpt>
      <trkpt lat="48.34691" lon="2.7587">
        <ele>109.01</ele>
        <time>2017-04-09T12:42:49Z</time>
      </trkpt>
      <trkpt lat="48.34691" lon="2.75871">
        <ele>109.2</ele>
        <time>2017-04-09T12:42:55Z</time>
      </trkpt>
      <trkpt lat="48.34689" lon="2.75876">
        <ele>109.54</ele>
        <time>2017-04-09T12:43:00Z</time>
      </trkpt>
      <trkpt lat="48.34683" lon="2.75897">
        <ele>108.5</ele>
        <time>2017-04-09T12:43:15Z</time>
      </trkpt>
      <trkpt lat="48.34677" lon="2.75915">
        <ele>108.15</ele>
        <time>2017-04-09T12:43:37Z</time>
      </trkpt>
      <trkpt lat="48.34673" lon="2.75936">
        <ele>109</ele>
        <time>2017-04-09T12:43:52Z</time>
      </trkpt>
      <trkpt lat="48.34671" lon="2.75952">
        <ele>109.26</ele>
        <time>2017-04-09T12:44:05Z</time>
      </trkpt>
      <trkpt lat="48.34661" lon="2.75972">
        <ele>108.97</ele>
        <time>2017-04-09T12:44:22Z</time>
      </trkpt>
      <trkpt lat="48.34658" lon="2.75981">
        <ele>108.33</ele>
        <time>2017-04-09T12:44:40Z</time>
      </trkpt>
      <trkpt lat="48.34654" lon="2.75985">
        <ele>108.39</ele>
        <time>2017-04-09T12:45:04Z</time>
      </trkpt>
      <trkpt lat="48.34649" lon="2.75993">
        <ele>107.77</ele>
        <time>2017-04-09T12:45:27Z</time>
      </trkpt>
      <trkpt lat="48.34648" lon="2.76002">
        <ele>107.83</ele>
        <time>2017-04-09T12:45:47Z</time>
      </trkpt>
      <trkpt lat="48.34645" lon="2.76008">
        <ele>107.74</ele>
        <time>2017-04-09T12:46:13Z</time>
      </trkpt>
      <trkpt lat="48.34644" lon="2.76014">
        <ele>107.84</ele>
        <time>2017-04-09T12:46:40Z</time>
      </trkpt>
      <trkpt lat="48.3464" lon="2.76021">
        <ele>107.72</ele>
        <time>2017-04-09T12:46:59Z</time>
      </trkpt>
      <trkpt lat="48.34638" lon="2.76017">
        <ele>107.75</ele>
        <time>2017-04-09T12:47:21Z</time>
      </trkpt>
      <trkpt lat="48.34642" lon="2.76013">
        <ele>108.12</ele>
        <time>2017-04-09T12:47:45Z</time>
      </trkpt>
      <trkpt lat="48.34642" lon="2.76014">
        <ele>107.92</ele>
        <time>2017-04-09T12:48:13Z</time>
      </trkpt>
      <trkpt lat="48.34642" lon="2.76012">
        <ele>107.99</ele>
        <time>2017-04-09T12:48:41Z</time>
      </trkpt>
      <trkpt lat="48.34641" lon="2.76012">
        <ele>108.11</ele>
        <time>2017-04-09T12:49:06Z</time>
      </trkpt>
      <trkpt lat="48.3464" lon="2.76009">
        <ele>108.15</ele>
        <time>2017-04-09T12:49:26Z</time>
      </trkpt>
      <trkpt lat="48.34639" lon="2.76011">
        <ele>108.79</ele>
        <time>2017-04-09T12:49:55Z</time>
      </trkpt>
      <trkpt lat="48.3464" lon="2.76009">
        <ele>109.13</ele>
        <time>2017-04-09T12:50:19Z</time>
      </trkpt>
      <trkpt lat="48.34639" lon="2.76008">
        <ele>108.69</ele>
        <time>2017-04-09T12:50:47Z</time>
      </trkpt>
      <trkpt lat="48.3464" lon="2.7601">
        <ele>109.73</ele>
        <time>2017-04-09T12:51:12Z</time>
      </trkpt>
      <trkpt lat="48.34641" lon="2.76012">
        <ele>109.37</ele>
        <time>2017-04-09T12:51:38Z</time>
      </trkpt>
      <trkpt lat="48.3464" lon="2.76012">
        <ele>109.06</ele>
        <time>2017-04-09T12:52:06Z</time>
      </trkpt>
      <trkpt lat="48.34639" lon="2.76011">
        <ele>107.08</ele>
        <time>2017-04-09T12:52:13Z</time>
      </trkpt>
      <trkpt lat="48.3464" lon="2.76012">
        <ele>109.39</ele>
        <time>2017-04-09T12:52:18Z</time>
      </trkpt>
      <trkpt lat="48.34641" lon="2.76012">
        <ele>109.44</ele>
        <time>2017-04-09T12:52:41Z</time>
      </trkpt>
      <trkpt lat="48.34641" lon="2.76011">
        <ele>109.34</ele>
        <time>2017-04-09T12:53:08Z</time>
      </trkpt>
      <trkpt lat="48.34643" lon="2.76009">
        <ele>109.83</ele>
        <time>2017-04-09T12:53:39Z</time>
      </trkpt>
      <trkpt lat="48.34646" lon="2.75994">
        <ele>110.01</ele>
        <time>2017-04-09T12:54:02Z</time>
      </trkpt>
      <trkpt lat="48.34653" lon="2.75969">
        <ele>109.55</ele>
        <time>2017-04-09T12:54:20Z</time>
      </trkpt>
      <trkpt lat="48.34659" lon="2.75946">
        <ele>108.38</ele>
        <time>2017-04-09T12:54:36Z</time>
      </trkpt>
      <trkpt lat="48.34662" lon="2.75926">
        <ele>108.81</ele>
        <time>2017-04-09T12:54:51Z</time>
      </trkpt>
      <trkpt lat="48.3467" lon="2.759">
        <ele>109.33</ele>
        <time>2017-04-09T12:55:11Z</time>
      </trkpt>
      <trkpt lat="48.34671" lon="2.75879">
        <ele>109.28</ele>
        <time>2017-04-09T12:55:30Z</time>
      </trkpt>
      <trkpt lat="48.34669" lon="2.75845">
        <ele>109.86</ele>
        <time>2017-04-09T12:55:48Z</time>
      </trkpt>
      <trkpt lat="48.34674" lon="2.75816">
        <ele>110.25</ele>
        <time>2017-04-09T12:56:06Z</time>
      </trkpt>
      <trkpt lat="48.34675" lon="2.75811">
        <ele>110.04</ele>
        <time>2017-04-09T12:56:09Z</time>
      </trkpt>
      <trkpt lat="48.34678" lon="2.75784">
        <ele>109.87</ele>
        <time>2017-04-09T12:56:28Z</time>
      </trkpt>
      <trkpt lat="48.34682" lon="2.75749">
        <ele>109.43</ele>
        <time>2017-04-09T12:56:46Z</time>
      </trkpt>
      <trkpt lat="48.34684" lon="2.75718">
        <ele>109.75</ele>
        <time>2017-04-09T12:57:07Z</time>
      </trkpt>
      <trkpt lat="48.34686" lon="2.7569">
        <ele>109.63</ele>
        <time>2017-04-09T12:57:26Z</time>
      </trkpt>
      <trkpt lat="48.34685" lon="2.75676">
        <ele>109.94</ele>
        <time>2017-04-09T12:57:36Z</time>
      </trkpt>
      <trkpt lat="48.34686" lon="2.75662">
        <ele>109.34</ele>
        <time>2017-04-09T12:58:02Z</time>
      </trkpt>
      <trkpt lat="48.34686" lon="2.75661">
        <ele>109.57</ele>
        <time>2017-04-09T12:58:05Z</time>
      </trkpt>
      <trkpt lat="48.34677" lon="2.75659">
        <ele>109.37</ele>
        <time>2017-04-09T12:58:34Z</time>
      </trkpt>
      <trkpt lat="48.34675" lon="2.75649">
        <ele>109.37</ele>
        <time>2017-04-09T12:59:05Z</time>
      </trkpt>
      <trkpt lat="48.34672" lon="2.75644">
        <ele>109.71</ele>
        <time>2017-04-09T12:59:19Z</time>
      </trkpt>
      <trkpt lat="48.34663" lon="2.75639">
        <ele>109.23</ele>
        <time>2017-04-09T12:59:44Z</time>
      </trkpt>
      <trkpt lat="48.34662" lon="2.75633">
        <ele>109.85</ele>
        <time>2017-04-09T13:00:12Z</time>
      </trkpt>
      <trkpt lat="48.34663" lon="2.7563">
        <ele>109.84</ele>
        <time>2017-04-09T13:00:34Z</time>
      </trkpt>
      <trkpt lat="48.34661" lon="2.7563">
        <ele>109.7</ele>
        <time>2017-04-09T13:01:02Z</time>
      </trkpt>
      <trkpt lat="48.34649" lon="2.75646">
        <ele>109.46</ele>
        <time>2017-04-09T13:01:21Z</time>
      </trkpt>
      <trkpt lat="48.34639" lon="2.75663">
        <ele>108.57</ele>
        <time>2017-04-09T13:01:38Z</time>
      </trkpt>
      <trkpt lat="48.34631" lon="2.75677">
        <ele>107.84</ele>
        <time>2017-04-09T13:01:56Z</time>
      </trkpt>
      <trkpt lat="48.34622" lon="2.75691">
        <ele>104.36</ele>
        <time>2017-04-09T13:02:18Z</time>
      </trkpt>
      <trkpt lat="48.34616" lon="2.75701">
        <ele>101.83</ele>
        <time>2017-04-09T13:02:34Z</time>
      </trkpt>
      <trkpt lat="48.34608" lon="2.75713">
        <ele>100.39</ele>
        <time>2017-04-09T13:02:51Z</time>
      </trkpt>
      <trkpt lat="48.34597" lon="2.75731">
        <ele>97.96</ele>
        <time>2017-04-09T13:03:11Z</time>
      </trkpt>
      <trkpt lat="48.34588" lon="2.75746">
        <ele>94.76</ele>
        <time>2017-04-09T13:03:25Z</time>
      </trkpt>
      <trkpt lat="48.3458" lon="2.75761">
        <ele>93.72</ele>
        <time>2017-04-09T13:03:41Z</time>
      </trkpt>
      <trkpt lat="48.34566" lon="2.75782">
        <ele>92.13</ele>
        <time>2017-04-09T13:04:00Z</time>
      </trkpt>
      <trkpt lat="48.34554" lon="2.75801">
        <ele>90.65</ele>
        <time>2017-04-09T13:04:17Z</time>
      </trkpt>
      <trkpt lat="48.34542" lon="2.7582">
        <ele>89.09</ele>
        <time>2017-04-09T13:04:35Z</time>
      </trkpt>
      <trkpt lat="48.3454" lon="2.75822">
        <ele>88.62</ele>
        <time>2017-04-09T13:04:37Z</time>
      </trkpt>
      <trkpt lat="48.34529" lon="2.75838">
        <ele>87.86</ele>
        <time>2017-04-09T13:04:52Z</time>
      </trkpt>
      <trkpt lat="48.34516" lon="2.75859">
        <ele>86.15</ele>
        <time>2017-04-09T13:05:12Z</time>
      </trkpt>
      <trkpt lat="48.34506" lon="2.75876">
        <ele>85.6</ele>
        <time>2017-04-09T13:05:24Z</time>
      </trkpt>
      <trkpt lat="48.34493" lon="2.75896">
        <ele>84.25</ele>
        <time>2017-04-09T13:05:39Z</time>
      </trkpt>
      <trkpt lat="48.34485" lon="2.75908">
        <ele>83.64</ele>
        <time>2017-04-09T13:05:48Z</time>
      </trkpt>
      <trkpt lat="48.34483" lon="2.75911">
        <ele>83.72</ele>
        <time>2017-04-09T13:05:50Z</time>
      </trkpt>
      <trkpt lat="48.34475" lon="2.75929">
        <ele>82.21</ele>
        <time>2017-04-09T13:06:04Z</time>
      </trkpt>
      <trkpt lat="48.34461" lon="2.75951">
        <ele>81.47</ele>
        <time>2017-04-09T13:06:23Z</time>
      </trkpt>
      <trkpt lat="48.34445" lon="2.75974">
        <ele>80.45</ele>
        <time>2017-04-09T13:06:44Z</time>
      </trkpt>
      <trkpt lat="48.34439" lon="2.75983">
        <ele>80.17</ele>
        <time>2017-04-09T13:07:00Z</time>
      </trkpt>
      <trkpt lat="48.34429" lon="2.75991">
        <ele>79.74</ele>
        <time>2017-04-09T13:07:16Z</time>
      </trkpt>
      <trkpt lat="48.34415" lon="2.76012">
        <ele>79.02</ele>
        <time>2017-04-09T13:07:34Z</time>
      </trkpt>
      <trkpt lat="48.34402" lon="2.76038">
        <ele>78.04</ele>
        <time>2017-04-09T13:07:55Z</time>
      </trkpt>
      <trkpt lat="48.34384" lon="2.76066">
        <ele>77.05</ele>
        <time>2017-04-09T13:08:16Z</time>
      </trkpt>
      <trkpt lat="48.34382" lon="2.76069">
        <ele>77.12</ele>
        <time>2017-04-09T13:08:18Z</time>
      </trkpt>
      <trkpt lat="48.34379" lon="2.76072">
        <ele>77.15</ele>
        <time>2017-04-09T13:08:20Z</time>
      </trkpt>
      <trkpt lat="48.34377" lon="2.76073">
        <ele>77</ele>
        <time>2017-04-09T13:08:22Z</time>
      </trkpt>
      <trkpt lat="48.34377" lon="2.76072">
        <ele>77.06</ele>
        <time>2017-04-09T13:08:30Z</time>
      </trkpt>
      <trkpt lat="48.34372" lon="2.76077">
        <ele>76.85</ele>
        <time>2017-04-09T13:08:56Z</time>
      </trkpt>
      <trkpt lat="48.34378" lon="2.76094">
        <ele>76.68</ele>
        <time>2017-04-09T13:09:15Z</time>
      </trkpt>
      <trkpt lat="48.34387" lon="2.7611">
        <ele>76.51</ele>
        <time>2017-04-09T13:09:37Z</time>
      </trkpt>
      <trkpt lat="48.34396" lon="2.76136">
        <ele>77.18</ele>
        <time>2017-04-09T13:09:58Z</time>
      </trkpt>
      <trkpt lat="48.344" lon="2.76148">
        <ele>77.2</ele>
        <time>2017-04-09T13:10:06Z</time>
      </trkpt>
      <trkpt lat="48.34406" lon="2.76183">
        <ele>76.66</ele>
        <time>2017-04-09T13:10:24Z</time>
      </trkpt>
      <trkpt lat="48.34406" lon="2.76183">
        <ele>77.01</ele>
        <time>2017-04-09T13:10:27Z</time>
      </trkpt>
      <trkpt lat="48.34412" lon="2.762">
        <ele>77.18</ele>
        <time>2017-04-09T13:10:43Z</time>
      </trkpt>
      <trkpt lat="48.34418" lon="2.76208">
        <ele>77.24</ele>
        <time>2017-04-09T13:10:55Z</time>
      </trkpt>
      <trkpt lat="48.34425" lon="2.76233">
        <ele>76.97</ele>
        <time>2017-04-09T13:11:16Z</time>
      </trkpt>
      <trkpt lat="48.34433" lon="2.7626">
        <ele>76.99</ele>
        <time>2017-04-09T13:11:37Z</time>
      </trkpt>
      <trkpt lat="48.34446" lon="2.76284">
        <ele>76.78</ele>
        <time>2017-04-09T13:12:00Z</time>
      </trkpt>
      <trkpt lat="48.34457" lon="2.76303">
        <ele>77.19</ele>
        <time>2017-04-09T13:12:20Z</time>
      </trkpt>
      <trkpt lat="48.34466" lon="2.7633">
        <ele>76.86</ele>
        <time>2017-04-09T13:12:39Z</time>
      </trkpt>
      <trkpt lat="48.34477" lon="2.7636">
        <ele>76.88</ele>
        <time>2017-04-09T13:12:59Z</time>
      </trkpt>
      <trkpt lat="48.3449" lon="2.76391">
        <ele>76.7</ele>
        <time>2017-04-09T13:13:20Z</time>
      </trkpt>
      <trkpt lat="48.34503" lon="2.76421">
        <ele>76.24</ele>
        <time>2017-04-09T13:13:44Z</time>
      </trkpt>
      <trkpt lat="48.34505" lon="2.76424">
        <ele>75.85</ele>
        <time>2017-04-09T13:13:47Z</time>
      </trkpt>
      <trkpt lat="48.34508" lon="2.76429">
        <ele>75.65</ele>
        <time>2017-04-09T13:13:50Z</time>
      </trkpt>
      <trkpt lat="48.34519" lon="2.76456">
        <ele>76.14</ele>
        <time>2017-04-09T13:14:06Z</time>
      </trkpt>
      <trkpt lat="48.34529" lon="2.76475">
        <ele>76.08</ele>
        <time>2017-04-09T13:14:24Z</time>
      </trkpt>
      <trkpt lat="48.34545" lon="2.76495">
        <ele>75.83</ele>
        <time>2017-04-09T13:14:46Z</time>
      </trkpt>
      <trkpt lat="48.34559" lon="2.76529">
        <ele>74.45</ele>
        <time>2017-04-09T13:15:09Z</time>
      </trkpt>
      <trkpt lat="48.34568" lon="2.7655">
        <ele>74.23</ele>
        <time>2017-04-09T13:15:27Z</time>
      </trkpt>
      <trkpt lat="48.3458" lon="2.76576">
        <ele>72.7</ele>
        <time>2017-04-09T13:15:46Z</time>
      </trkpt>
      <trkpt lat="48.34597" lon="2.76607">
        <ele>72.95</ele>
        <time>2017-04-09T13:16:08Z</time>
      </trkpt>
      <trkpt lat="48.34613" lon="2.76634">
        <ele>71.76</ele>
        <time>2017-04-09T13:16:28Z</time>
      </trkpt>
      <trkpt lat="48.34627" lon="2.76657">
        <ele>71.6</ele>
        <time>2017-04-09T13:16:46Z</time>
      </trkpt>
      <trkpt lat="48.34631" lon="2.76661">
        <ele>70.97</ele>
        <time>2017-04-09T13:16:51Z</time>
      </trkpt>
      <trkpt lat="48.34645" lon="2.76694">
        <ele>70.83</ele>
        <time>2017-04-09T13:17:10Z</time>
      </trkpt>
      <trkpt lat="48.34647" lon="2.76704">
        <ele>70.42</ele>
        <time>2017-04-09T13:17:16Z</time>
      </trkpt>
      <trkpt lat="48.34659" lon="2.76724">
        <ele>69.48</ele>
        <time>2017-04-09T13:17:33Z</time>
      </trkpt>
      <trkpt lat="48.34672" lon="2.76749">
        <ele>68.98</ele>
        <time>2017-04-09T13:17:50Z</time>
      </trkpt>
      <trkpt lat="48.34675" lon="2.76754">
        <ele>68.71</ele>
        <time>2017-04-09T13:17:54Z</time>
      </trkpt>
      <trkpt lat="48.34685" lon="2.76783">
        <ele>67.72</ele>
        <time>2017-04-09T13:18:12Z</time>
      </trkpt>
      <trkpt lat="48.34693" lon="2.76815">
        <ele>67.29</ele>
        <time>2017-04-09T13:18:32Z</time>
      </trkpt>
      <trkpt lat="48.34693" lon="2.76818">
        <ele>67.34</ele>
        <time>2017-04-09T13:18:34Z</time>
      </trkpt>
      <trkpt lat="48.34695" lon="2.76824">
        <ele>67.3</ele>
        <time>2017-04-09T13:18:39Z</time>
      </trkpt>
      <trkpt lat="48.34696" lon="2.76827">
        <ele>66.91</ele>
        <time>2017-04-09T13:19:02Z</time>
      </trkpt>
      <trkpt lat="48.34704" lon="2.76843">
        <ele>67.05</ele>
        <time>2017-04-09T13:19:21Z</time>
      </trkpt>
      <trkpt lat="48.34714" lon="2.7687">
        <ele>66.31</ele>
        <time>2017-04-09T13:19:43Z</time>
      </trkpt>
      <trkpt lat="48.34715" lon="2.76874">
        <ele>66.27</ele>
        <time>2017-04-09T13:19:46Z</time>
      </trkpt>
      <trkpt lat="48.34721" lon="2.76898">
        <ele>65.64</ele>
        <time>2017-04-09T13:20:03Z</time>
      </trkpt>
      <trkpt lat="48.34723" lon="2.76909">
        <ele>65.48</ele>
        <time>2017-04-09T13:20:09Z</time>
      </trkpt>
      <trkpt lat="48.34724" lon="2.76926">
        <ele>64.78</ele>
        <time>2017-04-09T13:20:18Z</time>
      </trkpt>
      <trkpt lat="48.34727" lon="2.76943">
        <ele>64.18</ele>
        <time>2017-04-09T13:20:32Z</time>
      </trkpt>
      <trkpt lat="48.3474" lon="2.76928">
        <ele>64.94</ele>
        <time>2017-04-09T13:20:53Z</time>
      </trkpt>
      <trkpt lat="48.3475" lon="2.76916">
        <ele>64.96</ele>
        <time>2017-04-09T13:21:29Z</time>
      </trkpt>
      <trkpt lat="48.34756" lon="2.76907">
        <ele>64.87</ele>
        <time>2017-04-09T13:22:21Z</time>
      </trkpt>
      <trkpt lat="48.3476" lon="2.76902">
        <ele>64.8</ele>
        <time>2017-04-09T13:23:17Z</time>
      </trkpt>
      <trkpt lat="48.34764" lon="2.76898">
        <ele>65.78</ele>
        <time>2017-04-09T13:24:11Z</time>
      </trkpt>
      <trkpt lat="48.34762" lon="2.76899">
        <ele>65.64</ele>
        <time>2017-04-09T13:24:36Z</time>
      </trkpt>
      <trkpt lat="48.34752" lon="2.76915">
        <ele>69.04</ele>
        <time>2017-04-09T13:28:13Z</time>
      </trkpt>
      <trkpt lat="48.34733" lon="2.76947">
        <ele>68.77</ele>
        <time>2017-04-09T13:28:53Z</time>
      </trkpt>
      <trkpt lat="48.34731" lon="2.7695">
        <ele>68.92</ele>
        <time>2017-04-09T13:29:10Z</time>
      </trkpt>
      <trkpt lat="48.34732" lon="2.76966">
        <ele>69.83</ele>
        <time>2017-04-09T13:29:31Z</time>
      </trkpt>
      <trkpt lat="48.34739" lon="2.76981">
        <ele>70.39</ele>
        <time>2017-04-09T13:29:52Z</time>
      </trkpt>
      <trkpt lat="48.34748" lon="2.77001">
        <ele>69.98</ele>
        <time>2017-04-09T13:30:14Z</time>
      </trkpt>
      <trkpt lat="48.34759" lon="2.77034">
        <ele>69.44</ele>
        <time>2017-04-09T13:30:37Z</time>
      </trkpt>
      <trkpt lat="48.34767" lon="2.77056">
        <ele>69.19</ele>
        <time>2017-04-09T13:30:58Z</time>
      </trkpt>
      <trkpt lat="48.34781" lon="2.77086">
        <ele>68.19</ele>
        <time>2017-04-09T13:31:20Z</time>
      </trkpt>
      <trkpt lat="48.34788" lon="2.77112">
        <ele>67.24</ele>
        <time>2017-04-09T13:31:41Z</time>
      </trkpt>
      <trkpt lat="48.34794" lon="2.77141">
        <ele>66.35</ele>
        <time>2017-04-09T13:32:02Z</time>
      </trkpt>
      <trkpt lat="48.34806" lon="2.77165">
        <ele>65.05</ele>
        <time>2017-04-09T13:32:21Z</time>
      </trkpt>
      <trkpt lat="48.34818" lon="2.77198">
        <ele>64.31</ele>
        <time>2017-04-09T13:32:44Z</time>
      </trkpt>
      <trkpt lat="48.34824" lon="2.77213">
        <ele>64.28</ele>
        <time>2017-04-09T13:33:04Z</time>
      </trkpt>
      <trkpt lat="48.34832" lon="2.7723">
        <ele>63.59</ele>
        <time>2017-04-09T13:33:21Z</time>
      </trkpt>
      <trkpt lat="48.3484" lon="2.77253">
        <ele>63</ele>
        <time>2017-04-09T13:33:41Z</time>
      </trkpt>
      <trkpt lat="48.34843" lon="2.77261">
        <ele>63</ele>
        <time>2017-04-09T13:33:48Z</time>
      </trkpt>
      <trkpt lat="48.34852" lon="2.77279">
        <ele>62.69</ele>
        <time>2017-04-09T13:34:07Z</time>
      </trkpt>
      <trkpt lat="48.3486" lon="2.77302">
        <ele>62.5</ele>
        <time>2017-04-09T13:34:22Z</time>
      </trkpt>
      <trkpt lat="48.34868" lon="2.77324">
        <ele>62.55</ele>
        <time>2017-04-09T13:34:39Z</time>
      </trkpt>
      <trkpt lat="48.34875" lon="2.77348">
        <ele>62.98</ele>
        <time>2017-04-09T13:34:54Z</time>
      </trkpt>
      <trkpt lat="48.34881" lon="2.77372">
        <ele>62.99</ele>
        <time>2017-04-09T13:35:12Z</time>
      </trkpt>
      <trkpt lat="48.3489" lon="2.77397">
        <ele>63.07</ele>
        <time>2017-04-09T13:35:29Z</time>
      </trkpt>
      <trkpt lat="48.34901" lon="2.77419">
        <ele>64.49</ele>
        <time>2017-04-09T13:35:45Z</time>
      </trkpt>
      <trkpt lat="48.34912" lon="2.77436">
        <ele>65.98</ele>
        <time>2017-04-09T13:36:05Z</time>
      </trkpt>
      <trkpt lat="48.34914" lon="2.77436">
        <ele>65.49</ele>
        <time>2017-04-09T13:36:06Z</time>
      </trkpt>
      <trkpt lat="48.34922" lon="2.77438">
        <ele>65.6</ele>
        <time>2017-04-09T13:36:13Z</time>
      </trkpt>
      <trkpt lat="48.34935" lon="2.77449">
        <ele>66.61</ele>
        <time>2017-04-09T13:36:29Z</time>
      </trkpt>
      <trkpt lat="48.34951" lon="2.77457">
        <ele>66.63</ele>
        <time>2017-04-09T13:36:49Z</time>
      </trkpt>
      <trkpt lat="48.3497" lon="2.77467">
        <ele>67.23</ele>
        <time>2017-04-09T13:37:06Z</time>
      </trkpt>
      <trkpt lat="48.34984" lon="2.77472">
        <ele>67.97</ele>
        <time>2017-04-09T13:37:18Z</time>
      </trkpt>
      <trkpt lat="48.35008" lon="2.77472">
        <ele>68.36</ele>
        <time>2017-04-09T13:37:40Z</time>
      </trkpt>
      <trkpt lat="48.35027" lon="2.77471">
        <ele>68.76</ele>
        <time>2017-04-09T13:37:56Z</time>
      </trkpt>
      <trkpt lat="48.35048" lon="2.77476">
        <ele>68.98</ele>
        <time>2017-04-09T13:38:18Z</time>
      </trkpt>
      <trkpt lat="48.35052" lon="2.77476">
        <ele>69.18</ele>
        <time>2017-04-09T13:38:21Z</time>
      </trkpt>
      <trkpt lat="48.35055" lon="2.77476">
        <ele>68.91</ele>
        <time>2017-04-09T13:38:23Z</time>
      </trkpt>
      <trkpt lat="48.35071" lon="2.77477">
        <ele>69.19</ele>
        <time>2017-04-09T13:38:37Z</time>
      </trkpt>
      <trkpt lat="48.35095" lon="2.7748">
        <ele>69.35</ele>
        <time>2017-04-09T13:38:57Z</time>
      </trkpt>
      <trkpt lat="48.35112" lon="2.77482">
        <ele>70.37</ele>
        <time>2017-04-09T13:39:10Z</time>
      </trkpt>
      <trkpt lat="48.35118" lon="2.77482">
        <ele>70.29</ele>
        <time>2017-04-09T13:39:15Z</time>
      </trkpt>
      <trkpt lat="48.35121" lon="2.77482">
        <ele>70.25</ele>
        <time>2017-04-09T13:39:18Z</time>
      </trkpt>
      <trkpt lat="48.35132" lon="2.77485">
        <ele>70.69</ele>
        <time>2017-04-09T13:39:31Z</time>
      </trkpt>
      <trkpt lat="48.35158" lon="2.77489">
        <ele>71.58</ele>
        <time>2017-04-09T13:39:51Z</time>
      </trkpt>
      <trkpt lat="48.35177" lon="2.77489">
        <ele>71.25</ele>
        <time>2017-04-09T13:40:04Z</time>
      </trkpt>
      <trkpt lat="48.3519" lon="2.77495">
        <ele>71.05</ele>
        <time>2017-04-09T13:40:22Z</time>
      </trkpt>
      <trkpt lat="48.35222" lon="2.77502">
        <ele>77.91</ele>
        <time>2017-04-09T13:41:11Z</time>
      </trkpt>
      <trkpt lat="48.35225" lon="2.775">
        <ele>77.73</ele>
        <time>2017-04-09T13:41:12Z</time>
      </trkpt>
      <trkpt lat="48.35224" lon="2.77495">
        <ele>77.87</ele>
        <time>2017-04-09T13:41:13Z</time>
      </trkpt>
      <trkpt lat="48.35222" lon="2.77497">
        <ele>80.76</ele>
        <time>2017-04-09T13:41:19Z</time>
      </trkpt>
      <trkpt lat="48.35223" lon="2.77496">
        <ele>84.09</ele>
        <time>2017-04-09T13:41:26Z</time>
      </trkpt>
      <trkpt lat="48.35226" lon="2.77497">
        <ele>87.25</ele>
        <time>2017-04-09T13:41:34Z</time>
      </trkpt>
      <trkpt lat="48.3524" lon="2.77494">
        <ele>90.22</ele>
        <time>2017-04-09T13:41:52Z</time>
      </trkpt>
      <trkpt lat="48.35246" lon="2.77492">
        <ele>90.14</ele>
        <time>2017-04-09T13:42:13Z</time>
      </trkpt>
      <trkpt lat="48.35259" lon="2.77494">
        <ele>90.57</ele>
        <time>2017-04-09T13:42:31Z</time>
      </trkpt>
      <trkpt lat="48.35274" lon="2.77496">
        <ele>90.76</ele>
        <time>2017-04-09T13:42:49Z</time>
      </trkpt>
      <trkpt lat="48.35276" lon="2.77492">
        <ele>89.57</ele>
        <time>2017-04-09T13:42:58Z</time>
      </trkpt>
      <trkpt lat="48.35277" lon="2.77492">
        <ele>89.02</ele>
        <time>2017-04-09T13:43:20Z</time>
      </trkpt>
      <trkpt lat="48.35286" lon="2.77503">
        <ele>89.65</ele>
        <time>2017-04-09T13:43:47Z</time>
      </trkpt>
      <trkpt lat="48.35295" lon="2.77494">
        <ele>91.08</ele>
        <time>2017-04-09T13:44:03Z</time>
      </trkpt>
      <trkpt lat="48.35303" lon="2.77484">
        <ele>91.65</ele>
        <time>2017-04-09T13:44:23Z</time>
      </trkpt>
      <trkpt lat="48.35308" lon="2.77486">
        <ele>92.23</ele>
        <time>2017-04-09T13:44:51Z</time>
      </trkpt>
      <trkpt lat="48.35318" lon="2.77481">
        <ele>92.99</ele>
        <time>2017-04-09T13:45:13Z</time>
      </trkpt>
      <trkpt lat="48.35332" lon="2.77477">
        <ele>93.75</ele>
        <time>2017-04-09T13:45:34Z</time>
      </trkpt>
      <trkpt lat="48.35341" lon="2.77473">
        <ele>91.92</ele>
        <time>2017-04-09T13:45:57Z</time>
      </trkpt>
      <trkpt lat="48.35353" lon="2.77471">
        <ele>89.99</ele>
        <time>2017-04-09T13:46:23Z</time>
      </trkpt>
      <trkpt lat="48.35362" lon="2.77467">
        <ele>89.27</ele>
        <time>2017-04-09T13:46:50Z</time>
      </trkpt>
      <trkpt lat="48.35367" lon="2.77468">
        <ele>87.69</ele>
        <time>2017-04-09T13:47:11Z</time>
      </trkpt>
      <trkpt lat="48.35363" lon="2.77475">
        <ele>88.1</ele>
        <time>2017-04-09T13:47:34Z</time>
      </trkpt>
      <trkpt lat="48.35368" lon="2.77471">
        <ele>87.74</ele>
        <time>2017-04-09T13:48:00Z</time>
      </trkpt>
      <trkpt lat="48.3537" lon="2.77472">
        <ele>87.9</ele>
        <time>2017-04-09T13:48:26Z</time>
      </trkpt>
      <trkpt lat="48.3537" lon="2.77477">
        <ele>87.13</ele>
        <time>2017-04-09T13:48:54Z</time>
      </trkpt>
      <trkpt lat="48.35373" lon="2.77481">
        <ele>87.83</ele>
        <time>2017-04-09T13:49:18Z</time>
      </trkpt>
      <trkpt lat="48.35369" lon="2.77482">
        <ele>87.22</ele>
        <time>2017-04-09T13:49:28Z</time>
      </trkpt>
      <trkpt lat="48.35373" lon="2.7748">
        <ele>87.87</ele>
        <time>2017-04-09T13:50:01Z</time>
      </trkpt>
      <trkpt lat="48.35375" lon="2.77478">
        <ele>87.86</ele>
        <time>2017-04-09T13:50:36Z</time>
      </trkpt>
      <trkpt lat="48.35381" lon="2.77494">
        <ele>85.58</ele>
        <time>2017-04-09T13:50:55Z</time>
      </trkpt>
      <trkpt lat="48.35384" lon="2.77499">
        <ele>85.01</ele>
        <time>2017-04-09T13:51:01Z</time>
      </trkpt>
      <trkpt lat="48.35398" lon="2.77505">
        <ele>82.9</ele>
        <time>2017-04-09T13:51:19Z</time>
      </trkpt>
      <trkpt lat="48.35413" lon="2.77502">
        <ele>81.4</ele>
        <time>2017-04-09T13:51:40Z</time>
      </trkpt>
      <trkpt lat="48.35432" lon="2.77504">
        <ele>80.72</ele>
        <time>2017-04-09T13:52:02Z</time>
      </trkpt>
      <trkpt lat="48.35448" lon="2.77504">
        <ele>80.4</ele>
        <time>2017-04-09T13:52:19Z</time>
      </trkpt>
      <trkpt lat="48.35467" lon="2.77508">
        <ele>79.08</ele>
        <time>2017-04-09T13:52:39Z</time>
      </trkpt>
      <trkpt lat="48.35487" lon="2.77509">
        <ele>78.99</ele>
        <time>2017-04-09T13:52:58Z</time>
      </trkpt>
      <trkpt lat="48.3551" lon="2.77515">
        <ele>78.67</ele>
        <time>2017-04-09T13:53:19Z</time>
      </trkpt>
      <trkpt lat="48.35538" lon="2.77517">
        <ele>78.45</ele>
        <time>2017-04-09T13:53:41Z</time>
      </trkpt>
      <trkpt lat="48.35549" lon="2.7752">
        <ele>78.45</ele>
        <time>2017-04-09T13:53:48Z</time>
      </trkpt>
      <trkpt lat="48.3555" lon="2.7752">
        <ele>78.85</ele>
        <time>2017-04-09T13:53:49Z</time>
      </trkpt>
      <trkpt lat="48.35554" lon="2.77521">
        <ele>77.67</ele>
        <time>2017-04-09T13:53:52Z</time>
      </trkpt>
      <trkpt lat="48.35574" lon="2.77522">
        <ele>78.01</ele>
        <time>2017-04-09T13:54:10Z</time>
      </trkpt>
      <trkpt lat="48.35598" lon="2.77525">
        <ele>77.96</ele>
        <time>2017-04-09T13:54:32Z</time>
      </trkpt>
      <trkpt lat="48.35612" lon="2.77529">
        <ele>77.92</ele>
        <time>2017-04-09T13:54:48Z</time>
      </trkpt>
      <trkpt lat="48.35642" lon="2.77527">
        <ele>77.46</ele>
        <time>2017-04-09T13:55:13Z</time>
      </trkpt>
      <trkpt lat="48.35666" lon="2.7753">
        <ele>76.8</ele>
        <time>2017-04-09T13:55:33Z</time>
      </trkpt>
      <trkpt lat="48.35688" lon="2.77533">
        <ele>77.22</ele>
        <time>2017-04-09T13:55:52Z</time>
      </trkpt>
      <trkpt lat="48.35707" lon="2.77535">
        <ele>76.77</ele>
        <time>2017-04-09T13:56:07Z</time>
      </trkpt>
      <trkpt lat="48.35713" lon="2.77536">
        <ele>76.67</ele>
        <time>2017-04-09T13:56:12Z</time>
      </trkpt>
      <trkpt lat="48.35715" lon="2.77536">
        <ele>76.51</ele>
        <time>2017-04-09T13:56:13Z</time>
      </trkpt>
      <trkpt lat="48.3573" lon="2.77536">
        <ele>76.81</ele>
        <time>2017-04-09T13:56:27Z</time>
      </trkpt>
      <trkpt lat="48.35744" lon="2.7754">
        <ele>76.87</ele>
        <time>2017-04-09T13:56:39Z</time>
      </trkpt>
      <trkpt lat="48.35764" lon="2.77541">
        <ele>76.58</ele>
        <time>2017-04-09T13:56:56Z</time>
      </trkpt>
      <trkpt lat="48.35779" lon="2.77543">
        <ele>76.93</ele>
        <time>2017-04-09T13:57:10Z</time>
      </trkpt>
      <trkpt lat="48.35788" lon="2.77544">
        <ele>76.91</ele>
        <time>2017-04-09T13:57:19Z</time>
      </trkpt>
      <trkpt lat="48.35794" lon="2.77543">
        <ele>76.8</ele>
        <time>2017-04-09T13:57:24Z</time>
      </trkpt>
      <trkpt lat="48.35795" lon="2.77543">
        <ele>76.83</ele>
        <time>2017-04-09T13:57:25Z</time>
      </trkpt>
      <trkpt lat="48.35796" lon="2.77543">
        <ele>76.95</ele>
        <time>2017-04-09T13:57:26Z</time>
      </trkpt>
      <trkpt lat="48.35804" lon="2.77541">
        <ele>77.22</ele>
        <time>2017-04-09T13:57:45Z</time>
      </trkpt>
      <trkpt lat="48.3581" lon="2.77543">
        <ele>77.1</ele>
        <time>2017-04-09T13:58:07Z</time>
      </trkpt>
      <trkpt lat="48.35825" lon="2.77544">
        <ele>76.3</ele>
        <time>2017-04-09T13:58:23Z</time>
      </trkpt>
      <trkpt lat="48.35843" lon="2.77546">
        <ele>76.38</ele>
        <time>2017-04-09T13:58:39Z</time>
      </trkpt>
      <trkpt lat="48.3587" lon="2.77552">
        <ele>76.34</ele>
        <time>2017-04-09T13:58:59Z</time>
      </trkpt>
      <trkpt lat="48.35871" lon="2.77552">
        <ele>76.68</ele>
        <time>2017-04-09T13:59:00Z</time>
      </trkpt>
      <trkpt lat="48.35888" lon="2.77553">
        <ele>76.63</ele>
        <time>2017-04-09T13:59:14Z</time>
      </trkpt>
      <trkpt lat="48.35915" lon="2.77556">
        <ele>76.78</ele>
        <time>2017-04-09T13:59:36Z</time>
      </trkpt>
      <trkpt lat="48.35922" lon="2.77557">
        <ele>77.07</ele>
        <time>2017-04-09T13:59:43Z</time>
      </trkpt>
      <trkpt lat="48.3593" lon="2.7756">
        <ele>76.92</ele>
        <time>2017-04-09T13:59:49Z</time>
      </trkpt>
      <trkpt lat="48.35947" lon="2.77564">
        <ele>76.31</ele>
        <time>2017-04-09T14:00:04Z</time>
      </trkpt>
      <trkpt lat="48.35986" lon="2.77559">
        <ele>76.66</ele>
        <time>2017-04-09T14:00:24Z</time>
      </trkpt>
      <trkpt lat="48.36001" lon="2.77563">
        <ele>76.52</ele>
        <time>2017-04-09T14:00:41Z</time>
      </trkpt>
      <trkpt lat="48.36017" lon="2.77565">
        <ele>76.77</ele>
        <time>2017-04-09T14:00:58Z</time>
      </trkpt>
      <trkpt lat="48.36037" lon="2.77568">
        <ele>77.23</ele>
        <time>2017-04-09T14:01:19Z</time>
      </trkpt>
      <trkpt lat="48.36054" lon="2.77572">
        <ele>76.88</ele>
        <time>2017-04-09T14:01:37Z</time>
      </trkpt>
      <trkpt lat="48.36081" lon="2.77574">
        <ele>76.96</ele>
        <time>2017-04-09T14:01:59Z</time>
      </trkpt>
      <trkpt lat="48.36102" lon="2.77576">
        <ele>76.99</ele>
        <time>2017-04-09T14:02:17Z</time>
      </trkpt>
      <trkpt lat="48.3612" lon="2.77579">
        <ele>77.01</ele>
        <time>2017-04-09T14:02:34Z</time>
      </trkpt>
      <trkpt lat="48.36142" lon="2.77583">
        <ele>77.11</ele>
        <time>2017-04-09T14:02:55Z</time>
      </trkpt>
      <trkpt lat="48.36168" lon="2.77583">
        <ele>77.72</ele>
        <time>2017-04-09T14:03:18Z</time>
      </trkpt>
      <trkpt lat="48.36188" lon="2.77584">
        <ele>78.05</ele>
        <time>2017-04-09T14:03:35Z</time>
      </trkpt>
      <trkpt lat="48.36209" lon="2.77588">
        <ele>77.39</ele>
        <time>2017-04-09T14:03:55Z</time>
      </trkpt>
      <trkpt lat="48.36232" lon="2.77589">
        <ele>78.17</ele>
        <time>2017-04-09T14:04:13Z</time>
      </trkpt>
      <trkpt lat="48.36255" lon="2.7759">
        <ele>78.29</ele>
        <time>2017-04-09T14:04:32Z</time>
      </trkpt>
      <trkpt lat="48.36259" lon="2.7759">
        <ele>77.63</ele>
        <time>2017-04-09T14:04:35Z</time>
      </trkpt>
      <trkpt lat="48.36274" lon="2.77591">
        <ele>78.34</ele>
        <time>2017-04-09T14:04:47Z</time>
      </trkpt>
      <trkpt lat="48.36291" lon="2.77594">
        <ele>78.48</ele>
        <time>2017-04-09T14:05:03Z</time>
      </trkpt>
      <trkpt lat="48.36308" lon="2.77596">
        <ele>78.35</ele>
        <time>2017-04-09T14:05:17Z</time>
      </trkpt>
      <trkpt lat="48.36325" lon="2.77598">
        <ele>78.53</ele>
        <time>2017-04-09T14:05:33Z</time>
      </trkpt>
      <trkpt lat="48.3633" lon="2.77601">
        <ele>78.95</ele>
        <time>2017-04-09T14:05:49Z</time>
      </trkpt>
      <trkpt lat="48.36349" lon="2.77604">
        <ele>78.62</ele>
        <time>2017-04-09T14:06:07Z</time>
      </trkpt>
      <trkpt lat="48.36372" lon="2.77606">
        <ele>79.21</ele>
        <time>2017-04-09T14:06:28Z</time>
      </trkpt>
      <trkpt lat="48.36389" lon="2.77606">
        <ele>79.06</ele>
        <time>2017-04-09T14:06:41Z</time>
      </trkpt>
      <trkpt lat="48.36406" lon="2.77607">
        <ele>79.99</ele>
        <time>2017-04-09T14:06:56Z</time>
      </trkpt>
      <trkpt lat="48.36413" lon="2.77608">
        <ele>79.89</ele>
        <time>2017-04-09T14:07:02Z</time>
      </trkpt>
      <trkpt lat="48.36415" lon="2.77608">
        <ele>79.77</ele>
        <time>2017-04-09T14:07:03Z</time>
      </trkpt>
      <trkpt lat="48.36432" lon="2.7761">
        <ele>79.83</ele>
        <time>2017-04-09T14:07:19Z</time>
      </trkpt>
      <trkpt lat="48.36435" lon="2.7761">
        <ele>80.07</ele>
        <time>2017-04-09T14:07:21Z</time>
      </trkpt>
      <trkpt lat="48.36452" lon="2.77615">
        <ele>80.13</ele>
        <time>2017-04-09T14:07:38Z</time>
      </trkpt>
      <trkpt lat="48.36475" lon="2.77621">
        <ele>80.49</ele>
        <time>2017-04-09T14:07:56Z</time>
      </trkpt>
      <trkpt lat="48.36483" lon="2.77619">
        <ele>81.11</ele>
        <time>2017-04-09T14:08:03Z</time>
      </trkpt>
      <trkpt lat="48.36496" lon="2.77619">
        <ele>80.83</ele>
        <time>2017-04-09T14:08:14Z</time>
      </trkpt>
      <trkpt lat="48.36497" lon="2.77619">
        <ele>81.07</ele>
        <time>2017-04-09T14:08:15Z</time>
      </trkpt>
      <trkpt lat="48.36518" lon="2.77621">
        <ele>80.89</ele>
        <time>2017-04-09T14:08:34Z</time>
      </trkpt>
      <trkpt lat="48.3654" lon="2.77624">
        <ele>82.02</ele>
        <time>2017-04-09T14:08:53Z</time>
      </trkpt>
      <trkpt lat="48.36566" lon="2.77626">
        <ele>82.27</ele>
        <time>2017-04-09T14:09:14Z</time>
      </trkpt>
      <trkpt lat="48.36574" lon="2.77627">
        <ele>82.12</ele>
        <time>2017-04-09T14:09:20Z</time>
      </trkpt>
      <trkpt lat="48.36575" lon="2.77627">
        <ele>82.44</ele>
        <time>2017-04-09T14:09:21Z</time>
      </trkpt>
      <trkpt lat="48.36577" lon="2.77627">
        <ele>82.24</ele>
        <time>2017-04-09T14:09:22Z</time>
      </trkpt>
      <trkpt lat="48.36594" lon="2.77628">
        <ele>82.62</ele>
        <time>2017-04-09T14:09:36Z</time>
      </trkpt>
      <trkpt lat="48.36614" lon="2.7763">
        <ele>82.81</ele>
        <time>2017-04-09T14:09:53Z</time>
      </trkpt>
      <trkpt lat="48.36641" lon="2.77629">
        <ele>83.21</ele>
        <time>2017-04-09T14:10:16Z</time>
      </trkpt>
      <trkpt lat="48.36662" lon="2.77633">
        <ele>83.71</ele>
        <time>2017-04-09T14:10:35Z</time>
      </trkpt>
      <trkpt lat="48.3668" lon="2.77634">
        <ele>83.35</ele>
        <time>2017-04-09T14:10:49Z</time>
      </trkpt>
      <trkpt lat="48.36681" lon="2.77634">
        <ele>83.95</ele>
        <time>2017-04-09T14:10:50Z</time>
      </trkpt>
      <trkpt lat="48.36697" lon="2.77639">
        <ele>83.4</ele>
        <time>2017-04-09T14:11:05Z</time>
      </trkpt>
      <trkpt lat="48.36708" lon="2.77636">
        <ele>84.14</ele>
        <time>2017-04-09T14:11:20Z</time>
      </trkpt>
      <trkpt lat="48.36709" lon="2.7764">
        <ele>84.18</ele>
        <time>2017-04-09T14:11:45Z</time>
      </trkpt>
      <trkpt lat="48.36722" lon="2.77638">
        <ele>84.52</ele>
        <time>2017-04-09T14:12:03Z</time>
      </trkpt>
      <trkpt lat="48.36737" lon="2.7764">
        <ele>84.09</ele>
        <time>2017-04-09T14:12:23Z</time>
      </trkpt>
      <trkpt lat="48.36739" lon="2.7764">
        <ele>84.34</ele>
        <time>2017-04-09T14:12:25Z</time>
      </trkpt>
      <trkpt lat="48.36744" lon="2.77641">
        <ele>84.51</ele>
        <time>2017-04-09T14:12:30Z</time>
      </trkpt>
      <trkpt lat="48.36763" lon="2.77644">
        <ele>85.4</ele>
        <time>2017-04-09T14:12:51Z</time>
      </trkpt>
      <trkpt lat="48.36766" lon="2.77645">
        <ele>85.38</ele>
        <time>2017-04-09T14:12:54Z</time>
      </trkpt>
      <trkpt lat="48.36779" lon="2.77647">
        <ele>86.38</ele>
        <time>2017-04-09T14:13:09Z</time>
      </trkpt>
      <trkpt lat="48.36794" lon="2.77648">
        <ele>87.66</ele>
        <time>2017-04-09T14:13:27Z</time>
      </trkpt>
      <trkpt lat="48.36808" lon="2.77651">
        <ele>88.57</ele>
        <time>2017-04-09T14:13:42Z</time>
      </trkpt>
      <trkpt lat="48.36809" lon="2.77651">
        <ele>88.36</ele>
        <time>2017-04-09T14:13:43Z</time>
      </trkpt>
      <trkpt lat="48.36822" lon="2.77653">
        <ele>89.41</ele>
        <time>2017-04-09T14:13:56Z</time>
      </trkpt>
      <trkpt lat="48.36841" lon="2.77655">
        <ele>90.93</ele>
        <time>2017-04-09T14:14:15Z</time>
      </trkpt>
      <trkpt lat="48.36853" lon="2.77656">
        <ele>89.59</ele>
        <time>2017-04-09T14:14:26Z</time>
      </trkpt>
      <trkpt lat="48.36863" lon="2.77657">
        <ele>89.78</ele>
        <time>2017-04-09T14:14:32Z</time>
      </trkpt>
      <trkpt lat="48.36865" lon="2.77657">
        <ele>88.91</ele>
        <time>2017-04-09T14:14:33Z</time>
      </trkpt>
      <trkpt lat="48.36879" lon="2.77657">
        <ele>87.77</ele>
        <time>2017-04-09T14:14:46Z</time>
      </trkpt>
      <trkpt lat="48.36888" lon="2.77659">
        <ele>86.88</ele>
        <time>2017-04-09T14:14:55Z</time>
      </trkpt>
      <trkpt lat="48.36895" lon="2.77661">
        <ele>86.81</ele>
        <time>2017-04-09T14:15:01Z</time>
      </trkpt>
      <trkpt lat="48.36915" lon="2.77662">
        <ele>86.34</ele>
        <time>2017-04-09T14:15:14Z</time>
      </trkpt>
      <trkpt lat="48.3693" lon="2.77663">
        <ele>84.93</ele>
        <time>2017-04-09T14:15:29Z</time>
      </trkpt>
      <trkpt lat="48.36939" lon="2.77663">
        <ele>83.45</ele>
        <time>2017-04-09T14:15:40Z</time>
      </trkpt>
      <trkpt lat="48.3694" lon="2.77663">
        <ele>83.35</ele>
        <time>2017-04-09T14:15:41Z</time>
      </trkpt>
      <trkpt lat="48.36954" lon="2.77666">
        <ele>83.15</ele>
        <time>2017-04-09T14:15:55Z</time>
      </trkpt>
      <trkpt lat="48.36976" lon="2.77668">
        <ele>82.53</ele>
        <time>2017-04-09T14:16:14Z</time>
      </trkpt>
      <trkpt lat="48.3699" lon="2.7767">
        <ele>82.08</ele>
        <time>2017-04-09T14:16:29Z</time>
      </trkpt>
      <trkpt lat="48.37" lon="2.77672">
        <ele>82.55</ele>
        <time>2017-04-09T14:16:36Z</time>
      </trkpt>
      <trkpt lat="48.37018" lon="2.77672">
        <ele>82.83</ele>
        <time>2017-04-09T14:16:53Z</time>
      </trkpt>
      <trkpt lat="48.37034" lon="2.77673">
        <ele>84.4</ele>
        <time>2017-04-09T14:17:07Z</time>
      </trkpt>
      <trkpt lat="48.37051" lon="2.77675">
        <ele>84.31</ele>
        <time>2017-04-09T14:17:20Z</time>
      </trkpt>
      <trkpt lat="48.37056" lon="2.77676">
        <ele>84.11</ele>
        <time>2017-04-09T14:17:23Z</time>
      </trkpt>
      <trkpt lat="48.37069" lon="2.77683">
        <ele>83.46</ele>
        <time>2017-04-09T14:17:37Z</time>
      </trkpt>
      <trkpt lat="48.37069" lon="2.7769">
        <ele>83.62</ele>
        <time>2017-04-09T14:18:02Z</time>
      </trkpt>
      <trkpt lat="48.37069" lon="2.77695">
        <ele>84.33</ele>
        <time>2017-04-09T14:18:25Z</time>
      </trkpt>
      <trkpt lat="48.37068" lon="2.77696">
        <ele>83.72</ele>
        <time>2017-04-09T14:18:47Z</time>
      </trkpt>
      <trkpt lat="48.37065" lon="2.77706">
        <ele>84.22</ele>
        <time>2017-04-09T14:19:12Z</time>
      </trkpt>
      <trkpt lat="48.37071" lon="2.77733">
        <ele>85.29</ele>
        <time>2017-04-09T14:19:34Z</time>
      </trkpt>
      <trkpt lat="48.37076" lon="2.77765">
        <ele>85.4</ele>
        <time>2017-04-09T14:19:54Z</time>
      </trkpt>
      <trkpt lat="48.37078" lon="2.77783">
        <ele>85.37</ele>
        <time>2017-04-09T14:20:09Z</time>
      </trkpt>
      <trkpt lat="48.37082" lon="2.7781">
        <ele>84.66</ele>
        <time>2017-04-09T14:20:25Z</time>
      </trkpt>
      <trkpt lat="48.3709" lon="2.77844">
        <ele>83.76</ele>
        <time>2017-04-09T14:20:45Z</time>
      </trkpt>
      <trkpt lat="48.37096" lon="2.77877">
        <ele>83.67</ele>
        <time>2017-04-09T14:21:07Z</time>
      </trkpt>
      <trkpt lat="48.37106" lon="2.77919">
        <ele>84.02</ele>
        <time>2017-04-09T14:21:29Z</time>
      </trkpt>
      <trkpt lat="48.37107" lon="2.77928">
        <ele>84.09</ele>
        <time>2017-04-09T14:21:34Z</time>
      </trkpt>
      <trkpt lat="48.37112" lon="2.77944">
        <ele>84.19</ele>
        <time>2017-04-09T14:21:47Z</time>
      </trkpt>
      <trkpt lat="48.37124" lon="2.77979">
        <ele>83.95</ele>
        <time>2017-04-09T14:22:08Z</time>
      </trkpt>
      <trkpt lat="48.3713" lon="2.78001">
        <ele>83.92</ele>
        <time>2017-04-09T14:22:24Z</time>
      </trkpt>
      <trkpt lat="48.37139" lon="2.78029">
        <ele>83.33</ele>
        <time>2017-04-09T14:22:42Z</time>
      </trkpt>
      <trkpt lat="48.37143" lon="2.78059">
        <ele>83.7</ele>
        <time>2017-04-09T14:23:02Z</time>
      </trkpt>
      <trkpt lat="48.37152" lon="2.78091">
        <ele>83.54</ele>
        <time>2017-04-09T14:23:20Z</time>
      </trkpt>
      <trkpt lat="48.37155" lon="2.78113">
        <ele>82.64</ele>
        <time>2017-04-09T14:23:36Z</time>
      </trkpt>
      <trkpt lat="48.3716" lon="2.78146">
        <ele>82.35</ele>
        <time>2017-04-09T14:23:56Z</time>
      </trkpt>
      <trkpt lat="48.37163" lon="2.78158">
        <ele>82.57</ele>
        <time>2017-04-09T14:24:02Z</time>
      </trkpt>
      <trkpt lat="48.37163" lon="2.7816">
        <ele>82.16</ele>
        <time>2017-04-09T14:24:03Z</time>
      </trkpt>
      <trkpt lat="48.37164" lon="2.78163">
        <ele>82.15</ele>
        <time>2017-04-09T14:24:05Z</time>
      </trkpt>
      <trkpt lat="48.37165" lon="2.78164">
        <ele>82.14</ele>
        <time>2017-04-09T14:24:06Z</time>
      </trkpt>
      <trkpt lat="48.37167" lon="2.78178">
        <ele>82.13</ele>
        <time>2017-04-09T14:24:13Z</time>
      </trkpt>
      <trkpt lat="48.37167" lon="2.78181">
        <ele>82.12</ele>
        <time>2017-04-09T14:24:14Z</time>
      </trkpt>
      <trkpt lat="48.37168" lon="2.78206">
        <ele>81.46</ele>
        <time>2017-04-09T14:24:28Z</time>
      </trkpt>
      <trkpt lat="48.37176" lon="2.78229">
        <ele>81.51</ele>
        <time>2017-04-09T14:24:42Z</time>
      </trkpt>
      <trkpt lat="48.37186" lon="2.78252">
        <ele>81.6</ele>
        <time>2017-04-09T14:24:57Z</time>
      </trkpt>
      <trkpt lat="48.372" lon="2.78278">
        <ele>81.59</ele>
        <time>2017-04-09T14:25:15Z</time>
      </trkpt>
      <trkpt lat="48.37202" lon="2.78283">
        <ele>81.68</ele>
        <time>2017-04-09T14:25:19Z</time>
      </trkpt>
      <trkpt lat="48.37211" lon="2.78302">
        <ele>81.8</ele>
        <time>2017-04-09T14:25:33Z</time>
      </trkpt>
      <trkpt lat="48.37214" lon="2.78308">
        <ele>82.03</ele>
        <time>2017-04-09T14:25:38Z</time>
      </trkpt>
      <trkpt lat="48.37225" lon="2.78331">
        <ele>82.13</ele>
        <time>2017-04-09T14:25:55Z</time>
      </trkpt>
      <trkpt lat="48.37233" lon="2.78342">
        <ele>81.92</ele>
        <time>2017-04-09T14:26:13Z</time>
      </trkpt>
      <trkpt lat="48.37249" lon="2.78362">
        <ele>83.37</ele>
        <time>2017-04-09T14:26:32Z</time>
      </trkpt>
      <trkpt lat="48.3725" lon="2.78363">
        <ele>82.65</ele>
        <time>2017-04-09T14:26:33Z</time>
      </trkpt>
      <trkpt lat="48.37263" lon="2.78385">
        <ele>84.49</ele>
        <time>2017-04-09T14:26:50Z</time>
      </trkpt>
      <trkpt lat="48.37264" lon="2.7839">
        <ele>84.48</ele>
        <time>2017-04-09T14:26:53Z</time>
      </trkpt>
      <trkpt lat="48.37265" lon="2.78391">
        <ele>84.64</ele>
        <time>2017-04-09T14:26:54Z</time>
      </trkpt>
      <trkpt lat="48.3727" lon="2.78403">
        <ele>84.82</ele>
        <time>2017-04-09T14:27:10Z</time>
      </trkpt>
      <trkpt lat="48.37279" lon="2.78418">
        <ele>84.09</ele>
        <time>2017-04-09T14:27:29Z</time>
      </trkpt>
      <trkpt lat="48.3728" lon="2.7845">
        <ele>82.74</ele>
        <time>2017-04-09T14:27:49Z</time>
      </trkpt>
      <trkpt lat="48.3728" lon="2.78469">
        <ele>82.76</ele>
        <time>2017-04-09T14:28:00Z</time>
      </trkpt>
      <trkpt lat="48.37281" lon="2.78502">
        <ele>82.52</ele>
        <time>2017-04-09T14:28:17Z</time>
      </trkpt>
      <trkpt lat="48.37285" lon="2.78525">
        <ele>82.65</ele>
        <time>2017-04-09T14:28:34Z</time>
      </trkpt>
      <trkpt lat="48.37295" lon="2.78558">
        <ele>82.95</ele>
        <time>2017-04-09T14:28:55Z</time>
      </trkpt>
      <trkpt lat="48.37301" lon="2.78581">
        <ele>83.01</ele>
        <time>2017-04-09T14:29:10Z</time>
      </trkpt>
      <trkpt lat="48.37305" lon="2.78601">
        <ele>82.68</ele>
        <time>2017-04-09T14:29:24Z</time>
      </trkpt>
      <trkpt lat="48.37307" lon="2.78611">
        <ele>83.13</ele>
        <time>2017-04-09T14:29:31Z</time>
      </trkpt>
      <trkpt lat="48.3731" lon="2.78632">
        <ele>82.86</ele>
        <time>2017-04-09T14:29:46Z</time>
      </trkpt>
      <trkpt lat="48.37312" lon="2.78652">
        <ele>82.32</ele>
        <time>2017-04-09T14:30:01Z</time>
      </trkpt>
      <trkpt lat="48.37318" lon="2.78673">
        <ele>83.08</ele>
        <time>2017-04-09T14:30:12Z</time>
      </trkpt>
      <trkpt lat="48.37323" lon="2.78689">
        <ele>82.52</ele>
        <time>2017-04-09T14:30:21Z</time>
      </trkpt>
      <trkpt lat="48.37332" lon="2.78715">
        <ele>83.37</ele>
        <time>2017-04-09T14:30:40Z</time>
      </trkpt>
      <trkpt lat="48.37335" lon="2.78732">
        <ele>83.22</ele>
        <time>2017-04-09T14:30:54Z</time>
      </trkpt>
      <trkpt lat="48.37327" lon="2.78742">
        <ele>79.99</ele>
        <time>2017-04-09T14:31:09Z</time>
      </trkpt>
      <trkpt lat="48.37329" lon="2.78755">
        <ele>79.9</ele>
        <time>2017-04-09T14:31:25Z</time>
      </trkpt>
      <trkpt lat="48.37349" lon="2.78788">
        <ele>82.66</ele>
        <time>2017-04-09T14:31:43Z</time>
      </trkpt>
      <trkpt lat="48.3736" lon="2.78788">
        <ele>82.22</ele>
        <time>2017-04-09T14:31:58Z</time>
      </trkpt>
      <trkpt lat="48.37372" lon="2.78804">
        <ele>81.76</ele>
        <time>2017-04-09T14:32:14Z</time>
      </trkpt>
      <trkpt lat="48.37373" lon="2.78803">
        <ele>81.53</ele>
        <time>2017-04-09T14:32:34Z</time>
      </trkpt>
      <trkpt lat="48.37365" lon="2.78791">
        <ele>82.06</ele>
        <time>2017-04-09T14:32:47Z</time>
      </trkpt>
      <trkpt lat="48.37364" lon="2.78788">
        <ele>82</ele>
        <time>2017-04-09T14:33:01Z</time>
      </trkpt>
      <trkpt lat="48.37366" lon="2.78794">
        <ele>82.39</ele>
        <time>2017-04-09T14:33:19Z</time>
      </trkpt>
      <trkpt lat="48.37369" lon="2.78799">
        <ele>82.33</ele>
        <time>2017-04-09T14:33:23Z</time>
      </trkpt>
      <trkpt lat="48.37376" lon="2.78811">
        <ele>82.06</ele>
        <time>2017-04-09T14:33:37Z</time>
      </trkpt>
      <trkpt lat="48.37375" lon="2.78808">
        <ele>82.35</ele>
        <time>2017-04-09T14:33:58Z</time>
      </trkpt>
      <trkpt lat="48.37375" lon="2.78808">
        <ele>82.42</ele>
        <time>2017-04-09T14:34:21Z</time>
      </trkpt>
      <trkpt lat="48.37375" lon="2.78803">
        <ele>81.61</ele>
        <time>2017-04-09T14:34:49Z</time>
      </trkpt>
      <trkpt lat="48.37375" lon="2.78805">
        <ele>81.61</ele>
        <time>2017-04-09T14:34:50Z</time>
      </trkpt>
      <trkpt lat="48.37375" lon="2.78811">
        <ele>82.35</ele>
        <time>2017-04-09T14:35:18Z</time>
      </trkpt>
      <trkpt lat="48.37375" lon="2.7881">
        <ele>81.94</ele>
        <time>2017-04-09T14:35:58Z</time>
      </trkpt>
      <trkpt lat="48.37374" lon="2.78808">
        <ele>82.19</ele>
        <time>2017-04-09T14:36:40Z</time>
      </trkpt>
      <trkpt lat="48.37373" lon="2.7881">
        <ele>82.47</ele>
        <time>2017-04-09T14:37:09Z</time>
      </trkpt>
      <trkpt lat="48.37375" lon="2.78813">
        <ele>82.35</ele>
        <time>2017-04-09T14:37:41Z</time>
      </trkpt>
      <trkpt lat="48.37372" lon="2.78812">
        <ele>82.87</ele>
        <time>2017-04-09T14:38:06Z</time>
      </trkpt>
      <trkpt lat="48.37375" lon="2.78808">
        <ele>82.66</ele>
        <time>2017-04-09T14:38:30Z</time>
      </trkpt>
      <trkpt lat="48.37376" lon="2.78806">
        <ele>82.61</ele>
        <time>2017-04-09T14:39:03Z</time>
      </trkpt>
      <trkpt lat="48.37377" lon="2.78804">
        <ele>83.02</ele>
        <time>2017-04-09T14:39:32Z</time>
      </trkpt>
      <trkpt lat="48.37374" lon="2.78805">
        <ele>82.69</ele>
        <time>2017-04-09T14:40:03Z</time>
      </trkpt>
      <trkpt lat="48.37377" lon="2.78808">
        <ele>82.53</ele>
        <time>2017-04-09T14:40:25Z</time>
      </trkpt>
      <trkpt lat="48.37376" lon="2.78811">
        <ele>83.04</ele>
        <time>2017-04-09T14:40:56Z</time>
      </trkpt>
      <trkpt lat="48.37374" lon="2.78811">
        <ele>83.24</ele>
        <time>2017-04-09T14:41:31Z</time>
      </trkpt>
      <trkpt lat="48.37376" lon="2.78811">
        <ele>83.6</ele>
        <time>2017-04-09T14:42:09Z</time>
      </trkpt>
      <trkpt lat="48.37375" lon="2.78807">
        <ele>83.56</ele>
        <time>2017-04-09T14:42:41Z</time>
      </trkpt>
      <trkpt lat="48.37374" lon="2.78816">
        <ele>83.04</ele>
        <time>2017-04-09T14:43:12Z</time>
      </trkpt>
      <trkpt lat="48.37376" lon="2.78819">
        <ele>83.29</ele>
        <time>2017-04-09T14:43:15Z</time>
      </trkpt>
      <trkpt lat="48.37376" lon="2.7882">
        <ele>83.21</ele>
        <time>2017-04-09T14:43:16Z</time>
      </trkpt>
      <trkpt lat="48.37378" lon="2.78823">
        <ele>82.99</ele>
        <time>2017-04-09T14:43:18Z</time>
      </trkpt>
      <trkpt lat="48.37383" lon="2.78829">
        <ele>82.81</ele>
        <time>2017-04-09T14:43:31Z</time>
      </trkpt>
      <trkpt lat="48.37395" lon="2.78852">
        <ele>82.5</ele>
        <time>2017-04-09T14:43:51Z</time>
      </trkpt>
      <trkpt lat="48.37403" lon="2.78862">
        <ele>82.98</ele>
        <time>2017-04-09T14:44:05Z</time>
      </trkpt>
      <trkpt lat="48.37417" lon="2.78885">
        <ele>82.56</ele>
        <time>2017-04-09T14:44:23Z</time>
      </trkpt>
      <trkpt lat="48.37432" lon="2.78912">
        <ele>82.22</ele>
        <time>2017-04-09T14:44:47Z</time>
      </trkpt>
      <trkpt lat="48.37442" lon="2.78935">
        <ele>82.24</ele>
        <time>2017-04-09T14:45:07Z</time>
      </trkpt>
      <trkpt lat="48.37444" lon="2.78938">
        <ele>81.69</ele>
        <time>2017-04-09T14:45:09Z</time>
      </trkpt>
      <trkpt lat="48.37454" lon="2.78948">
        <ele>81.71</ele>
        <time>2017-04-09T14:45:22Z</time>
      </trkpt>
      <trkpt lat="48.37463" lon="2.78964">
        <ele>80.8</ele>
        <time>2017-04-09T14:45:38Z</time>
      </trkpt>
      <trkpt lat="48.37475" lon="2.78983">
        <ele>80.48</ele>
        <time>2017-04-09T14:45:56Z</time>
      </trkpt>
      <trkpt lat="48.37486" lon="2.79005">
        <ele>80.8</ele>
        <time>2017-04-09T14:46:11Z</time>
      </trkpt>
      <trkpt lat="48.37499" lon="2.7903">
        <ele>79.82</ele>
        <time>2017-04-09T14:46:31Z</time>
      </trkpt>
      <trkpt lat="48.37511" lon="2.79048">
        <ele>79.82</ele>
        <time>2017-04-09T14:46:49Z</time>
      </trkpt>
      <trkpt lat="48.37522" lon="2.79064">
        <ele>79.12</ele>
        <time>2017-04-09T14:47:05Z</time>
      </trkpt>
      <trkpt lat="48.3753" lon="2.79071">
        <ele>78</ele>
        <time>2017-04-09T14:47:18Z</time>
      </trkpt>
      <trkpt lat="48.37536" lon="2.7908">
        <ele>78.18</ele>
        <time>2017-04-09T14:47:27Z</time>
      </trkpt>
      <trkpt lat="48.37548" lon="2.79106">
        <ele>77.34</ele>
        <time>2017-04-09T14:47:42Z</time>
      </trkpt>
      <trkpt lat="48.37547" lon="2.79118">
        <ele>77.65</ele>
        <time>2017-04-09T14:47:55Z</time>
      </trkpt>
      <trkpt lat="48.37541" lon="2.79141">
        <ele>77.7</ele>
        <time>2017-04-09T14:48:14Z</time>
      </trkpt>
      <trkpt lat="48.37541" lon="2.79171">
        <ele>77.61</ele>
        <time>2017-04-09T14:48:32Z</time>
      </trkpt>
      <trkpt lat="48.37536" lon="2.79195">
        <ele>77.75</ele>
        <time>2017-04-09T14:48:44Z</time>
      </trkpt>
      <trkpt lat="48.37541" lon="2.79204">
        <ele>77.87</ele>
        <time>2017-04-09T14:48:50Z</time>
      </trkpt>
      <trkpt lat="48.37549" lon="2.7921">
        <ele>77.68</ele>
        <time>2017-04-09T14:48:57Z</time>
      </trkpt>
      <trkpt lat="48.37564" lon="2.79228">
        <ele>77.94</ele>
        <time>2017-04-09T14:49:15Z</time>
      </trkpt>
      <trkpt lat="48.3757" lon="2.79232">
        <ele>77.62</ele>
        <time>2017-04-09T14:49:27Z</time>
      </trkpt>
      <trkpt lat="48.37573" lon="2.79235">
        <ele>77.63</ele>
        <time>2017-04-09T14:49:32Z</time>
      </trkpt>
      <trkpt lat="48.37578" lon="2.79257">
        <ele>77.27</ele>
        <time>2017-04-09T14:49:46Z</time>
      </trkpt>
      <trkpt lat="48.37588" lon="2.79272">
        <ele>77.64</ele>
        <time>2017-04-09T14:49:58Z</time>
      </trkpt>
      <trkpt lat="48.37591" lon="2.79274">
        <ele>77.23</ele>
        <time>2017-04-09T14:50:00Z</time>
      </trkpt>
      <trkpt lat="48.37606" lon="2.7929">
        <ele>76.06</ele>
        <time>2017-04-09T14:50:15Z</time>
      </trkpt>
      <trkpt lat="48.37616" lon="2.79304">
        <ele>76.45</ele>
        <time>2017-04-09T14:50:32Z</time>
      </trkpt>
      <trkpt lat="48.37625" lon="2.79327">
        <ele>76.55</ele>
        <time>2017-04-09T14:50:48Z</time>
      </trkpt>
      <trkpt lat="48.37637" lon="2.7934">
        <ele>75.58</ele>
        <time>2017-04-09T14:51:06Z</time>
      </trkpt>
      <trkpt lat="48.3765" lon="2.79358">
        <ele>74.88</ele>
        <time>2017-04-09T14:51:23Z</time>
      </trkpt>
      <trkpt lat="48.37665" lon="2.79373">
        <ele>73.74</ele>
        <time>2017-04-09T14:51:42Z</time>
      </trkpt>
      <trkpt lat="48.37689" lon="2.79386">
        <ele>73.63</ele>
        <time>2017-04-09T14:52:00Z</time>
      </trkpt>
      <trkpt lat="48.37696" lon="2.79407">
        <ele>72.57</ele>
        <time>2017-04-09T14:52:15Z</time>
      </trkpt>
      <trkpt lat="48.37701" lon="2.79426">
        <ele>72.28</ele>
        <time>2017-04-09T14:52:33Z</time>
      </trkpt>
      <trkpt lat="48.377" lon="2.79429">
        <ele>72.04</ele>
        <time>2017-04-09T14:52:36Z</time>
      </trkpt>
      <trkpt lat="48.37696" lon="2.79442">
        <ele>71.46</ele>
        <time>2017-04-09T14:52:49Z</time>
      </trkpt>
      <trkpt lat="48.377" lon="2.79448">
        <ele>71.07</ele>
        <time>2017-04-09T14:52:52Z</time>
      </trkpt>
      <trkpt lat="48.3771" lon="2.79459">
        <ele>71.46</ele>
        <time>2017-04-09T14:53:01Z</time>
      </trkpt>
      <trkpt lat="48.37712" lon="2.79471">
        <ele>72.09</ele>
        <time>2017-04-09T14:53:09Z</time>
      </trkpt>
      <trkpt lat="48.37713" lon="2.79476">
        <ele>72.7</ele>
        <time>2017-04-09T14:53:15Z</time>
      </trkpt>
      <trkpt lat="48.37716" lon="2.79477">
        <ele>72.28</ele>
        <time>2017-04-09T14:53:40Z</time>
      </trkpt>
      <trkpt lat="48.37724" lon="2.79478">
        <ele>71.33</ele>
        <time>2017-04-09T14:53:57Z</time>
      </trkpt>
      <trkpt lat="48.37736" lon="2.79491">
        <ele>70.62</ele>
        <time>2017-04-09T14:54:16Z</time>
      </trkpt>
      <trkpt lat="48.37737" lon="2.79492">
        <ele>71.16</ele>
        <time>2017-04-09T14:54:18Z</time>
      </trkpt>
      <trkpt lat="48.37739" lon="2.79493">
        <ele>70.36</ele>
        <time>2017-04-09T14:54:21Z</time>
      </trkpt>
      <trkpt lat="48.37763" lon="2.795">
        <ele>69.88</ele>
        <time>2017-04-09T14:54:38Z</time>
      </trkpt>
      <trkpt lat="48.37774" lon="2.79509">
        <ele>69.17</ele>
        <time>2017-04-09T14:54:55Z</time>
      </trkpt>
      <trkpt lat="48.37779" lon="2.79515">
        <ele>69.61</ele>
        <time>2017-04-09T14:55:01Z</time>
      </trkpt>
      <trkpt lat="48.37783" lon="2.7952">
        <ele>69.51</ele>
        <time>2017-04-09T14:55:04Z</time>
      </trkpt>
      <trkpt lat="48.37788" lon="2.79524">
        <ele>69.09</ele>
        <time>2017-04-09T14:55:08Z</time>
      </trkpt>
      <trkpt lat="48.37791" lon="2.79531">
        <ele>68.55</ele>
        <time>2017-04-09T14:55:14Z</time>
      </trkpt>
      <trkpt lat="48.37804" lon="2.79548">
        <ele>68.8</ele>
        <time>2017-04-09T14:55:29Z</time>
      </trkpt>
      <trkpt lat="48.3781" lon="2.79557">
        <ele>68.2</ele>
        <time>2017-04-09T14:55:39Z</time>
      </trkpt>
      <trkpt lat="48.37816" lon="2.79566">
        <ele>68.43</ele>
        <time>2017-04-09T14:55:46Z</time>
      </trkpt>
      <trkpt lat="48.37829" lon="2.7958">
        <ele>67.69</ele>
        <time>2017-04-09T14:56:05Z</time>
      </trkpt>
      <trkpt lat="48.37833" lon="2.79586">
        <ele>67.34</ele>
        <time>2017-04-09T14:56:11Z</time>
      </trkpt>
      <trkpt lat="48.3784" lon="2.79596">
        <ele>66.37</ele>
        <time>2017-04-09T14:56:26Z</time>
      </trkpt>
      <trkpt lat="48.37841" lon="2.79599">
        <ele>66.28</ele>
        <time>2017-04-09T14:56:30Z</time>
      </trkpt>
      <trkpt lat="48.37845" lon="2.79604">
        <ele>66.02</ele>
        <time>2017-04-09T14:56:38Z</time>
      </trkpt>
      <trkpt lat="48.37849" lon="2.7961">
        <ele>65.9</ele>
        <time>2017-04-09T14:56:45Z</time>
      </trkpt>
      <trkpt lat="48.37859" lon="2.79625">
        <ele>65.46</ele>
        <time>2017-04-09T14:56:58Z</time>
      </trkpt>
      <trkpt lat="48.37866" lon="2.79633">
        <ele>65.5</ele>
        <time>2017-04-09T14:57:07Z</time>
      </trkpt>
      <trkpt lat="48.37869" lon="2.79638">
        <ele>65.13</ele>
        <time>2017-04-09T14:57:11Z</time>
      </trkpt>
      <trkpt lat="48.37886" lon="2.79661">
        <ele>65.1</ele>
        <time>2017-04-09T14:57:32Z</time>
      </trkpt>
      <trkpt lat="48.379" lon="2.79681">
        <ele>65.56</ele>
        <time>2017-04-09T14:57:52Z</time>
      </trkpt>
      <trkpt lat="48.37911" lon="2.79688">
        <ele>65.82</ele>
        <time>2017-04-09T14:58:07Z</time>
      </trkpt>
      <trkpt lat="48.37907" lon="2.79684">
        <ele>66.16</ele>
        <time>2017-04-09T14:58:11Z</time>
      </trkpt>
      <trkpt lat="48.37906" lon="2.79676">
        <ele>62.84</ele>
        <time>2017-04-09T14:58:27Z</time>
      </trkpt>
      <trkpt lat="48.37912" lon="2.79675">
        <ele>59.9</ele>
        <time>2017-04-09T14:58:49Z</time>
      </trkpt>
      <trkpt lat="48.37913" lon="2.79686">
        <ele>59</ele>
        <time>2017-04-09T14:59:11Z</time>
      </trkpt>
      <trkpt lat="48.37903" lon="2.79706">
        <ele>58.69</ele>
        <time>2017-04-09T14:59:29Z</time>
      </trkpt>
      <trkpt lat="48.37894" lon="2.79724">
        <ele>58.51</ele>
        <time>2017-04-09T14:59:43Z</time>
      </trkpt>
      <trkpt lat="48.37883" lon="2.79732">
        <ele>58.64</ele>
        <time>2017-04-09T14:59:57Z</time>
      </trkpt>
      <trkpt lat="48.37864" lon="2.79739">
        <ele>58.94</ele>
        <time>2017-04-09T15:00:16Z</time>
      </trkpt>
      <trkpt lat="48.37858" lon="2.79745">
        <ele>58.38</ele>
        <time>2017-04-09T15:00:23Z</time>
      </trkpt>
      <trkpt lat="48.37854" lon="2.79748">
        <ele>58.84</ele>
        <time>2017-04-09T15:00:28Z</time>
      </trkpt>
      <trkpt lat="48.3784" lon="2.79756">
        <ele>58.18</ele>
        <time>2017-04-09T15:00:46Z</time>
      </trkpt>
      <trkpt lat="48.37822" lon="2.79772">
        <ele>58.38</ele>
        <time>2017-04-09T15:01:05Z</time>
      </trkpt>
      <trkpt lat="48.37813" lon="2.79787">
        <ele>57.59</ele>
        <time>2017-04-09T15:01:20Z</time>
      </trkpt>
      <trkpt lat="48.37807" lon="2.79805">
        <ele>58.21</ele>
        <time>2017-04-09T15:01:36Z</time>
      </trkpt>
    </trkseg>
  </trk>
</gpx>